Wetterdaten: aktuell Samstag, 03.06.2023 16:23
Datum Zeit Temp. I. Temp. 2m Temp. 5cm LF I. Luftf.2m Luftdruck Regen Wind Richtung Richtung Taupunkt Windchill Windben
03.06.2023 16:23 21,4 C 24,6 C 23,0 C 45 % 34 % 1021,1 hPa 0,0 l/m 0,2 km/h (0 Bft) O-SO 112 7,7 C 24,6 C 0,0 km/h (0 Bft)
03.06.2023 16:22 21,5 C 24,6 C 22,9 C 45 % 33 % 1021,1 hPa 0,0 l/m 0,2 km/h (0 Bft) O-NO 67 7,2 C 24,6 C 0,0 km/h (0 Bft)
03.06.2023 16:21 21,5 C 24,6 C 22,9 C 45 % 33 % 1021,1 hPa 0,0 l/m 0,2 km/h (0 Bft) O-NO 67 7,2 C 24,6 C 0,0 km/h (0 Bft)
03.06.2023 16:20 21,4 C 24,7 C 22,9 C 45 % 34 % 1021,1 hPa 0,0 l/m 0,2 km/h (0 Bft) O 90 7,8 C 24,7 C 0,0 km/h (0 Bft)
03.06.2023 16:19 21,4 C 24,7 C 22,9 C 45 % 34 % 1021,1 hPa 0,0 l/m 0,2 km/h (0 Bft) O 90 7,8 C 24,7 C 0,0 km/h (0 Bft)
03.06.2023 16:18 21,5 C 24,7 C 22,8 C 44 % 34 % 1021,1 hPa 0,0 l/m 0,2 km/h (0 Bft) O-SO 112 7,8 C 24,7 C 0,0 km/h (0 Bft)
03.06.2023 16:17 21,5 C 24,7 C 22,8 C 44 % 34 % 1021,1 hPa 0,0 l/m 0,2 km/h (0 Bft) O-SO 112 7,8 C 24,7 C 0,0 km/h (0 Bft)
03.06.2023 16:16 21,4 C 24,8 C 22,9 C 45 % 34 % 1021,1 hPa 0,0 l/m 0,2 km/h (0 Bft) O-SO 112 7,9 C 24,8 C 0,0 km/h (0 Bft)
03.06.2023 16:15 21,4 C 24,8 C 22,9 C 45 % 34 % 1021,1 hPa 0,0 l/m 0,2 km/h (0 Bft) O-SO 112 7,9 C 24,8 C 0,0 km/h (0 Bft)
03.06.2023 16:14 21,4 C 24,7 C 23,0 C 45 % 34 % 1021,1 hPa 0,0 l/m 0,2 km/h (0 Bft) S-SO 157 7,8 C 24,7 C 0,0 km/h (0 Bft)
03.06.2023 16:12 21,4 C 24,7 C 23,0 C 45 % 34 % 1021,1 hPa 0,0 l/m 0,2 km/h (0 Bft) S-SO 157 7,8 C 24,7 C 0,0 km/h (0 Bft)
03.06.2023 16:12 21,4 C 24,6 C 22,9 C 44 % 34 % 1021,3 hPa 0,0 l/m 0,2 km/h (0 Bft) O-SO 112 7,7 C 24,6 C 0,0 km/h (0 Bft)
03.06.2023 16:11 21,4 C 24,6 C 22,9 C 44 % 34 % 1021,3 hPa 0,0 l/m 0,2 km/h (0 Bft) O-SO 112 7,7 C 24,6 C 0,0 km/h (0 Bft)
03.06.2023 16:09 21,4 C 24,5 C 22,8 C 45 % 34 % 1021,3 hPa 0,0 l/m 0,0 km/h (0 Bft) O 90 7,6 C 24,5 C 0,0 km/h (0 Bft)
03.06.2023 16:08 21,4 C 24,6 C 22,8 C 45 % 33 % 1021,3 hPa 0,0 l/m 0,0 km/h (0 Bft) O 90 7,2 C 24,6 C 0,0 km/h (0 Bft)
03.06.2023 16:07 21,4 C 24,6 C 22,8 C 45 % 33 % 1021,3 hPa 0,0 l/m 0,0 km/h (0 Bft) O 90 7,2 C 24,6 C 0,0 km/h (0 Bft)
03.06.2023 16:06 21,4 C 24,6 C 22,8 C 45 % 33 % 1021,3 hPa 0,0 l/m 0,0 km/h (0 Bft) O 90 7,2 C 24,6 C 0,0 km/h (0 Bft)
03.06.2023 16:04 21,2 C 24,7 C 22,7 C 45 % 33 % 1021,3 hPa 0,0 l/m 0,0 km/h (0 Bft) O 90 7,3 C 24,7 C 0,0 km/h (0 Bft)
03.06.2023 16:03 21,2 C 24,7 C 22,7 C 45 % 33 % 1021,3 hPa 0,0 l/m 0,0 km/h (0 Bft) O 90 7,3 C 24,7 C 0,0 km/h (0 Bft)
03.06.2023 16:02 21,2 C 24,8 C 23,0 C 45 % 34 % 1021,3 hPa 0,0 l/m 0,2 km/h (0 Bft) O-SO 112 7,9 C 24,8 C 0,0 km/h (0 Bft)
03.06.2023 16:01 21,2 C 24,8 C 23,0 C 45 % 34 % 1021,3 hPa 0,0 l/m 0,2 km/h (0 Bft) O-SO 112 7,9 C 24,8 C 0,0 km/h (0 Bft)
03.06.2023 16:00 21,2 C 24,8 C 23,0 C 45 % 34 % 1021,3 hPa 0,0 l/m 0,2 km/h (0 Bft) O 90 7,9 C 24,8 C 0,0 km/h (0 Bft)
03.06.2023 15:59 21,2 C 24,8 C 23,0 C 45 % 34 % 1021,3 hPa 0,0 l/m 0,2 km/h (0 Bft) O 90 7,9 C 24,8 C 0,0 km/h (0 Bft)
03.06.2023 15:58 21,2 C 24,8 C 23,0 C 45 % 34 % 1021,3 hPa 0,0 l/m 0,2 km/h (0 Bft) O-SO 112 7,9 C 24,8 C 0,0 km/h (0 Bft)
03.06.2023 15:57 21,2 C 24,8 C 23,0 C 45 % 34 % 1021,3 hPa 0,0 l/m 0,2 km/h (0 Bft) O-SO 112 7,9 C 24,8 C 0,0 km/h (0 Bft)
03.06.2023 15:56 21,3 C 24,8 C 23,0 C 45 % 34 % 1021,3 hPa 0,0 l/m 0,2 km/h (0 Bft) SO 135 7,9 C 24,8 C 0,0 km/h (0 Bft)
03.06.2023 15:55 21,3 C 24,8 C 23,0 C 45 % 34 % 1021,3 hPa 0,0 l/m 0,2 km/h (0 Bft) SO 135 7,9 C 24,8 C 0,0 km/h (0 Bft)
03.06.2023 15:54 21,2 C 24,8 C 23,0 C 45 % 34 % 1021,3 hPa 0,0 l/m 0,2 km/h (0 Bft) O-SO 112 7,9 C 24,8 C 0,0 km/h (0 Bft)
03.06.2023 15:53 21,2 C 24,8 C 23,0 C 45 % 34 % 1021,3 hPa 0,0 l/m 0,2 km/h (0 Bft) O-SO 112 7,9 C 24,8 C 0,0 km/h (0 Bft)
03.06.2023 15:52 21,2 C 24,8 C 23,0 C 45 % 34 % 1021,6 hPa 0,0 l/m 0,2 km/h (0 Bft) O-SO 112 7,9 C 24,8 C 0,0 km/h (0 Bft)
03.06.2023 15:51 21,2 C 24,8 C 23,0 C 45 % 34 % 1021,6 hPa 0,0 l/m 0,2 km/h (0 Bft) O-SO 112 7,9 C 24,8 C 0,0 km/h (0 Bft)
03.06.2023 15:50 21,2 C 24,7 C 22,9 C 45 % 34 % 1021,6 hPa 0,0 l/m 0,2 km/h (0 Bft) O 90 7,8 C 24,7 C 0,0 km/h (0 Bft)
03.06.2023 15:49 21,2 C 24,7 C 22,9 C 45 % 34 % 1021,6 hPa 0,0 l/m 0,2 km/h (0 Bft) O 90 7,8 C 24,7 C 0,0 km/h (0 Bft)
03.06.2023 15:48 21,2 C 24,6 C 22,8 C 45 % 34 % 1021,6 hPa 0,0 l/m 0,2 km/h (0 Bft) N-NO 22 7,7 C 24,6 C 0,0 km/h (0 Bft)
03.06.2023 15:47 21,2 C 24,6 C 22,8 C 45 % 34 % 1021,6 hPa 0,0 l/m 0,2 km/h (0 Bft) N-NO 22 7,7 C 24,6 C 0,0 km/h (0 Bft)
03.06.2023 15:46 21,2 C 24,6 C 22,7 C 45 % 34 % 1021,6 hPa 0,0 l/m 0,0 km/h (0 Bft) O-SO 112 7,7 C 24,6 C 0,0 km/h (0 Bft)
03.06.2023 15:45 21,2 C 24,6 C 22,7 C 45 % 34 % 1021,6 hPa 0,0 l/m 0,0 km/h (0 Bft) O-SO 112 7,7 C 24,6 C 0,0 km/h (0 Bft)
03.06.2023 15:44 21,2 C 24,7 C 22,9 C 45 % 34 % 1021,6 hPa 0,0 l/m 0,0 km/h (0 Bft) O-SO 112 7,8 C 24,7 C 0,0 km/h (0 Bft)
03.06.2023 15:43 21,2 C 24,7 C 22,9 C 45 % 34 % 1021,6 hPa 0,0 l/m 0,0 km/h (0 Bft) O-SO 112 7,8 C 24,7 C 0,0 km/h (0 Bft)
03.06.2023 15:42 21,2 C 24,6 C 23,0 C 45 % 34 % 1021,6 hPa 0,0 l/m 0,2 km/h (0 Bft) SO 135 7,7 C 24,6 C 0,0 km/h (0 Bft)
03.06.2023 15:41 21,2 C 24,6 C 23,0 C 45 % 34 % 1021,6 hPa 0,1 l/m 0,2 km/h (0 Bft) SO 135 7,7 C 24,6 C 0,0 km/h (0 Bft)
03.06.2023 15:40 21,2 C 24,6 C 23,0 C 45 % 34 % 1021,6 hPa 0,0 l/m 0,2 km/h (0 Bft) W 270 7,7 C 24,6 C 0,0 km/h (0 Bft)
03.06.2023 15:39 21,2 C 24,6 C 23,0 C 45 % 34 % 1021,6 hPa 0,0 l/m 0,2 km/h (0 Bft) W 270 7,7 C 24,6 C 0,0 km/h (0 Bft)
03.06.2023 15:38 21,1 C 24,5 C 22,9 C 45 % 34 % 1021,6 hPa 0,0 l/m 0,2 km/h (0 Bft) O 90 7,6 C 24,5 C 0,0 km/h (0 Bft)
03.06.2023 15:37 21,1 C 24,5 C 22,9 C 45 % 34 % 1021,6 hPa 0,0 l/m 0,2 km/h (0 Bft) O 90 7,6 C 24,5 C 0,0 km/h (0 Bft)
03.06.2023 15:36 21,1 C 24,5 C 22,7 C 45 % 34 % 1021,6 hPa 0,0 l/m 0,2 km/h (0 Bft) O-SO 112 7,6 C 24,5 C 0,0 km/h (0 Bft)
03.06.2023 15:35 21,1 C 24,5 C 22,7 C 45 % 34 % 1021,6 hPa 0,0 l/m 0,2 km/h (0 Bft) O-SO 112 7,6 C 24,5 C 0,0 km/h (0 Bft)
03.06.2023 15:34 21,1 C 24,7 C 22,6 C 45 % 34 % 1021,6 hPa 0,0 l/m 0,2 km/h (0 Bft) O-SO 112 7,8 C 24,7 C 0,0 km/h (0 Bft)
03.06.2023 15:33 21,1 C 24,7 C 22,6 C 45 % 34 % 1021,6 hPa 0,0 l/m 0,2 km/h (0 Bft) O-SO 112 7,8 C 24,7 C 0,0 km/h (0 Bft)
03.06.2023 15:32 21,1 C 24,7 C 22,9 C 45 % 34 % 1021,6 hPa 0,0 l/m 0,2 km/h (0 Bft) O-NO 67 7,8 C 24,7 C 2,3 km/h (1 Bft)
03.06.2023 15:31 21,1 C 24,7 C 22,9 C 45 % 34 % 1021,6 hPa 0,0 l/m 0,2 km/h (0 Bft) O-NO 67 7,8 C 24,7 C 2,3 km/h (1 Bft)
03.06.2023 15:30 21,1 C 24,7 C 22,9 C 45 % 34 % 1021,6 hPa 0,0 l/m 0,2 km/h (0 Bft) O-NO 67 7,8 C 24,7 C 2,5 km/h (1 Bft)
03.06.2023 15:29 21,1 C 24,7 C 22,9 C 45 % 34 % 1021,6 hPa 0,0 l/m 0,2 km/h (0 Bft) O-NO 67 7,8 C 24,7 C 2,5 km/h (1 Bft)
03.06.2023 15:28 21,0 C 24,6 C 22,9 C 45 % 34 % 1021,6 hPa 0,0 l/m 0,2 km/h (0 Bft) S-SO 157 7,7 C 24,6 C 0,0 km/h (0 Bft)
03.06.2023 15:27 21,0 C 24,6 C 22,9 C 45 % 34 % 1021,6 hPa 0,0 l/m 0,2 km/h (0 Bft) S-SO 157 7,7 C 24,6 C 0,0 km/h (0 Bft)
03.06.2023 15:26 21,1 C 24,6 C 22,9 C 45 % 34 % 1021,6 hPa 0,0 l/m 0,2 km/h (0 Bft) O 90 7,7 C 24,6 C 0,0 km/h (0 Bft)
03.06.2023 15:25 21,1 C 24,6 C 22,9 C 45 % 34 % 1021,6 hPa 0,0 l/m 0,2 km/h (0 Bft) O 90 7,7 C 24,6 C 0,0 km/h (0 Bft)
03.06.2023 15:24 21,0 C 24,3 C 22,7 C 45 % 34 % 1021,6 hPa 0,0 l/m 0,2 km/h (0 Bft) O 90 7,4 C 24,3 C 0,0 km/h (0 Bft)
03.06.2023 15:23 21,0 C 24,3 C 22,7 C 45 % 34 % 1021,6 hPa 0,0 l/m 0,2 km/h (0 Bft) O 90 7,4 C 24,3 C 0,0 km/h (0 Bft)
03.06.2023 15:22 21,0 C 24,2 C 22,5 C 45 % 34 % 1021,6 hPa 0,0 l/m 0,2 km/h (0 Bft) S-SO 157 7,3 C 24,2 C 0,0 km/h (0 Bft)
03.06.2023 15:21 21,0 C 24,2 C 22,5 C 45 % 34 % 1021,6 hPa 0,0 l/m 0,2 km/h (0 Bft) S-SO 157 7,3 C 24,2 C 0,0 km/h (0 Bft)
03.06.2023 15:20 21,0 C 24,4 C 22,2 C 45 % 34 % 1021,6 hPa 0,0 l/m 0,2 km/h (0 Bft) S-SO 157 7,5 C 24,4 C 0,0 km/h (0 Bft)
03.06.2023 15:19 21,0 C 24,4 C 22,2 C 45 % 34 % 1021,6 hPa 0,0 l/m 0,2 km/h (0 Bft) S-SO 157 7,5 C 24,4 C 0,0 km/h (0 Bft)
03.06.2023 15:18 21,0 C 24,6 C 22,4 C 45 % 34 % 1021,6 hPa 0,0 l/m 0,2 km/h (0 Bft) O-SO 112 7,7 C 24,6 C 3,1 km/h (1 Bft)
03.06.2023 15:17 21,0 C 24,6 C 22,4 C 45 % 34 % 1021,6 hPa 0,0 l/m 0,2 km/h (0 Bft) O-SO 112 7,7 C 24,6 C 3,1 km/h (1 Bft)
03.06.2023 15:16 21,0 C 24,8 C 22,6 C 46 % 34 % 1021,6 hPa 0,0 l/m 0,2 km/h (0 Bft) S-SO 157 7,9 C 24,8 C 0,0 km/h (0 Bft)
03.06.2023 15:15 21,0 C 24,8 C 22,6 C 46 % 34 % 1021,6 hPa 0,0 l/m 0,2 km/h (0 Bft) S-SO 157 7,9 C 24,8 C 0,0 km/h (0 Bft)
03.06.2023 15:14 21,0 C 24,8 C 22,7 C 46 % 34 % 1021,6 hPa 0,0 l/m 0,2 km/h (0 Bft) O-SO 112 7,9 C 24,8 C 0,0 km/h (0 Bft)
03.06.2023 15:13 21,0 C 24,8 C 22,7 C 46 % 34 % 1021,6 hPa 0,0 l/m 0,2 km/h (0 Bft) O-SO 112 7,9 C 24,8 C 0,0 km/h (0 Bft)
03.06.2023 15:12 20,9 C 24,8 C 22,8 C 46 % 34 % 1021,7 hPa 0,0 l/m 0,2 km/h (0 Bft) O 90 7,9 C 24,8 C 2,1 km/h (1 Bft)
03.06.2023 15:11 20,9 C 24,8 C 22,8 C 46 % 34 % 1021,7 hPa 0,0 l/m 0,2 km/h (0 Bft) O 90 7,9 C 24,8 C 2,1 km/h (1 Bft)
03.06.2023 15:10 20,9 C 24,9 C 22,8 C 46 % 34 % 1021,7 hPa 0,0 l/m 0,2 km/h (0 Bft) O-NO 67 7,9 C 24,9 C 0,0 km/h (0 Bft)
03.06.2023 15:09 20,9 C 24,9 C 22,8 C 46 % 34 % 1021,7 hPa 0,0 l/m 0,2 km/h (0 Bft) O-NO 67 7,9 C 24,9 C 0,0 km/h (0 Bft)
03.06.2023 15:08 20,9 C 25,0 C 22,4 C 46 % 33 % 1021,7 hPa 0,0 l/m 0,2 km/h (0 Bft) S-SO 157 7,6 C 25,0 C 0,0 km/h (0 Bft)
03.06.2023 15:07 20,9 C 25,0 C 22,4 C 46 % 33 % 1021,7 hPa 0,0 l/m 0,2 km/h (0 Bft) S-SO 157 7,6 C 25,0 C 0,0 km/h (0 Bft)
03.06.2023 15:06 20,9 C 25,2 C 23,1 C 46 % 34 % 1021,7 hPa 0,0 l/m 0,2 km/h (0 Bft) O-NO 67 8,2 C 25,2 C 2,1 km/h (1 Bft)
03.06.2023 15:05 20,9 C 25,2 C 23,1 C 46 % 34 % 1021,7 hPa 0,0 l/m 0,2 km/h (0 Bft) O-NO 67 8,2 C 25,2 C 2,1 km/h (1 Bft)
03.06.2023 15:04 20,9 C 25,1 C 23,0 C 46 % 34 % 1021,7 hPa 0,0 l/m 0,2 km/h (0 Bft) NO 45 8,1 C 25,1 C 2,3 km/h (1 Bft)
03.06.2023 15:03 20,9 C 25,1 C 23,0 C 46 % 34 % 1021,7 hPa 0,0 l/m 0,2 km/h (0 Bft) NO 45 8,1 C 25,1 C 2,3 km/h (1 Bft)
03.06.2023 15:02 20,9 C 25,0 C 22,9 C 46 % 34 % 1021,7 hPa 0,0 l/m 0,0 km/h (0 Bft) O-SO 112 8,0 C 25,0 C 0,0 km/h (0 Bft)
03.06.2023 15:01 20,9 C 25,0 C 22,9 C 46 % 34 % 1021,7 hPa 0,0 l/m 0,0 km/h (0 Bft) O-SO 112 8,0 C 25,0 C 0,0 km/h (0 Bft)
03.06.2023 15:00 20,9 C 25,0 C 22,8 C 46 % 34 % 1021,7 hPa 0,0 l/m 0,0 km/h (0 Bft) O 90 8,0 C 25,0 C 2,5 km/h (1 Bft)
03.06.2023 14:59 20,9 C 25,0 C 22,8 C 46 % 34 % 1021,7 hPa 0,0 l/m 0,0 km/h (0 Bft) O 90 8,0 C 25,0 C 2,5 km/h (1 Bft)
03.06.2023 14:58 20,8 C 24,8 C 22,8 C 46 % 34 % 1021,7 hPa 0,0 l/m 0,2 km/h (0 Bft) NO 45 7,9 C 24,8 C 0,0 km/h (0 Bft)
03.06.2023 14:57 20,8 C 24,8 C 22,8 C 46 % 34 % 1021,7 hPa 0,0 l/m 0,2 km/h (0 Bft) NO 45 7,9 C 24,8 C 0,0 km/h (0 Bft)
03.06.2023 14:56 20,8 C 24,6 C 22,8 C 46 % 34 % 1021,7 hPa 0,0 l/m 0,2 km/h (0 Bft) O-SO 112 7,7 C 24,6 C 0,0 km/h (0 Bft)
03.06.2023 14:55 20,8 C 24,6 C 22,8 C 46 % 34 % 1021,7 hPa 0,0 l/m 0,2 km/h (0 Bft) O-SO 112 7,7 C 24,6 C 0,0 km/h (0 Bft)
03.06.2023 14:54 20,8 C 24,4 C 22,7 C 46 % 34 % 1021,7 hPa 0,0 l/m 0,2 km/h (0 Bft) O 90 7,5 C 24,4 C 0,0 km/h (0 Bft)
03.06.2023 14:53 20,8 C 24,4 C 22,7 C 46 % 34 % 1021,7 hPa 0,0 l/m 0,2 km/h (0 Bft) O 90 7,5 C 24,4 C 0,0 km/h (0 Bft)
03.06.2023 14:52 20,8 C 24,4 C 22,6 C 46 % 34 % 1021,8 hPa 0,0 l/m 0,2 km/h (0 Bft) SO 135 7,5 C 24,4 C 0,0 km/h (0 Bft)
03.06.2023 14:51 20,8 C 24,4 C 22,6 C 46 % 34 % 1021,8 hPa 0,0 l/m 0,2 km/h (0 Bft) SO 135 7,5 C 24,4 C 0,0 km/h (0 Bft)
03.06.2023 14:50 20,8 C 24,4 C 22,6 C 46 % 34 % 1021,8 hPa 0,0 l/m 0,2 km/h (0 Bft) N-NW 337 7,5 C 24,4 C 0,0 km/h (0 Bft)
03.06.2023 14:49 20,8 C 24,4 C 22,6 C 46 % 34 % 1021,8 hPa 0,0 l/m 0,2 km/h (0 Bft) N-NW 337 7,5 C 24,4 C 0,0 km/h (0 Bft)
03.06.2023 14:48 20,8 C 24,4 C 22,6 C 46 % 34 % 1021,8 hPa 0,0 l/m 0,2 km/h (0 Bft) O-SO 112 7,5 C 24,4 C 2,7 km/h (1 Bft)
03.06.2023 14:47 20,8 C 24,4 C 22,6 C 46 % 34 % 1021,8 hPa 0,0 l/m 0,2 km/h (0 Bft) O-SO 112 7,5 C 24,4 C 2,7 km/h (1 Bft)
03.06.2023 14:46 20,8 C 24,3 C 22,6 C 46 % 34 % 1021,8 hPa 0,0 l/m 0,2 km/h (0 Bft) O-NO 67 7,4 C 24,3 C 0,0 km/h (0 Bft)
03.06.2023 14:45 20,8 C 24,3 C 22,6 C 46 % 34 % 1021,8 hPa 0,0 l/m 0,2 km/h (0 Bft) O-NO 67 7,4 C 24,3 C 0,0 km/h (0 Bft)
03.06.2023 14:44 20,8 C 24,2 C 22,5 C 46 % 34 % 1021,8 hPa 0,0 l/m 0,2 km/h (0 Bft) SO 135 7,3 C 24,2 C 0,0 km/h (0 Bft)
03.06.2023 14:43 20,8 C 24,2 C 22,5 C 46 % 34 % 1021,8 hPa 0,0 l/m 0,2 km/h (0 Bft) SO 135 7,3 C 24,2 C 0,0 km/h (0 Bft)
03.06.2023 14:42 20,8 C 24,2 C 22,3 C 46 % 34 % 1021,8 hPa 0,0 l/m 0,2 km/h (0 Bft) O-SO 112 7,3 C 24,2 C 2,3 km/h (1 Bft)
03.06.2023 14:41 20,8 C 24,2 C 22,3 C 46 % 34 % 1021,8 hPa 0,0 l/m 0,2 km/h (0 Bft) O-SO 112 7,3 C 24,2 C 2,3 km/h (1 Bft)
03.06.2023 14:40 20,7 C 24,4 C 22,4 C 46 % 34 % 1021,8 hPa 0,0 l/m 0,0 km/h (0 Bft) O-NO 67 7,5 C 24,4 C 0,0 km/h (0 Bft)
03.06.2023 14:39 20,7 C 24,4 C 22,4 C 46 % 34 % 1021,8 hPa 0,0 l/m 0,0 km/h (0 Bft) O-NO 67 7,5 C 24,4 C 0,0 km/h (0 Bft)
03.06.2023 14:38 20,7 C 24,6 C 22,6 C 46 % 34 % 1021,8 hPa 0,0 l/m 0,2 km/h (0 Bft) O 90 7,7 C 24,6 C 0,0 km/h (0 Bft)
03.06.2023 14:37 20,7 C 24,6 C 22,6 C 46 % 34 % 1021,8 hPa 0,0 l/m 0,2 km/h (0 Bft) O 90 7,7 C 24,6 C 0,0 km/h (0 Bft)
03.06.2023 14:36 20,7 C 24,7 C 22,6 C 47 % 34 % 1021,8 hPa 0,0 l/m 0,2 km/h (0 Bft) O-SO 112 7,8 C 24,7 C 2,1 km/h (1 Bft)
03.06.2023 14:35 20,7 C 24,7 C 22,6 C 47 % 34 % 1021,8 hPa 0,0 l/m 0,2 km/h (0 Bft) O-SO 112 7,8 C 24,7 C 2,1 km/h (1 Bft)
03.06.2023 14:34 20,7 C 24,6 C 22,6 C 47 % 34 % 1021,8 hPa 0,0 l/m 0,0 km/h (0 Bft) O 90 7,7 C 24,6 C 0,0 km/h (0 Bft)
03.06.2023 14:33 20,7 C 24,6 C 22,6 C 47 % 34 % 1021,8 hPa 0,0 l/m 0,0 km/h (0 Bft) O 90 7,7 C 24,6 C 0,0 km/h (0 Bft)
03.06.2023 14:32 20,7 C 24,5 C 22,5 C 47 % 34 % 1022,1 hPa 0,0 l/m 0,0 km/h (0 Bft) O-NO 67 7,6 C 24,5 C 0,0 km/h (0 Bft)
03.06.2023 14:31 20,7 C 24,5 C 22,5 C 47 % 34 % 1022,1 hPa 0,0 l/m 0,0 km/h (0 Bft) O-NO 67 7,6 C 24,5 C 0,0 km/h (0 Bft)
03.06.2023 14:30 20,7 C 24,4 C 22,6 C 47 % 34 % 1022,1 hPa 0,0 l/m 0,0 km/h (0 Bft) O-SO 112 7,5 C 24,4 C 0,0 km/h (0 Bft)
03.06.2023 14:29 20,7 C 24,4 C 22,6 C 47 % 34 % 1022,1 hPa 0,0 l/m 0,0 km/h (0 Bft) O-SO 112 7,5 C 24,4 C 0,0 km/h (0 Bft)
03.06.2023 14:28 20,7 C 24,2 C 22,5 C 46 % 34 % 1022,1 hPa 0,0 l/m 0,0 km/h (0 Bft) O-SO 112 7,3 C 24,2 C 2,3 km/h (1 Bft)
03.06.2023 14:27 20,7 C 24,2 C 22,5 C 46 % 34 % 1022,1 hPa 0,0 l/m 0,0 km/h (0 Bft) O-SO 112 7,3 C 24,2 C 2,3 km/h (1 Bft)
03.06.2023 14:26 20,7 C 24,2 C 22,4 C 46 % 34 % 1022,1 hPa 0,0 l/m 0,0 km/h (0 Bft) O 90 7,3 C 24,2 C 0,0 km/h (0 Bft)
03.06.2023 14:25 20,7 C 24,2 C 22,4 C 46 % 34 % 1022,1 hPa 0,0 l/m 0,0 km/h (0 Bft) O 90 7,3 C 24,2 C 0,0 km/h (0 Bft)
03.06.2023 14:24 20,6 C 24,0 C 22,4 C 47 % 34 % 1022,1 hPa 0,0 l/m 0,0 km/h (0 Bft) O-SO 112 7,2 C 24,0 C 0,0 km/h (0 Bft)
03.06.2023 14:23 20,6 C 24,0 C 22,4 C 47 % 34 % 1022,1 hPa 0,0 l/m 0,0 km/h (0 Bft) O-SO 112 7,2 C 24,0 C 0,0 km/h (0 Bft)
03.06.2023 14:22 20,6 C 23,9 C 22,4 C 46 % 34 % 1022,1 hPa 0,0 l/m 0,2 km/h (0 Bft) N-NO 22 7,1 C 23,9 C 0,0 km/h (0 Bft)
03.06.2023 14:21 20,6 C 23,9 C 22,4 C 46 % 34 % 1022,1 hPa 0,0 l/m 0,2 km/h (0 Bft) N-NO 22 7,1 C 23,9 C 0,0 km/h (0 Bft)
03.06.2023 14:20 20,6 C 23,8 C 22,2 C 46 % 34 % 1022,1 hPa 0,0 l/m 0,2 km/h (0 Bft) O 90 7,0 C 23,8 C 0,0 km/h (0 Bft)
03.06.2023 14:19 20,6 C 23,8 C 22,2 C 46 % 34 % 1022,1 hPa 0,0 l/m 0,2 km/h (0 Bft) O 90 7,0 C 23,8 C 0,0 km/h (0 Bft)
03.06.2023 14:18 20,6 C 23,7 C 22,2 C 46 % 34 % 1022,1 hPa 0,0 l/m 0,2 km/h (0 Bft) O-SO 112 6,9 C 23,7 C 0,0 km/h (0 Bft)
03.06.2023 14:17 20,6 C 23,7 C 22,2 C 46 % 34 % 1022,1 hPa 0,0 l/m 0,2 km/h (0 Bft) O-SO 112 6,9 C 23,7 C 0,0 km/h (0 Bft)
03.06.2023 14:16 20,6 C 23,6 C 22,2 C 46 % 34 % 1022,1 hPa 0,0 l/m 0,2 km/h (0 Bft) O 90 6,8 C 23,6 C 0,0 km/h (0 Bft)
03.06.2023 14:15 20,6 C 23,6 C 22,2 C 46 % 34 % 1022,1 hPa 0,0 l/m 0,2 km/h (0 Bft) O 90 6,8 C 23,6 C 0,0 km/h (0 Bft)
03.06.2023 14:14 20,6 C 23,5 C 22,1 C 46 % 34 % 1022,1 hPa 0,0 l/m 0,2 km/h (0 Bft) O 90 6,7 C 23,5 C 0,0 km/h (0 Bft)
03.06.2023 14:13 20,6 C 23,5 C 22,1 C 46 % 34 % 1022,1 hPa 0,0 l/m 0,2 km/h (0 Bft) O 90 6,7 C 23,5 C 0,0 km/h (0 Bft)
03.06.2023 14:12 20,6 C 23,7 C 22,2 C 46 % 34 % 1021,9 hPa 0,0 l/m 0,2 km/h (0 Bft) SO 135 6,9 C 23,7 C 0,0 km/h (0 Bft)
03.06.2023 14:11 20,6 C 23,7 C 22,2 C 46 % 34 % 1021,9 hPa 0,0 l/m 0,2 km/h (0 Bft) SO 135 6,9 C 23,7 C 0,0 km/h (0 Bft)
03.06.2023 14:10 20,5 C 23,8 C 22,2 C 46 % 34 % 1021,9 hPa 0,0 l/m 0,2 km/h (0 Bft) S 180 7,0 C 23,8 C 0,0 km/h (0 Bft)
03.06.2023 14:09 20,5 C 23,8 C 22,2 C 46 % 34 % 1021,9 hPa 0,0 l/m 0,2 km/h (0 Bft) S 180 7,0 C 23,8 C 0,0 km/h (0 Bft)
03.06.2023 14:08 20,6 C 23,9 C 22,3 C 47 % 34 % 1021,9 hPa 0,0 l/m 0,2 km/h (0 Bft) SO 135 7,1 C 23,9 C 0,0 km/h (0 Bft)
03.06.2023 14:07 20,6 C 23,9 C 22,3 C 47 % 34 % 1021,9 hPa 0,0 l/m 0,2 km/h (0 Bft) SO 135 7,1 C 23,9 C 0,0 km/h (0 Bft)
03.06.2023 14:06 20,5 C 24,1 C 22,2 C 47 % 34 % 1021,9 hPa 0,0 l/m 0,2 km/h (0 Bft) O 90 7,2 C 24,1 C 0,0 km/h (0 Bft)
03.06.2023 14:05 20,5 C 24,1 C 22,2 C 47 % 34 % 1021,9 hPa 0,0 l/m 0,2 km/h (0 Bft) O 90 7,2 C 24,1 C 0,0 km/h (0 Bft)
03.06.2023 14:04 20,5 C 24,2 C 22,4 C 47 % 35 % 1021,9 hPa 0,0 l/m 0,0 km/h (0 Bft) O-NO 67 7,8 C 24,2 C 3,1 km/h (1 Bft)
03.06.2023 14:03 20,5 C 24,2 C 22,4 C 47 % 35 % 1021,9 hPa 0,0 l/m 0,0 km/h (0 Bft) O-NO 67 7,8 C 24,2 C 3,1 km/h (1 Bft)
03.06.2023 14:02 20,5 C 24,1 C 22,2 C 47 % 34 % 1021,9 hPa 0,0 l/m 0,0 km/h (0 Bft) O-SO 112 7,2 C 24,1 C 0,0 km/h (0 Bft)
03.06.2023 14:01 20,5 C 24,1 C 22,2 C 47 % 34 % 1021,9 hPa 0,0 l/m 0,0 km/h (0 Bft) O-SO 112 7,2 C 24,1 C 0,0 km/h (0 Bft)
03.06.2023 14:00 20,4 C 24,1 C 22,2 C 47 % 35 % 1021,9 hPa 0,0 l/m 0,0 km/h (0 Bft) O-NO 67 7,7 C 24,1 C 0,0 km/h (0 Bft)
03.06.2023 13:59 20,4 C 24,1 C 22,2 C 47 % 35 % 1021,9 hPa 0,0 l/m 0,0 km/h (0 Bft) O-NO 67 7,7 C 24,1 C 0,0 km/h (0 Bft)
03.06.2023 13:58 20,5 C 24,0 C 22,2 C 47 % 35 % 1021,9 hPa 0,0 l/m 0,0 km/h (0 Bft) O-SO 112 7,6 C 24,0 C 0,0 km/h (0 Bft)
03.06.2023 13:57 20,5 C 24,0 C 22,2 C 47 % 35 % 1021,9 hPa 0,0 l/m 0,0 km/h (0 Bft) O-SO 112 7,6 C 24,0 C 0,0 km/h (0 Bft)
03.06.2023 13:56 20,4 C 23,9 C 22,1 C 47 % 35 % 1021,9 hPa 0,0 l/m 0,0 km/h (0 Bft) O-SO 112 7,5 C 23,9 C 0,0 km/h (0 Bft)
03.06.2023 13:55 20,4 C 23,9 C 22,1 C 47 % 35 % 1021,9 hPa 0,0 l/m 0,0 km/h (0 Bft) O-SO 112 7,5 C 23,9 C 0,0 km/h (0 Bft)
03.06.2023 13:54 20,4 C 23,9 C 22,1 C 47 % 35 % 1021,9 hPa 0,0 l/m 0,0 km/h (0 Bft) S-SO 157 7,5 C 23,9 C 0,0 km/h (0 Bft)
03.06.2023 13:53 20,4 C 23,9 C 22,1 C 47 % 35 % 1021,9 hPa 0,0 l/m 0,0 km/h (0 Bft) S-SO 157 7,5 C 23,9 C 0,0 km/h (0 Bft)
03.06.2023 13:52 20,4 C 23,7 C 22,0 C 47 % 35 % 1022,1 hPa 0,0 l/m 0,2 km/h (0 Bft) O 90 7,3 C 23,7 C 0,0 km/h (0 Bft)
03.06.2023 13:51 20,4 C 23,7 C 22,0 C 47 % 35 % 1022,1 hPa 0,0 l/m 0,2 km/h (0 Bft) O 90 7,3 C 23,7 C 0,0 km/h (0 Bft)
03.06.2023 13:50 20,4 C 23,7 C 22,1 C 47 % 35 % 1022,1 hPa 0,0 l/m 0,2 km/h (0 Bft) O-SO 112 7,3 C 23,7 C 0,0 km/h (0 Bft)
03.06.2023 13:49 20,4 C 23,7 C 22,1 C 47 % 35 % 1022,1 hPa 0,0 l/m 0,2 km/h (0 Bft) O-SO 112 7,3 C 23,7 C 0,0 km/h (0 Bft)
03.06.2023 13:48 20,4 C 23,7 C 21,9 C 47 % 35 % 1022,1 hPa 0,0 l/m 0,2 km/h (0 Bft) O 90 7,3 C 23,7 C 0,0 km/h (0 Bft)
03.06.2023 13:47 20,4 C 23,7 C 21,9 C 47 % 35 % 1022,1 hPa 0,0 l/m 0,2 km/h (0 Bft) O 90 7,3 C 23,7 C 0,0 km/h (0 Bft)
03.06.2023 13:46 20,4 C 23,7 C 21,9 C 47 % 35 % 1022,1 hPa 0,0 l/m 0,3 km/h (0 Bft) S 180 7,3 C 23,7 C 0,0 km/h (0 Bft)
03.06.2023 13:45 20,4 C 23,7 C 21,9 C 47 % 35 % 1022,1 hPa 0,0 l/m 0,3 km/h (0 Bft) S 180 7,3 C 23,7 C 0,0 km/h (0 Bft)
03.06.2023 13:44 20,4 C 23,7 C 22,0 C 47 % 35 % 1022,1 hPa 0,0 l/m 0,2 km/h (0 Bft) O-SO 112 7,3 C 23,7 C 0,0 km/h (0 Bft)
03.06.2023 13:43 20,4 C 23,7 C 22,0 C 47 % 35 % 1022,1 hPa 0,0 l/m 0,2 km/h (0 Bft) O-SO 112 7,3 C 23,7 C 0,0 km/h (0 Bft)
03.06.2023 13:42 20,2 C 23,6 C 21,6 C 47 % 35 % 1022,1 hPa 0,0 l/m 0,3 km/h (0 Bft) O-NO 67 7,2 C 23,6 C 0,0 km/h (0 Bft)
03.06.2023 13:41 20,2 C 23,6 C 21,6 C 47 % 35 % 1022,1 hPa 0,0 l/m 0,3 km/h (0 Bft) O-NO 67 7,2 C 23,6 C 0,0 km/h (0 Bft)
03.06.2023 13:40 20,2 C 23,6 C 21,6 C 47 % 35 % 1022,1 hPa 0,0 l/m 0,3 km/h (0 Bft) O-NO 67 7,2 C 23,6 C 0,0 km/h (0 Bft)
03.06.2023 13:38 20,3 C 23,5 C 21,6 C 47 % 36 % 1022,1 hPa 0,0 l/m 0,3 km/h (0 Bft) O-SO 112 7,6 C 23,5 C 2,1 km/h (1 Bft)
03.06.2023 13:37 20,3 C 23,5 C 21,6 C 47 % 36 % 1022,1 hPa 0,0 l/m 0,3 km/h (0 Bft) O-SO 112 7,6 C 23,5 C 2,1 km/h (1 Bft)
03.06.2023 13:36 20,3 C 23,3 C 21,6 C 47 % 36 % 1022,1 hPa 0,0 l/m 0,2 km/h (0 Bft) O 90 7,4 C 23,3 C 3,1 km/h (1 Bft)
03.06.2023 13:35 20,3 C 23,3 C 21,6 C 47 % 36 % 1022,1 hPa 0,0 l/m 0,2 km/h (0 Bft) O 90 7,4 C 23,3 C 3,1 km/h (1 Bft)
03.06.2023 13:34 20,2 C 23,3 C 21,6 C 47 % 35 % 1022,1 hPa 0,0 l/m 0,2 km/h (0 Bft) SO 135 7,0 C 23,3 C 0,0 km/h (0 Bft)
03.06.2023 13:33 20,2 C 23,3 C 21,6 C 47 % 35 % 1022,1 hPa 0,0 l/m 0,2 km/h (0 Bft) SO 135 7,0 C 23,3 C 0,0 km/h (0 Bft)
03.06.2023 13:32 20,2 C 23,3 C 21,7 C 47 % 35 % 1022,1 hPa 0,0 l/m 0,2 km/h (0 Bft) O 90 7,0 C 23,3 C 0,0 km/h (0 Bft)
03.06.2023 13:31 20,2 C 23,3 C 21,7 C 47 % 35 % 1022,1 hPa 0,0 l/m 0,2 km/h (0 Bft) O 90 7,0 C 23,3 C 0,0 km/h (0 Bft)
03.06.2023 13:30 20,2 C 23,3 C 21,6 C 47 % 36 % 1022,1 hPa 0,0 l/m 0,2 km/h (0 Bft) O 90 7,4 C 23,3 C 0,0 km/h (0 Bft)
03.06.2023 13:29 20,2 C 23,3 C 21,6 C 47 % 36 % 1022,1 hPa 0,0 l/m 0,2 km/h (0 Bft) O 90 7,4 C 23,3 C 0,0 km/h (0 Bft)
03.06.2023 13:28 20,2 C 23,2 C 21,5 C 48 % 36 % 1022,1 hPa 0,0 l/m 0,2 km/h (0 Bft) O-SO 112 7,3 C 23,2 C 0,0 km/h (0 Bft)
03.06.2023 13:27 20,2 C 23,2 C 21,5 C 48 % 36 % 1022,1 hPa 0,0 l/m 0,2 km/h (0 Bft) O-SO 112 7,3 C 23,2 C 0,0 km/h (0 Bft)
03.06.2023 13:26 20,2 C 23,2 C 21,4 C 47 % 35 % 1022,1 hPa 0,0 l/m 0,2 km/h (0 Bft) O-SO 112 6,9 C 23,2 C 0,0 km/h (0 Bft)
03.06.2023 13:25 20,2 C 23,2 C 21,4 C 47 % 35 % 1022,1 hPa 0,0 l/m 0,2 km/h (0 Bft) O-SO 112 6,9 C 23,2 C 0,0 km/h (0 Bft)
03.06.2023 13:24 20,2 C 23,3 C 21,4 C 47 % 36 % 1022,1 hPa 0,0 l/m 0,2 km/h (0 Bft) SW 225 7,4 C 23,3 C 0,0 km/h (0 Bft)
03.06.2023 13:23 20,2 C 23,3 C 21,4 C 47 % 36 % 1022,1 hPa 0,0 l/m 0,2 km/h (0 Bft) SW 225 7,4 C 23,3 C 0,0 km/h (0 Bft)
03.06.2023 13:22 20,2 C 23,3 C 21,2 C 47 % 36 % 1022,1 hPa 0,0 l/m 0,2 km/h (0 Bft) SO 135 7,4 C 23,3 C 0,0 km/h (0 Bft)
03.06.2023 13:21 20,2 C 23,3 C 21,2 C 47 % 36 % 1022,1 hPa 0,0 l/m 0,2 km/h (0 Bft) SO 135 7,4 C 23,3 C 0,0 km/h (0 Bft)
03.06.2023 13:20 20,2 C 23,3 C 21,4 C 47 % 36 % 1022,1 hPa 0,0 l/m 0,2 km/h (0 Bft) O 90 7,4 C 23,3 C 2,1 km/h (1 Bft)
03.06.2023 13:19 20,2 C 23,3 C 21,4 C 47 % 36 % 1022,1 hPa 0,0 l/m 0,2 km/h (0 Bft) O 90 7,4 C 23,3 C 2,1 km/h (1 Bft)
03.06.2023 13:18 20,1 C 23,1 C 21,3 C 47 % 37 % 1022,1 hPa 0,0 l/m 0,2 km/h (0 Bft) O-SO 112 7,6 C 23,1 C 0,0 km/h (0 Bft)
03.06.2023 13:17 20,1 C 23,1 C 21,3 C 47 % 37 % 1022,1 hPa 0,0 l/m 0,2 km/h (0 Bft) O-SO 112 7,6 C 23,1 C 0,0 km/h (0 Bft)
03.06.2023 13:16 20,1 C 23,0 C 21,2 C 48 % 37 % 1022,1 hPa 0,0 l/m 0,2 km/h (0 Bft) SO 135 7,5 C 23,0 C 0,0 km/h (0 Bft)
03.06.2023 13:15 20,1 C 23,0 C 21,2 C 48 % 37 % 1022,1 hPa 0,0 l/m 0,2 km/h (0 Bft) SO 135 7,5 C 23,0 C 0,0 km/h (0 Bft)
03.06.2023 13:14 20,1 C 22,9 C 21,2 C 48 % 38 % 1022,1 hPa 0,0 l/m 0,2 km/h (0 Bft) O-SO 112 7,8 C 22,9 C 2,3 km/h (1 Bft)
03.06.2023 13:13 20,1 C 22,9 C 21,2 C 48 % 38 % 1022,1 hPa 0,0 l/m 0,2 km/h (0 Bft) O-SO 112 7,8 C 22,9 C 2,3 km/h (1 Bft)
03.06.2023 13:12 20,1 C 22,9 C 21,3 C 48 % 39 % 1022,1 hPa 0,0 l/m 0,2 km/h (0 Bft) SO 135 8,2 C 22,9 C 0,0 km/h (0 Bft)
03.06.2023 13:11 20,1 C 22,9 C 21,3 C 48 % 39 % 1022,1 hPa 0,0 l/m 0,2 km/h (0 Bft) SO 135 8,2 C 22,9 C 0,0 km/h (0 Bft)
03.06.2023 13:10 20,0 C 22,8 C 21,3 C 48 % 38 % 1022,1 hPa 0,0 l/m 0,2 km/h (0 Bft) SO 135 7,7 C 22,8 C 0,0 km/h (0 Bft)
03.06.2023 13:09 20,0 C 22,8 C 21,3 C 48 % 38 % 1022,1 hPa 0,0 l/m 0,2 km/h (0 Bft) SO 135 7,7 C 22,8 C 0,0 km/h (0 Bft)
03.06.2023 13:08 20,0 C 22,9 C 21,2 C 48 % 39 % 1022,1 hPa 0,0 l/m 0,2 km/h (0 Bft) O 90 8,2 C 22,9 C 2,5 km/h (1 Bft)
03.06.2023 13:07 20,0 C 22,9 C 21,2 C 48 % 39 % 1022,1 hPa 0,0 l/m 0,2 km/h (0 Bft) O 90 8,2 C 22,9 C 2,5 km/h (1 Bft)
03.06.2023 13:06 20,0 C 22,9 C 21,2 C 48 % 39 % 1022,1 hPa 0,0 l/m 0,2 km/h (0 Bft) O 90 8,2 C 22,9 C 2,5 km/h (1 Bft)
03.06.2023 13:04 20,0 C 22,7 C 21,0 C 48 % 39 % 1022,1 hPa 0,0 l/m 0,0 km/h (0 Bft) O-SO 112 8,0 C 22,7 C 0,0 km/h (0 Bft)
03.06.2023 13:03 20,0 C 22,7 C 21,0 C 48 % 39 % 1022,1 hPa 0,0 l/m 0,0 km/h (0 Bft) O-SO 112 8,0 C 22,7 C 0,0 km/h (0 Bft)
03.06.2023 13:02 20,0 C 22,8 C 21,1 C 48 % 39 % 1022,1 hPa 0,0 l/m 0,0 km/h (0 Bft) SO 135 8,1 C 22,8 C 0,0 km/h (0 Bft)
03.06.2023 13:01 20,0 C 22,8 C 21,1 C 48 % 39 % 1022,1 hPa 0,0 l/m 0,0 km/h (0 Bft) SO 135 8,1 C 22,8 C 0,0 km/h (0 Bft)
03.06.2023 13:00 20,0 C 22,9 C 21,0 C 48 % 39 % 1022,1 hPa 0,0 l/m 0,0 km/h (0 Bft) SO 135 8,2 C 22,9 C 0,0 km/h (0 Bft)
03.06.2023 12:59 20,0 C 22,9 C 21,0 C 48 % 39 % 1022,1 hPa 0,0 l/m 0,0 km/h (0 Bft) SO 135 8,2 C 22,9 C 0,0 km/h (0 Bft)
03.06.2023 12:58 20,0 C 22,8 C 20,9 C 48 % 39 % 1022,1 hPa 0,0 l/m 0,2 km/h (0 Bft) O-SO 112 8,1 C 22,8 C 0,0 km/h (0 Bft)
03.06.2023 12:57 20,0 C 22,8 C 20,9 C 48 % 39 % 1022,1 hPa 0,0 l/m 0,2 km/h (0 Bft) O-SO 112 8,1 C 22,8 C 0,0 km/h (0 Bft)
03.06.2023 12:56 20,0 C 22,6 C 20,9 C 48 % 40 % 1022,1 hPa 0,0 l/m 0,2 km/h (0 Bft) SO 135 8,3 C 22,6 C 0,0 km/h (0 Bft)
03.06.2023 12:55 20,0 C 22,6 C 20,9 C 48 % 40 % 1022,1 hPa 0,0 l/m 0,2 km/h (0 Bft) SO 135 8,3 C 22,6 C 0,0 km/h (0 Bft)
03.06.2023 12:54 20,0 C 22,3 C 20,8 C 48 % 39 % 1022,1 hPa 0,0 l/m 0,2 km/h (0 Bft) SO 135 7,7 C 22,3 C 0,0 km/h (0 Bft)
03.06.2023 12:53 20,0 C 22,3 C 20,8 C 48 % 39 % 1022,1 hPa 0,0 l/m 0,2 km/h (0 Bft) SO 135 7,7 C 22,3 C 0,0 km/h (0 Bft)
03.06.2023 12:52 20,0 C 22,2 C 20,6 C 48 % 39 % 1022,1 hPa 0,0 l/m 0,2 km/h (0 Bft) O 90 7,6 C 22,2 C 0,0 km/h (0 Bft)
03.06.2023 12:51 20,0 C 22,2 C 20,6 C 48 % 39 % 1022,1 hPa 0,0 l/m 0,2 km/h (0 Bft) O 90 7,6 C 22,2 C 0,0 km/h (0 Bft)
03.06.2023 12:50 20,0 C 22,4 C 20,6 C 48 % 39 % 1022,1 hPa 0,0 l/m 0,2 km/h (0 Bft) SO 135 7,8 C 22,4 C 0,0 km/h (0 Bft)
03.06.2023 12:49 20,0 C 22,4 C 20,6 C 48 % 39 % 1022,1 hPa 0,0 l/m 0,2 km/h (0 Bft) SO 135 7,8 C 22,4 C 0,0 km/h (0 Bft)
03.06.2023 12:48 20,0 C 22,4 C 20,7 C 48 % 39 % 1022,1 hPa 0,0 l/m 0,2 km/h (0 Bft) SO 135 7,8 C 22,4 C 2,7 km/h (1 Bft)
03.06.2023 12:47 20,0 C 22,4 C 20,7 C 48 % 39 % 1022,1 hPa 0,0 l/m 0,2 km/h (0 Bft) SO 135 7,8 C 22,4 C 2,7 km/h (1 Bft)
03.06.2023 12:46 20,0 C 22,3 C 20,7 C 48 % 39 % 1022,1 hPa 0,0 l/m 0,0 km/h (0 Bft) O-SO 112 7,7 C 22,3 C 0,0 km/h (0 Bft)
03.06.2023 12:45 20,0 C 22,3 C 20,7 C 48 % 39 % 1022,1 hPa 0,0 l/m 0,0 km/h (0 Bft) O-SO 112 7,7 C 22,3 C 0,0 km/h (0 Bft)
03.06.2023 12:44 19,9 C 22,3 C 20,7 C 48 % 39 % 1022,1 hPa 0,0 l/m 0,2 km/h (0 Bft) O-SO 112 7,7 C 22,3 C 0,0 km/h (0 Bft)
03.06.2023 12:43 19,9 C 22,3 C 20,7 C 48 % 39 % 1022,1 hPa 0,0 l/m 0,2 km/h (0 Bft) O-SO 112 7,7 C 22,3 C 0,0 km/h (0 Bft)
03.06.2023 12:42 19,9 C 22,2 C 20,5 C 48 % 39 % 1022,1 hPa 0,0 l/m 0,2 km/h (0 Bft) S-SO 157 7,6 C 22,2 C 0,0 km/h (0 Bft)
03.06.2023 12:41 19,9 C 22,2 C 20,5 C 48 % 39 % 1022,1 hPa 0,0 l/m 0,2 km/h (0 Bft) S-SO 157 7,6 C 22,2 C 0,0 km/h (0 Bft)
03.06.2023 12:40 19,9 C 22,1 C 20,6 C 48 % 39 % 1022,1 hPa 0,0 l/m 0,2 km/h (0 Bft) N-NO 22 7,5 C 22,1 C 0,0 km/h (0 Bft)
03.06.2023 12:39 19,9 C 22,1 C 20,6 C 48 % 39 % 1022,1 hPa 0,0 l/m 0,2 km/h (0 Bft) N-NO 22 7,5 C 22,1 C 0,0 km/h (0 Bft)
03.06.2023 12:38 19,9 C 22,0 C 20,4 C 48 % 39 % 1022,1 hPa 0,0 l/m 0,0 km/h (0 Bft) O-SO 112 7,4 C 22,0 C 0,0 km/h (0 Bft)
03.06.2023 12:37 19,9 C 22,0 C 20,4 C 48 % 39 % 1022,1 hPa 0,0 l/m 0,0 km/h (0 Bft) O-SO 112 7,4 C 22,0 C 0,0 km/h (0 Bft)
03.06.2023 12:36 19,9 C 22,1 C 20,5 C 48 % 39 % 1022,1 hPa 0,0 l/m 0,0 km/h (0 Bft) S-SO 157 7,5 C 22,1 C 0,0 km/h (0 Bft)
03.06.2023 12:35 19,9 C 22,1 C 20,5 C 48 % 39 % 1022,1 hPa 0,0 l/m 0,0 km/h (0 Bft) S-SO 157 7,5 C 22,1 C 0,0 km/h (0 Bft)
03.06.2023 12:34 19,9 C 22,1 C 20,5 C 48 % 39 % 1022,1 hPa 0,0 l/m 0,0 km/h (0 Bft) O 90 7,5 C 22,1 C 0,0 km/h (0 Bft)
03.06.2023 12:33 19,9 C 22,1 C 20,5 C 48 % 39 % 1022,1 hPa 0,0 l/m 0,0 km/h (0 Bft) O 90 7,5 C 22,1 C 0,0 km/h (0 Bft)
03.06.2023 12:32 19,8 C 22,1 C 20,5 C 48 % 39 % 1022,1 hPa 0,0 l/m 0,0 km/h (0 Bft) S-SW 202 7,5 C 22,1 C 0,0 km/h (0 Bft)
03.06.2023 12:31 19,8 C 22,1 C 20,5 C 48 % 39 % 1022,1 hPa 0,0 l/m 0,0 km/h (0 Bft) S-SW 202 7,5 C 22,1 C 0,0 km/h (0 Bft)
03.06.2023 12:30 19,8 C 22,1 C 20,5 C 48 % 39 % 1022,1 hPa 0,0 l/m 0,0 km/h (0 Bft) N-NO 22 7,5 C 22,1 C 0,0 km/h (0 Bft)
03.06.2023 12:29 19,8 C 22,1 C 20,5 C 48 % 39 % 1022,1 hPa 0,0 l/m 0,0 km/h (0 Bft) N-NO 22 7,5 C 22,1 C 0,0 km/h (0 Bft)
03.06.2023 12:28 19,8 C 22,1 C 20,5 C 48 % 39 % 1022,1 hPa 0,0 l/m 0,2 km/h (0 Bft) S-SO 157 7,5 C 22,1 C 0,0 km/h (0 Bft)
03.06.2023 12:27 19,8 C 22,1 C 20,5 C 48 % 39 % 1022,1 hPa 0,0 l/m 0,2 km/h (0 Bft) S-SO 157 7,5 C 22,1 C 0,0 km/h (0 Bft)
03.06.2023 12:26 19,8 C 22,3 C 20,3 C 48 % 39 % 1022,1 hPa 0,0 l/m 0,2 km/h (0 Bft) S-SO 157 7,7 C 22,3 C 0,0 km/h (0 Bft)
03.06.2023 12:25 19,8 C 22,3 C 20,3 C 48 % 39 % 1022,1 hPa 0,0 l/m 0,2 km/h (0 Bft) S-SO 157 7,7 C 22,3 C 0,0 km/h (0 Bft)
03.06.2023 12:24 19,8 C 22,2 C 20,4 C 48 % 39 % 1022,1 hPa 0,0 l/m 0,2 km/h (0 Bft) O-SO 112 7,6 C 22,2 C 0,0 km/h (0 Bft)
03.06.2023 12:23 19,8 C 22,2 C 20,4 C 48 % 39 % 1022,1 hPa 0,0 l/m 0,2 km/h (0 Bft) O-SO 112 7,6 C 22,2 C 0,0 km/h (0 Bft)
03.06.2023 12:22 19,7 C 22,1 C 20,2 C 48 % 39 % 1022,1 hPa 0,0 l/m 0,2 km/h (0 Bft) O-SO 112 7,5 C 22,1 C 0,0 km/h (0 Bft)
03.06.2023 12:21 19,7 C 22,1 C 20,2 C 48 % 39 % 1022,1 hPa 0,0 l/m 0,2 km/h (0 Bft) O-SO 112 7,5 C 22,1 C 0,0 km/h (0 Bft)
03.06.2023 12:20 19,8 C 22,1 C 20,2 C 48 % 39 % 1022,1 hPa 0,0 l/m 0,0 km/h (0 Bft) S-SO 157 7,5 C 22,1 C 0,0 km/h (0 Bft)
03.06.2023 12:19 19,8 C 22,1 C 20,2 C 48 % 39 % 1022,1 hPa 0,0 l/m 0,0 km/h (0 Bft) S-SO 157 7,5 C 22,1 C 0,0 km/h (0 Bft)
03.06.2023 12:18 19,7 C 22,1 C 20,2 C 48 % 40 % 1022,1 hPa 0,0 l/m 0,0 km/h (0 Bft) N-NO 22 7,9 C 22,1 C 0,0 km/h (0 Bft)
03.06.2023 12:17 19,7 C 22,1 C 20,2 C 48 % 40 % 1022,1 hPa 0,0 l/m 0,0 km/h (0 Bft) N-NO 22 7,9 C 22,1 C 0,0 km/h (0 Bft)
03.06.2023 12:16 19,7 C 22,1 C 20,2 C 48 % 40 % 1022,1 hPa 0,0 l/m 0,0 km/h (0 Bft) O-NO 67 7,9 C 22,1 C 0,0 km/h (0 Bft)
03.06.2023 12:15 19,7 C 22,1 C 20,2 C 48 % 40 % 1022,1 hPa 0,0 l/m 0,0 km/h (0 Bft) O-NO 67 7,9 C 22,1 C 0,0 km/h (0 Bft)
03.06.2023 12:14 19,7 C 21,9 C 20,2 C 48 % 40 % 1022,1 hPa 0,0 l/m 0,2 km/h (0 Bft) O-SO 112 7,7 C 21,9 C 0,0 km/h (0 Bft)
03.06.2023 12:13 19,7 C 21,9 C 20,2 C 48 % 40 % 1022,1 hPa 0,0 l/m 0,2 km/h (0 Bft) O-SO 112 7,7 C 21,9 C 0,0 km/h (0 Bft)
03.06.2023 12:12 19,7 C 21,2 C 19,5 C 48 % 39 % 1022,1 hPa 0,0 l/m 0,2 km/h (0 Bft) O 90 6,7 C 21,2 C 0,0 km/h (0 Bft)
03.06.2023 12:11 19,7 C 21,2 C 19,5 C 48 % 39 % 1022,1 hPa 0,0 l/m 0,2 km/h (0 Bft) O 90 6,7 C 21,2 C 0,0 km/h (0 Bft)
03.06.2023 12:10 19,7 C 21,2 C 19,5 C 47 % 39 % 1022,1 hPa 0,0 l/m 0,2 km/h (0 Bft) O 90 6,7 C 21,2 C 0,0 km/h (0 Bft)
03.06.2023 12:09 19,7 C 21,2 C 19,5 C 47 % 39 % 1022,1 hPa 0,0 l/m 0,2 km/h (0 Bft) O 90 6,7 C 21,2 C 0,0 km/h (0 Bft)
03.06.2023 12:08 19,7 C 21,2 C 19,5 C 48 % 39 % 1022,1 hPa 0,0 l/m 0,2 km/h (0 Bft) O 90 6,7 C 21,2 C 0,0 km/h (0 Bft)
03.06.2023 12:07 19,7 C 21,2 C 19,5 C 48 % 39 % 1022,1 hPa 0,0 l/m 0,2 km/h (0 Bft) O 90 6,7 C 21,2 C 0,0 km/h (0 Bft)
03.06.2023 12:06 19,7 C 21,2 C 19,5 C 47 % 39 % 1022,1 hPa 0,0 l/m 0,2 km/h (0 Bft) O 90 6,7 C 21,2 C 0,0 km/h (0 Bft)
03.06.2023 12:05 19,7 C 21,2 C 19,5 C 47 % 39 % 1022,1 hPa 0,0 l/m 0,2 km/h (0 Bft) O 90 6,7 C 21,2 C 0,0 km/h (0 Bft)
03.06.2023 12:04 19,7 C 21,2 C 19,5 C 47 % 39 % 1022,1 hPa 0,0 l/m 0,2 km/h (0 Bft) O 90 6,7 C 21,2 C 0,0 km/h (0 Bft)
03.06.2023 12:03 19,7 C 21,2 C 19,5 C 47 % 39 % 1022,1 hPa 0,0 l/m 0,2 km/h (0 Bft) O 90 6,7 C 21,2 C 0,0 km/h (0 Bft)
03.06.2023 12:02 19,7 C 21,3 C 19,8 C 48 % 39 % 1022,1 hPa 0,0 l/m 0,2 km/h (0 Bft) S-SO 157 6,8 C 21,3 C 3,1 km/h (1 Bft)
03.06.2023 12:01 19,7 C 21,3 C 19,8 C 48 % 39 % 1022,1 hPa 0,0 l/m 0,2 km/h (0 Bft) S-SO 157 6,8 C 21,3 C 3,1 km/h (1 Bft)
03.06.2023 12:00 19,6 C 21,4 C 20,0 C 48 % 40 % 1022,1 hPa 0,0 l/m 0,0 km/h (0 Bft) S-SO 157 7,2 C 21,4 C 0,0 km/h (0 Bft)
03.06.2023 11:59 19,6 C 21,4 C 20,0 C 48 % 40 % 1022,1 hPa 0,0 l/m 0,0 km/h (0 Bft) S-SO 157 7,2 C 21,4 C 0,0 km/h (0 Bft)
03.06.2023 11:58 19,6 C 21,4 C 19,9 C 48 % 40 % 1022,1 hPa 0,0 l/m 0,0 km/h (0 Bft) O-SO 112 7,2 C 21,4 C 2,3 km/h (1 Bft)
03.06.2023 11:57 19,6 C 21,4 C 19,9 C 48 % 40 % 1022,1 hPa 0,0 l/m 0,0 km/h (0 Bft) O-SO 112 7,2 C 21,4 C 2,3 km/h (1 Bft)
03.06.2023 11:56 19,6 C 21,3 C 19,9 C 48 % 40 % 1022,1 hPa 0,0 l/m 0,0 km/h (0 Bft) O-SO 112 7,1 C 21,3 C 0,0 km/h (0 Bft)
03.06.2023 11:55 19,6 C 21,3 C 19,9 C 48 % 40 % 1022,1 hPa 0,0 l/m 0,0 km/h (0 Bft) O-SO 112 7,1 C 21,3 C 0,0 km/h (0 Bft)
03.06.2023 11:54 19,6 C 21,2 C 19,9 C 48 % 40 % 1022,1 hPa 0,0 l/m 0,0 km/h (0 Bft) N-NO 22 7,1 C 21,2 C 0,0 km/h (0 Bft)
03.06.2023 11:53 19,6 C 21,2 C 19,9 C 48 % 40 % 1022,1 hPa 0,0 l/m 0,0 km/h (0 Bft) N-NO 22 7,1 C 21,2 C 0,0 km/h (0 Bft)
03.06.2023 11:52 19,6 C 21,1 C 19,6 C 48 % 40 % 1022,2 hPa 0,0 l/m 0,0 km/h (0 Bft) O-SO 112 7,0 C 21,1 C 0,0 km/h (0 Bft)
03.06.2023 11:51 19,6 C 21,1 C 19,6 C 48 % 40 % 1022,2 hPa 0,0 l/m 0,0 km/h (0 Bft) O-SO 112 7,0 C 21,1 C 0,0 km/h (0 Bft)
03.06.2023 11:50 19,6 C 21,0 C 19,5 C 48 % 40 % 1022,2 hPa 0,0 l/m 0,0 km/h (0 Bft) O-SO 112 6,9 C 21,0 C 0,0 km/h (0 Bft)
03.06.2023 11:49 19,6 C 21,0 C 19,5 C 48 % 40 % 1022,2 hPa 0,0 l/m 0,0 km/h (0 Bft) O-SO 112 6,9 C 21,0 C 0,0 km/h (0 Bft)
03.06.2023 11:48 19,6 C 21,1 C 19,6 C 48 % 40 % 1022,2 hPa 0,0 l/m 0,0 km/h (0 Bft) O 90 7,0 C 21,1 C 0,0 km/h (0 Bft)
03.06.2023 11:47 19,6 C 21,1 C 19,6 C 48 % 40 % 1022,2 hPa 0,0 l/m 0,0 km/h (0 Bft) O 90 7,0 C 21,1 C 0,0 km/h (0 Bft)
03.06.2023 11:46 19,6 C 21,2 C 19,7 C 48 % 40 % 1022,2 hPa 0,0 l/m 0,0 km/h (0 Bft) S-SO 157 7,1 C 21,2 C 0,0 km/h (0 Bft)
03.06.2023 11:45 19,6 C 21,2 C 19,7 C 48 % 40 % 1022,2 hPa 0,0 l/m 0,0 km/h (0 Bft) S-SO 157 7,1 C 21,2 C 0,0 km/h (0 Bft)
03.06.2023 11:44 19,6 C 21,1 C 19,7 C 48 % 40 % 1022,2 hPa 0,0 l/m 0,0 km/h (0 Bft) O-SO 112 7,0 C 21,1 C 0,0 km/h (0 Bft)
03.06.2023 11:43 19,6 C 21,1 C 19,7 C 48 % 40 % 1022,2 hPa 0,0 l/m 0,0 km/h (0 Bft) O-SO 112 7,0 C 21,1 C 0,0 km/h (0 Bft)
03.06.2023 11:42 19,6 C 21,1 C 19,6 C 48 % 40 % 1022,2 hPa 0,0 l/m 0,0 km/h (0 Bft) O-SO 112 7,0 C 21,1 C 0,0 km/h (0 Bft)
03.06.2023 11:41 19,6 C 21,1 C 19,6 C 48 % 40 % 1022,2 hPa 0,0 l/m 0,0 km/h (0 Bft) O-SO 112 7,0 C 21,1 C 0,0 km/h (0 Bft)
03.06.2023 11:40 19,6 C 21,0 C 19,6 C 48 % 40 % 1022,2 hPa 0,0 l/m 0,0 km/h (0 Bft) O-SO 112 6,9 C 21,0 C 0,0 km/h (0 Bft)
03.06.2023 11:39 19,6 C 21,0 C 19,6 C 48 % 40 % 1022,2 hPa 0,0 l/m 0,0 km/h (0 Bft) O-SO 112 6,9 C 21,0 C 0,0 km/h (0 Bft)
03.06.2023 11:38 19,5 C 20,9 C 19,5 C 48 % 41 % 1022,2 hPa 0,0 l/m 0,0 km/h (0 Bft) O-NO 67 7,2 C 20,9 C 0,0 km/h (0 Bft)
03.06.2023 11:37 19,5 C 20,9 C 19,5 C 48 % 41 % 1022,2 hPa 0,0 l/m 0,0 km/h (0 Bft) O-NO 67 7,2 C 20,9 C 0,0 km/h (0 Bft)
03.06.2023 11:36 19,6 C 20,8 C 19,5 C 48 % 41 % 1022,2 hPa 0,0 l/m 0,0 km/h (0 Bft) O-SO 112 7,1 C 20,8 C 0,0 km/h (0 Bft)
03.06.2023 11:35 19,6 C 20,8 C 19,5 C 48 % 41 % 1022,2 hPa 0,0 l/m 0,0 km/h (0 Bft) O-SO 112 7,1 C 20,8 C 0,0 km/h (0 Bft)
03.06.2023 11:34 19,5 C 20,8 C 19,6 C 48 % 41 % 1022,2 hPa 0,0 l/m 0,2 km/h (0 Bft) O 90 7,1 C 20,8 C 0,0 km/h (0 Bft)
03.06.2023 11:33 19,5 C 20,8 C 19,6 C 48 % 41 % 1022,2 hPa 0,0 l/m 0,2 km/h (0 Bft) O 90 7,1 C 20,8 C 0,0 km/h (0 Bft)
03.06.2023 11:32 19,5 C 20,9 C 19,6 C 48 % 41 % 1022,2 hPa 0,0 l/m 0,2 km/h (0 Bft) O-SO 112 7,2 C 20,9 C 2,7 km/h (1 Bft)
03.06.2023 11:31 19,5 C 20,9 C 19,6 C 48 % 41 % 1022,2 hPa 0,0 l/m 0,2 km/h (0 Bft) O-SO 112 7,2 C 20,9 C 2,7 km/h (1 Bft)
03.06.2023 11:30 19,5 C 20,9 C 19,6 C 48 % 42 % 1022,2 hPa 0,0 l/m 0,2 km/h (0 Bft) S-SO 157 7,5 C 20,9 C 0,0 km/h (0 Bft)
03.06.2023 11:29 19,5 C 20,9 C 19,6 C 48 % 42 % 1022,2 hPa 0,0 l/m 0,2 km/h (0 Bft) S-SO 157 7,5 C 20,9 C 0,0 km/h (0 Bft)
03.06.2023 11:28 19,5 C 20,7 C 19,6 C 48 % 42 % 1022,2 hPa 0,0 l/m 0,2 km/h (0 Bft) O-SO 112 7,3 C 20,7 C 0,0 km/h (0 Bft)
03.06.2023 11:27 19,5 C 20,7 C 19,6 C 48 % 42 % 1022,2 hPa 0,0 l/m 0,2 km/h (0 Bft) O-SO 112 7,3 C 20,7 C 0,0 km/h (0 Bft)
03.06.2023 11:26 19,4 C 20,6 C 19,4 C 48 % 42 % 1022,2 hPa 0,0 l/m 0,2 km/h (0 Bft) O-SO 112 7,2 C 20,6 C 0,0 km/h (0 Bft)
03.06.2023 11:25 19,4 C 20,6 C 19,4 C 48 % 42 % 1022,2 hPa 0,0 l/m 0,2 km/h (0 Bft) O-SO 112 7,2 C 20,6 C 0,0 km/h (0 Bft)
03.06.2023 11:24 19,5 C 20,5 C 19,4 C 48 % 42 % 1022,2 hPa 0,0 l/m 0,2 km/h (0 Bft) O 90 7,1 C 20,5 C 2,1 km/h (1 Bft)
03.06.2023 11:23 19,5 C 20,5 C 19,4 C 48 % 42 % 1022,2 hPa 0,0 l/m 0,2 km/h (0 Bft) O 90 7,1 C 20,5 C 2,1 km/h (1 Bft)
03.06.2023 11:22 19,4 C 20,4 C 19,3 C 48 % 42 % 1022,2 hPa 0,0 l/m 0,2 km/h (0 Bft) O 90 7,1 C 20,4 C 0,0 km/h (0 Bft)
03.06.2023 11:21 19,4 C 20,4 C 19,3 C 48 % 42 % 1022,2 hPa 0,0 l/m 0,2 km/h (0 Bft) O 90 7,1 C 20,4 C 0,0 km/h (0 Bft)
03.06.2023 11:20 19,4 C 20,4 C 19,2 C 48 % 42 % 1022,2 hPa 0,0 l/m 0,2 km/h (0 Bft) O-SO 112 7,1 C 20,4 C 2,9 km/h (1 Bft)
03.06.2023 11:19 19,4 C 20,4 C 19,2 C 48 % 42 % 1022,2 hPa 0,0 l/m 0,2 km/h (0 Bft) O-SO 112 7,1 C 20,4 C 2,9 km/h (1 Bft)
03.06.2023 11:18 19,4 C 20,4 C 19,0 C 48 % 41 % 1022,2 hPa 0,0 l/m 0,2 km/h (0 Bft) O 90 6,7 C 20,4 C 2,3 km/h (1 Bft)
03.06.2023 11:17 19,4 C 20,4 C 19,0 C 48 % 41 % 1022,2 hPa 0,0 l/m 0,2 km/h (0 Bft) O 90 6,7 C 20,4 C 2,3 km/h (1 Bft)
03.06.2023 11:16 19,4 C 20,5 C 19,4 C 48 % 42 % 1022,2 hPa 0,0 l/m 0,0 km/h (0 Bft) O 90 7,1 C 20,5 C 0,0 km/h (0 Bft)
03.06.2023 11:15 19,4 C 20,5 C 19,4 C 48 % 42 % 1022,2 hPa 0,0 l/m 0,0 km/h (0 Bft) O 90 7,1 C 20,5 C 0,0 km/h (0 Bft)
03.06.2023 11:14 19,4 C 20,3 C 19,4 C 48 % 43 % 1022,2 hPa 0,0 l/m 0,2 km/h (0 Bft) O-NO 67 7,3 C 20,3 C 0,0 km/h (0 Bft)
03.06.2023 11:13 19,4 C 20,3 C 19,4 C 48 % 43 % 1022,2 hPa 0,0 l/m 0,2 km/h (0 Bft) O-NO 67 7,3 C 20,3 C 0,0 km/h (0 Bft)
03.06.2023 11:12 19,4 C 20,1 C 19,2 C 48 % 43 % 1022,3 hPa 0,0 l/m 0,2 km/h (0 Bft) O-SO 112 7,1 C 20,1 C 0,0 km/h (0 Bft)
03.06.2023 11:11 19,4 C 20,1 C 19,2 C 48 % 43 % 1022,3 hPa 0,0 l/m 0,2 km/h (0 Bft) O-SO 112 7,1 C 20,1 C 0,0 km/h (0 Bft)
03.06.2023 11:10 19,4 C 19,9 C 19,0 C 48 % 43 % 1022,3 hPa 0,0 l/m 0,0 km/h (0 Bft) O-NO 67 6,9 C 19,9 C 0,0 km/h (0 Bft)
03.06.2023 11:09 19,4 C 19,9 C 19,0 C 48 % 43 % 1022,3 hPa 0,0 l/m 0,0 km/h (0 Bft) O-NO 67 6,9 C 19,9 C 0,0 km/h (0 Bft)
03.06.2023 11:08 19,4 C 19,9 C 18,7 C 48 % 42 % 1022,3 hPa 0,0 l/m 0,0 km/h (0 Bft) O-SO 112 6,6 C 19,9 C 0,0 km/h (0 Bft)
03.06.2023 11:07 19,4 C 19,9 C 18,7 C 48 % 42 % 1022,3 hPa 0,0 l/m 0,0 km/h (0 Bft) O-SO 112 6,6 C 19,9 C 0,0 km/h (0 Bft)
03.06.2023 11:06 19,4 C 20,0 C 18,7 C 48 % 42 % 1022,3 hPa 0,0 l/m 0,2 km/h (0 Bft) S-SO 157 6,7 C 20,0 C 0,0 km/h (0 Bft)
03.06.2023 11:05 19,4 C 20,0 C 18,7 C 48 % 42 % 1022,3 hPa 0,0 l/m 0,2 km/h (0 Bft) S-SO 157 6,7 C 20,0 C 0,0 km/h (0 Bft)
03.06.2023 11:04 19,4 C 20,1 C 19,0 C 48 % 42 % 1022,3 hPa 0,0 l/m 0,0 km/h (0 Bft) O 90 6,8 C 20,1 C 0,0 km/h (0 Bft)
03.06.2023 11:03 19,4 C 20,1 C 19,0 C 48 % 42 % 1022,3 hPa 0,0 l/m 0,0 km/h (0 Bft) O 90 6,8 C 20,1 C 0,0 km/h (0 Bft)
03.06.2023 11:02 19,4 C 20,1 C 19,2 C 48 % 42 % 1022,3 hPa 0,0 l/m 0,2 km/h (0 Bft) O-SO 112 6,8 C 20,1 C 0,0 km/h (0 Bft)
03.06.2023 11:01 19,4 C 20,1 C 19,2 C 48 % 42 % 1022,3 hPa 0,0 l/m 0,2 km/h (0 Bft) O-SO 112 6,8 C 20,1 C 0,0 km/h (0 Bft)
03.06.2023 11:00 19,2 C 20,0 C 18,9 C 48 % 42 % 1022,3 hPa 0,0 l/m 0,2 km/h (0 Bft) O-NO 67 6,7 C 20,0 C 0,0 km/h (0 Bft)
03.06.2023 10:59 19,2 C 20,0 C 18,9 C 48 % 42 % 1022,3 hPa 0,0 l/m 0,2 km/h (0 Bft) O-NO 67 6,7 C 20,0 C 0,0 km/h (0 Bft)
03.06.2023 10:58 19,4 C 19,9 C 18,7 C 48 % 43 % 1022,3 hPa 0,0 l/m 0,0 km/h (0 Bft) O-NO 67 6,9 C 19,9 C 0,0 km/h (0 Bft)
03.06.2023 10:57 19,4 C 19,9 C 18,7 C 48 % 43 % 1022,3 hPa 0,0 l/m 0,0 km/h (0 Bft) O-NO 67 6,9 C 19,9 C 0,0 km/h (0 Bft)
03.06.2023 10:56 19,4 C 19,7 C 19,1 C 48 % 43 % 1022,3 hPa 0,0 l/m 0,0 km/h (0 Bft) O 90 6,8 C 19,7 C 0,0 km/h (0 Bft)
03.06.2023 10:55 19,4 C 19,7 C 19,1 C 48 % 43 % 1022,3 hPa 0,0 l/m 0,0 km/h (0 Bft) O 90 6,8 C 19,7 C 0,0 km/h (0 Bft)
03.06.2023 10:54 19,2 C 19,6 C 18,8 C 47 % 42 % 1022,3 hPa 0,0 l/m 0,0 km/h (0 Bft) O-SO 112 6,3 C 19,6 C 2,1 km/h (1 Bft)
03.06.2023 10:53 19,2 C 19,6 C 18,8 C 47 % 42 % 1022,3 hPa 0,0 l/m 0,0 km/h (0 Bft) O-SO 112 6,3 C 19,6 C 2,1 km/h (1 Bft)
03.06.2023 10:52 19,4 C 19,6 C 18,5 C 48 % 42 % 1022,3 hPa 0,0 l/m 0,0 km/h (0 Bft) SO 135 6,3 C 19,6 C 0,0 km/h (0 Bft)
03.06.2023 10:51 19,4 C 19,6 C 18,5 C 48 % 42 % 1022,3 hPa 0,0 l/m 0,0 km/h (0 Bft) SO 135 6,3 C 19,6 C 0,0 km/h (0 Bft)
03.06.2023 10:50 19,4 C 19,6 C 18,5 C 48 % 42 % 1022,3 hPa 0,0 l/m 0,0 km/h (0 Bft) SO 135 6,3 C 19,6 C 0,0 km/h (0 Bft)
03.06.2023 10:49 19,4 C 19,6 C 18,5 C 48 % 42 % 1022,3 hPa 0,0 l/m 0,0 km/h (0 Bft) SO 135 6,3 C 19,6 C 0,0 km/h (0 Bft)
03.06.2023 10:48 19,2 C 19,6 C 18,5 C 48 % 42 % 1022,3 hPa 0,0 l/m 0,0 km/h (0 Bft) O-SO 112 6,3 C 19,6 C 0,0 km/h (0 Bft)
03.06.2023 10:47 19,2 C 19,6 C 18,5 C 48 % 42 % 1022,3 hPa 0,0 l/m 0,0 km/h (0 Bft) O-SO 112 6,3 C 19,6 C 0,0 km/h (0 Bft)
03.06.2023 10:46 19,4 C 19,7 C 18,6 C 47 % 43 % 1022,3 hPa 0,0 l/m 0,2 km/h (0 Bft) S-SO 157 6,8 C 19,7 C 0,0 km/h (0 Bft)
03.06.2023 10:45 19,4 C 19,7 C 18,6 C 47 % 43 % 1022,3 hPa 0,0 l/m 0,2 km/h (0 Bft) S-SO 157 6,8 C 19,7 C 0,0 km/h (0 Bft)
03.06.2023 10:44 19,4 C 19,7 C 18,6 C 48 % 43 % 1022,3 hPa 0,0 l/m 0,2 km/h (0 Bft) O 90 6,8 C 19,7 C 0,0 km/h (0 Bft)
03.06.2023 10:43 19,4 C 19,7 C 18,6 C 48 % 43 % 1022,3 hPa 0,0 l/m 0,2 km/h (0 Bft) O 90 6,8 C 19,7 C 0,0 km/h (0 Bft)
03.06.2023 10:42 19,4 C 19,7 C 18,8 C 48 % 43 % 1022,3 hPa 0,0 l/m 0,2 km/h (0 Bft) SO 135 6,8 C 19,7 C 0,0 km/h (0 Bft)
03.06.2023 10:41 19,4 C 19,7 C 18,8 C 48 % 43 % 1022,3 hPa 0,0 l/m 0,2 km/h (0 Bft) SO 135 6,8 C 19,7 C 0,0 km/h (0 Bft)
03.06.2023 10:40 19,2 C 19,6 C 18,6 C 48 % 42 % 1022,3 hPa 0,0 l/m 0,2 km/h (0 Bft) O-SO 112 6,3 C 19,6 C 0,0 km/h (0 Bft)
03.06.2023 10:39 19,2 C 19,6 C 18,6 C 48 % 42 % 1022,3 hPa 0,0 l/m 0,2 km/h (0 Bft) O-SO 112 6,3 C 19,6 C 0,0 km/h (0 Bft)
03.06.2023 10:38 19,2 C 19,7 C 19,4 C 48 % 42 % 1022,3 hPa 0,0 l/m 0,0 km/h (0 Bft) O-SO 112 6,4 C 19,7 C 0,0 km/h (0 Bft)
03.06.2023 10:37 19,2 C 19,7 C 19,4 C 48 % 42 % 1022,3 hPa 0,0 l/m 0,0 km/h (0 Bft) O-SO 112 6,4 C 19,7 C 0,0 km/h (0 Bft)
03.06.2023 10:36 19,2 C 19,7 C 19,3 C 48 % 43 % 1022,3 hPa 0,0 l/m 0,0 km/h (0 Bft) O 90 6,8 C 19,7 C 2,3 km/h (1 Bft)
03.06.2023 10:35 19,2 C 19,7 C 19,3 C 48 % 43 % 1022,3 hPa 0,0 l/m 0,0 km/h (0 Bft) O 90 6,8 C 19,7 C 2,3 km/h (1 Bft)
03.06.2023 10:34 19,2 C 19,5 C 19,2 C 48 % 43 % 1022,3 hPa 0,0 l/m 0,0 km/h (0 Bft) O 90 6,6 C 19,5 C 0,0 km/h (0 Bft)
03.06.2023 10:33 19,2 C 19,5 C 19,2 C 48 % 43 % 1022,3 hPa 0,0 l/m 0,0 km/h (0 Bft) O 90 6,6 C 19,5 C 0,0 km/h (0 Bft)
03.06.2023 10:32 19,2 C 19,5 C 19,1 C 48 % 43 % 1022,2 hPa 0,0 l/m 0,0 km/h (0 Bft) O-SO 112 6,6 C 19,5 C 0,0 km/h (0 Bft)
03.06.2023 10:31 19,2 C 19,5 C 19,1 C 48 % 43 % 1022,2 hPa 0,0 l/m 0,0 km/h (0 Bft) O-SO 112 6,6 C 19,5 C 0,0 km/h (0 Bft)
03.06.2023 10:30 19,2 C 19,4 C 19,1 C 48 % 43 % 1022,2 hPa 0,0 l/m 0,0 km/h (0 Bft) O 90 6,5 C 19,4 C 0,0 km/h (0 Bft)
03.06.2023 10:29 19,2 C 19,4 C 19,1 C 48 % 43 % 1022,2 hPa 0,0 l/m 0,0 km/h (0 Bft) O 90 6,5 C 19,4 C 0,0 km/h (0 Bft)
03.06.2023 10:28 19,3 C 19,3 C 19,1 C 48 % 43 % 1022,2 hPa 0,0 l/m 0,2 km/h (0 Bft) SO 135 6,4 C 19,3 C 0,0 km/h (0 Bft)
03.06.2023 10:27 19,3 C 19,3 C 19,1 C 48 % 43 % 1022,2 hPa 0,0 l/m 0,2 km/h (0 Bft) SO 135 6,4 C 19,3 C 0,0 km/h (0 Bft)
03.06.2023 10:26 19,3 C 19,3 C 19,2 C 48 % 42 % 1022,2 hPa 0,0 l/m 0,2 km/h (0 Bft) S-SO 157 6,1 C 19,3 C 0,0 km/h (0 Bft)
03.06.2023 10:25 19,3 C 19,3 C 19,2 C 48 % 42 % 1022,2 hPa 0,0 l/m 0,2 km/h (0 Bft) S-SO 157 6,1 C 19,3 C 0,0 km/h (0 Bft)
03.06.2023 10:24 19,2 C 19,3 C 19,3 C 48 % 43 % 1022,2 hPa 0,0 l/m 0,2 km/h (0 Bft) O 90 6,4 C 19,3 C 0,0 km/h (0 Bft)
03.06.2023 10:23 19,2 C 19,3 C 19,3 C 48 % 43 % 1022,2 hPa 0,0 l/m 0,2 km/h (0 Bft) O 90 6,4 C 19,3 C 0,0 km/h (0 Bft)
03.06.2023 10:22 19,2 C 19,3 C 19,3 C 48 % 43 % 1022,2 hPa 0,0 l/m 0,2 km/h (0 Bft) N-NW 337 6,4 C 19,3 C 2,3 km/h (1 Bft)
03.06.2023 10:21 19,2 C 19,3 C 19,3 C 48 % 43 % 1022,2 hPa 0,0 l/m 0,2 km/h (0 Bft) N-NW 337 6,4 C 19,3 C 2,3 km/h (1 Bft)
03.06.2023 10:20 19,2 C 19,2 C 19,2 C 48 % 43 % 1022,2 hPa 0,0 l/m 0,0 km/h (0 Bft) S 180 6,3 C 19,2 C 0,0 km/h (0 Bft)
03.06.2023 10:19 19,2 C 19,2 C 19,2 C 48 % 43 % 1022,2 hPa 0,0 l/m 0,0 km/h (0 Bft) S 180 6,3 C 19,2 C 0,0 km/h (0 Bft)
03.06.2023 10:18 19,2 C 19,2 C 19,3 C 48 % 43 % 1022,2 hPa 0,0 l/m 0,0 km/h (0 Bft) O 90 6,3 C 19,2 C 2,1 km/h (1 Bft)
03.06.2023 10:17 19,2 C 19,2 C 19,3 C 48 % 43 % 1022,2 hPa 0,0 l/m 0,0 km/h (0 Bft) O 90 6,3 C 19,2 C 2,1 km/h (1 Bft)
03.06.2023 10:16 19,2 C 19,2 C 19,4 C 48 % 44 % 1022,2 hPa 0,0 l/m 0,0 km/h (0 Bft) O-SO 112 6,7 C 19,2 C 0,0 km/h (0 Bft)
03.06.2023 10:15 19,2 C 19,2 C 19,4 C 48 % 44 % 1022,2 hPa 0,0 l/m 0,0 km/h (0 Bft) O-SO 112 6,7 C 19,2 C 0,0 km/h (0 Bft)
03.06.2023 10:14 19,2 C 18,9 C 19,1 C 47 % 44 % 1022,2 hPa 0,0 l/m 0,0 km/h (0 Bft) SO 135 6,4 C 18,9 C 0,0 km/h (0 Bft)
03.06.2023 10:13 19,2 C 18,9 C 19,1 C 47 % 44 % 1022,2 hPa 0,0 l/m 0,0 km/h (0 Bft) SO 135 6,4 C 18,9 C 0,0 km/h (0 Bft)
03.06.2023 10:12 19,2 C 18,7 C 18,5 C 47 % 44 % 1022,1 hPa 0,0 l/m 0,0 km/h (0 Bft) O-SO 112 6,2 C 18,7 C 0,0 km/h (0 Bft)
03.06.2023 10:11 19,2 C 18,7 C 18,5 C 47 % 44 % 1022,1 hPa 0,0 l/m 0,0 km/h (0 Bft) O-SO 112 6,2 C 18,7 C 0,0 km/h (0 Bft)
03.06.2023 10:10 19,2 C 18,7 C 18,0 C 47 % 43 % 1022,1 hPa 0,0 l/m 0,0 km/h (0 Bft) S-SO 157 5,9 C 18,7 C 0,0 km/h (0 Bft)
03.06.2023 10:09 19,2 C 18,7 C 18,0 C 47 % 43 % 1022,1 hPa 0,0 l/m 0,0 km/h (0 Bft) S-SO 157 5,9 C 18,7 C 0,0 km/h (0 Bft)
03.06.2023 10:08 19,2 C 18,6 C 19,0 C 47 % 44 % 1022,1 hPa 0,0 l/m 0,0 km/h (0 Bft) O-SO 112 6,1 C 18,6 C 0,0 km/h (0 Bft)
03.06.2023 10:07 19,2 C 18,6 C 19,0 C 47 % 44 % 1022,1 hPa 0,0 l/m 0,0 km/h (0 Bft) O-SO 112 6,1 C 18,6 C 0,0 km/h (0 Bft)
03.06.2023 10:06 19,2 C 18,5 C 18,8 C 47 % 44 % 1022,1 hPa 0,0 l/m 0,2 km/h (0 Bft) O-SO 112 6,0 C 18,5 C 0,0 km/h (0 Bft)
03.06.2023 10:05 19,2 C 18,5 C 18,8 C 47 % 44 % 1022,1 hPa 0,0 l/m 0,2 km/h (0 Bft) O-SO 112 6,0 C 18,5 C 0,0 km/h (0 Bft)
03.06.2023 10:04 19,2 C 18,4 C 18,3 C 47 % 44 % 1022,1 hPa 0,0 l/m 0,2 km/h (0 Bft) N-NO 22 5,9 C 18,4 C 0,0 km/h (0 Bft)
03.06.2023 10:03 19,2 C 18,4 C 18,3 C 47 % 44 % 1022,1 hPa 0,0 l/m 0,2 km/h (0 Bft) N-NO 22 5,9 C 18,4 C 0,0 km/h (0 Bft)
03.06.2023 10:02 19,2 C 18,5 C 18,1 C 47 % 44 % 1022,1 hPa 0,0 l/m 0,2 km/h (0 Bft) SO 135 6,0 C 18,5 C 0,0 km/h (0 Bft)
03.06.2023 10:01 19,2 C 18,5 C 18,1 C 47 % 44 % 1022,1 hPa 0,0 l/m 0,2 km/h (0 Bft) SO 135 6,0 C 18,5 C 0,0 km/h (0 Bft)
03.06.2023 10:00 19,2 C 18,6 C 18,7 C 48 % 44 % 1022,1 hPa 0,0 l/m 0,2 km/h (0 Bft) S-SO 157 6,1 C 18,6 C 0,0 km/h (0 Bft)
03.06.2023 09:59 19,2 C 18,6 C 18,7 C 48 % 44 % 1022,1 hPa 0,0 l/m 0,2 km/h (0 Bft) S-SO 157 6,1 C 18,6 C 0,0 km/h (0 Bft)
03.06.2023 09:58 19,2 C 18,6 C 19,3 C 48 % 44 % 1022,1 hPa 0,0 l/m 0,2 km/h (0 Bft) SO 135 6,1 C 18,6 C 2,9 km/h (1 Bft)
03.06.2023 09:57 19,2 C 18,6 C 19,3 C 48 % 44 % 1022,1 hPa 0,0 l/m 0,2 km/h (0 Bft) SO 135 6,1 C 18,6 C 2,9 km/h (1 Bft)
03.06.2023 09:56 19,2 C 18,4 C 19,2 C 47 % 45 % 1022,1 hPa 0,0 l/m 0,2 km/h (0 Bft) O 90 6,3 C 18,4 C 0,0 km/h (0 Bft)
03.06.2023 09:55 19,2 C 18,4 C 19,2 C 47 % 45 % 1022,1 hPa 0,0 l/m 0,2 km/h (0 Bft) O 90 6,3 C 18,4 C 0,0 km/h (0 Bft)
03.06.2023 09:54 19,2 C 18,3 C 18,8 C 47 % 44 % 1022,1 hPa 0,0 l/m 0,2 km/h (0 Bft) O 90 5,8 C 18,3 C 0,0 km/h (0 Bft)
03.06.2023 09:53 19,2 C 18,3 C 18,8 C 47 % 44 % 1022,1 hPa 0,0 l/m 0,2 km/h (0 Bft) O 90 5,8 C 18,3 C 0,0 km/h (0 Bft)
03.06.2023 09:52 19,2 C 18,3 C 18,8 C 47 % 44 % 1022,2 hPa 0,0 l/m 0,8 km/h (0 Bft) O-NO 67 5,8 C 18,3 C 0,0 km/h (0 Bft)
03.06.2023 09:51 19,2 C 18,3 C 18,8 C 47 % 44 % 1022,2 hPa 0,0 l/m 0,8 km/h (0 Bft) O-NO 67 5,8 C 18,3 C 0,0 km/h (0 Bft)
03.06.2023 09:50 19,2 C 18,3 C 18,4 C 47 % 44 % 1022,2 hPa 0,0 l/m 0,8 km/h (0 Bft) O-SO 112 5,8 C 18,3 C 0,0 km/h (0 Bft)
03.06.2023 09:49 19,2 C 18,3 C 18,4 C 47 % 44 % 1022,2 hPa 0,0 l/m 0,8 km/h (0 Bft) O-SO 112 5,8 C 18,3 C 0,0 km/h (0 Bft)
03.06.2023 09:48 19,2 C 18,2 C 19,1 C 47 % 45 % 1022,2 hPa 0,0 l/m 1,0 km/h (0 Bft) O 90 6,1 C 18,2 C 0,0 km/h (0 Bft)
03.06.2023 09:47 19,2 C 18,2 C 19,1 C 47 % 45 % 1022,2 hPa 0,0 l/m 1,0 km/h (0 Bft) O 90 6,1 C 18,2 C 0,0 km/h (0 Bft)
03.06.2023 09:46 19,2 C 18,1 C 19,2 C 47 % 44 % 1022,2 hPa 0,0 l/m 1,0 km/h (0 Bft) S-SO 157 5,7 C 18,1 C 0,0 km/h (0 Bft)
03.06.2023 09:45 19,2 C 18,1 C 19,2 C 47 % 44 % 1022,2 hPa 0,0 l/m 1,0 km/h (0 Bft) S-SO 157 5,7 C 18,1 C 0,0 km/h (0 Bft)
03.06.2023 09:44 19,2 C 18,0 C 19,8 C 48 % 44 % 1022,2 hPa 0,0 l/m 1,0 km/h (0 Bft) O-SO 112 5,6 C 18,0 C 0,0 km/h (0 Bft)
03.06.2023 09:43 19,2 C 18,0 C 19,8 C 48 % 44 % 1022,2 hPa 0,0 l/m 1,0 km/h (0 Bft) O-SO 112 5,6 C 18,0 C 0,0 km/h (0 Bft)
03.06.2023 09:42 19,3 C 18,0 C 20,7 C 48 % 44 % 1022,2 hPa 0,0 l/m 1,0 km/h (0 Bft) O 90 5,6 C 18,0 C 19,5 km/h (3 Bft)
03.06.2023 09:41 19,3 C 18,0 C 20,7 C 48 % 44 % 1022,2 hPa 0,0 l/m 1,0 km/h (0 Bft) O 90 5,6 C 18,0 C 19,5 km/h (3 Bft)
03.06.2023 09:40 19,2 C 18,1 C 21,1 C 47 % 45 % 1022,2 hPa 0,0 l/m 0,3 km/h (0 Bft) N-NW 337 6,0 C 18,1 C 0,0 km/h (0 Bft)
03.06.2023 09:39 19,2 C 18,1 C 21,1 C 47 % 45 % 1022,2 hPa 0,0 l/m 0,3 km/h (0 Bft) N-NW 337 6,0 C 18,1 C 0,0 km/h (0 Bft)
03.06.2023 09:38 19,2 C 18,0 C 21,1 C 48 % 45 % 1022,2 hPa 0,0 l/m 0,3 km/h (0 Bft) O-SO 112 5,9 C 18,0 C 0,0 km/h (0 Bft)
03.06.2023 09:37 19,2 C 18,0 C 21,1 C 48 % 45 % 1022,2 hPa 0,0 l/m 0,3 km/h (0 Bft) O-SO 112 5,9 C 18,0 C 0,0 km/h (0 Bft)
03.06.2023 09:36 19,3 C 17,9 C 21,0 C 48 % 45 % 1022,2 hPa 0,0 l/m 0,2 km/h (0 Bft) O-SO 112 5,8 C 17,9 C 0,0 km/h (0 Bft)
03.06.2023 09:35 19,3 C 17,9 C 21,0 C 48 % 45 % 1022,2 hPa 0,0 l/m 0,2 km/h (0 Bft) O-SO 112 5,8 C 17,9 C 0,0 km/h (0 Bft)
03.06.2023 09:34 19,3 C 17,8 C 21,4 C 48 % 46 % 1022,2 hPa 0,0 l/m 0,2 km/h (0 Bft) O 90 6,0 C 17,8 C 2,3 km/h (1 Bft)
03.06.2023 09:33 19,3 C 17,8 C 21,4 C 48 % 46 % 1022,2 hPa 0,0 l/m 0,2 km/h (0 Bft) O 90 6,0 C 17,8 C 2,3 km/h (1 Bft)
03.06.2023 09:32 19,2 C 17,7 C 21,6 C 48 % 45 % 1022,4 hPa 0,0 l/m 0,2 km/h (0 Bft) O-SO 112 5,6 C 17,7 C 0,0 km/h (0 Bft)
03.06.2023 09:31 19,2 C 17,7 C 21,6 C 48 % 45 % 1022,4 hPa 0,0 l/m 0,2 km/h (0 Bft) O-SO 112 5,6 C 17,7 C 0,0 km/h (0 Bft)
03.06.2023 09:30 19,2 C 17,7 C 21,3 C 48 % 46 % 1022,4 hPa 0,0 l/m 0,2 km/h (0 Bft) W 270 5,9 C 17,7 C 0,0 km/h (0 Bft)
03.06.2023 09:29 19,2 C 17,7 C 21,3 C 48 % 46 % 1022,4 hPa 0,0 l/m 0,2 km/h (0 Bft) W 270 5,9 C 17,7 C 0,0 km/h (0 Bft)
03.06.2023 09:28 19,2 C 17,6 C 21,1 C 48 % 46 % 1022,4 hPa 0,0 l/m 0,2 km/h (0 Bft) O-SO 112 5,8 C 17,6 C 0,0 km/h (0 Bft)
03.06.2023 09:27 19,2 C 17,6 C 21,1 C 48 % 46 % 1022,4 hPa 0,0 l/m 0,2 km/h (0 Bft) O-SO 112 5,8 C 17,6 C 0,0 km/h (0 Bft)
03.06.2023 09:26 19,2 C 17,4 C 20,9 C 48 % 46 % 1022,4 hPa 0,0 l/m 0,0 km/h (0 Bft) O-SO 112 5,7 C 17,4 C 0,0 km/h (0 Bft)
03.06.2023 09:25 19,2 C 17,4 C 20,9 C 48 % 46 % 1022,4 hPa 0,0 l/m 0,0 km/h (0 Bft) O-SO 112 5,7 C 17,4 C 0,0 km/h (0 Bft)
03.06.2023 09:24 19,2 C 17,4 C 20,7 C 48 % 46 % 1022,4 hPa 0,0 l/m 0,0 km/h (0 Bft) O 90 5,7 C 17,4 C 0,0 km/h (0 Bft)
03.06.2023 09:23 19,2 C 17,4 C 20,7 C 48 % 46 % 1022,4 hPa 0,0 l/m 0,0 km/h (0 Bft) O 90 5,7 C 17,4 C 0,0 km/h (0 Bft)
03.06.2023 09:22 19,2 C 17,4 C 20,4 C 48 % 46 % 1022,4 hPa 0,0 l/m 0,0 km/h (0 Bft) N-NO 22 5,7 C 17,4 C 0,0 km/h (0 Bft)
03.06.2023 09:21 19,2 C 17,4 C 20,4 C 48 % 46 % 1022,4 hPa 0,0 l/m 0,0 km/h (0 Bft) N-NO 22 5,7 C 17,4 C 0,0 km/h (0 Bft)
03.06.2023 09:20 19,2 C 17,3 C 20,0 C 48 % 46 % 1022,4 hPa 0,0 l/m 0,0 km/h (0 Bft) O 90 5,6 C 17,3 C 2,5 km/h (1 Bft)
03.06.2023 09:19 19,2 C 17,3 C 20,0 C 48 % 46 % 1022,4 hPa 0,0 l/m 0,0 km/h (0 Bft) O 90 5,6 C 17,3 C 2,5 km/h (1 Bft)
03.06.2023 09:18 19,2 C 17,3 C 19,6 C 48 % 47 % 1022,4 hPa 0,0 l/m 0,0 km/h (0 Bft) O 90 5,9 C 17,3 C 0,0 km/h (0 Bft)
03.06.2023 09:17 19,2 C 17,3 C 19,6 C 48 % 47 % 1022,4 hPa 0,0 l/m 0,0 km/h (0 Bft) O 90 5,9 C 17,3 C 0,0 km/h (0 Bft)
03.06.2023 09:16 19,2 C 17,2 C 19,5 C 48 % 47 % 1022,4 hPa 0,0 l/m 0,0 km/h (0 Bft) O-SO 112 5,8 C 17,2 C 0,0 km/h (0 Bft)
03.06.2023 09:15 19,2 C 17,2 C 19,5 C 48 % 47 % 1022,4 hPa 0,0 l/m 0,0 km/h (0 Bft) O-SO 112 5,8 C 17,2 C 0,0 km/h (0 Bft)
03.06.2023 09:14 19,2 C 17,1 C 20,0 C 48 % 47 % 1022,4 hPa 0,0 l/m 0,0 km/h (0 Bft) O-SO 112 5,7 C 17,1 C 0,0 km/h (0 Bft)
03.06.2023 09:13 19,2 C 17,1 C 20,0 C 48 % 47 % 1022,4 hPa 0,0 l/m 0,0 km/h (0 Bft) O-SO 112 5,7 C 17,1 C 0,0 km/h (0 Bft)
03.06.2023 09:12 19,2 C 16,9 C 19,9 C 49 % 47 % 1022,2 hPa 0,0 l/m 0,2 km/h (0 Bft) NO 45 5,5 C 16,9 C 0,0 km/h (0 Bft)
03.06.2023 09:11 19,2 C 16,9 C 19,9 C 49 % 47 % 1022,2 hPa 0,0 l/m 0,2 km/h (0 Bft) NO 45 5,5 C 16,9 C 0,0 km/h (0 Bft)
03.06.2023 09:10 19,2 C 16,7 C 19,7 C 49 % 47 % 1022,2 hPa 0,0 l/m 0,2 km/h (0 Bft) O-NO 67 5,3 C 16,7 C 0,0 km/h (0 Bft)
03.06.2023 09:09 19,2 C 16,7 C 19,7 C 49 % 47 % 1022,2 hPa 0,0 l/m 0,2 km/h (0 Bft) O-NO 67 5,3 C 16,7 C 0,0 km/h (0 Bft)
03.06.2023 09:08 19,2 C 16,7 C 19,5 C 49 % 47 % 1022,2 hPa 0,0 l/m 0,2 km/h (0 Bft) O-SO 112 5,3 C 16,7 C 0,0 km/h (0 Bft)
03.06.2023 09:07 19,2 C 16,7 C 19,5 C 49 % 47 % 1022,2 hPa 0,0 l/m 0,2 km/h (0 Bft) O-SO 112 5,3 C 16,7 C 0,0 km/h (0 Bft)
03.06.2023 09:06 19,2 C 16,6 C 19,3 C 49 % 48 % 1022,2 hPa 0,0 l/m 0,3 km/h (0 Bft) S-SO 157 5,5 C 16,6 C 0,0 km/h (0 Bft)
03.06.2023 09:05 19,2 C 16,6 C 19,3 C 49 % 48 % 1022,2 hPa 0,0 l/m 0,3 km/h (0 Bft) S-SO 157 5,5 C 16,6 C 0,0 km/h (0 Bft)
03.06.2023 09:04 19,2 C 16,5 C 19,1 C 48 % 48 % 1022,2 hPa 0,0 l/m 0,3 km/h (0 Bft) SO 135 5,5 C 16,5 C 0,0 km/h (0 Bft)
03.06.2023 09:03 19,2 C 16,5 C 19,1 C 48 % 48 % 1022,2 hPa 0,0 l/m 0,3 km/h (0 Bft) SO 135 5,5 C 16,5 C 0,0 km/h (0 Bft)
03.06.2023 09:02 19,2 C 16,6 C 18,8 C 48 % 48 % 1022,2 hPa 0,0 l/m 0,3 km/h (0 Bft) N-NW 337 5,5 C 16,6 C 0,0 km/h (0 Bft)
03.06.2023 09:01 19,2 C 16,6 C 18,8 C 48 % 48 % 1022,2 hPa 0,0 l/m 0,3 km/h (0 Bft) N-NW 337 5,5 C 16,6 C 0,0 km/h (0 Bft)
03.06.2023 09:00 19,2 C 16,6 C 19,2 C 49 % 48 % 1022,2 hPa 0,0 l/m 0,3 km/h (0 Bft) O 90 5,5 C 16,6 C 3,6 km/h (1 Bft)
03.06.2023 08:59 19,2 C 16,6 C 19,2 C 49 % 48 % 1022,2 hPa 0,0 l/m 0,3 km/h (0 Bft) O 90 5,5 C 16,6 C 3,6 km/h (1 Bft)
03.06.2023 08:58 19,2 C 16,6 C 19,1 C 49 % 48 % 1022,2 hPa 0,0 l/m 0,2 km/h (0 Bft) O-SO 112 5,5 C 16,6 C 0,0 km/h (0 Bft)
03.06.2023 08:57 19,2 C 16,6 C 19,1 C 49 % 48 % 1022,2 hPa 0,0 l/m 0,2 km/h (0 Bft) O-SO 112 5,5 C 16,6 C 0,0 km/h (0 Bft)
03.06.2023 08:56 19,1 C 16,8 C 20,0 C 49 % 48 % 1022,2 hPa 0,0 l/m 0,0 km/h (0 Bft) O 90 5,7 C 16,8 C 2,3 km/h (1 Bft)
03.06.2023 08:55 19,1 C 16,8 C 20,0 C 49 % 48 % 1022,2 hPa 0,0 l/m 0,0 km/h (0 Bft) O 90 5,7 C 16,8 C 2,3 km/h (1 Bft)
03.06.2023 08:54 19,1 C 16,8 C 20,6 C 49 % 48 % 1022,2 hPa 0,0 l/m 0,0 km/h (0 Bft) O-SO 112 5,7 C 16,8 C 0,0 km/h (0 Bft)
03.06.2023 08:53 19,1 C 16,8 C 20,6 C 49 % 48 % 1022,2 hPa 0,0 l/m 0,0 km/h (0 Bft) O-SO 112 5,7 C 16,8 C 0,0 km/h (0 Bft)
03.06.2023 08:52 19,1 C 16,7 C 20,5 C 49 % 48 % 1022,1 hPa 0,0 l/m 0,2 km/h (0 Bft) O-SO 112 5,6 C 16,7 C 0,0 km/h (0 Bft)
03.06.2023 08:51 19,1 C 16,7 C 20,5 C 49 % 48 % 1022,1 hPa 0,0 l/m 0,2 km/h (0 Bft) O-SO 112 5,6 C 16,7 C 0,0 km/h (0 Bft)
03.06.2023 08:50 19,1 C 16,7 C 20,3 C 49 % 49 % 1022,1 hPa 0,0 l/m 0,2 km/h (0 Bft) NW 315 5,9 C 16,7 C 0,0 km/h (0 Bft)
03.06.2023 08:49 19,1 C 16,7 C 20,3 C 49 % 49 % 1022,1 hPa 0,0 l/m 0,2 km/h (0 Bft) NW 315 5,9 C 16,7 C 0,0 km/h (0 Bft)
03.06.2023 08:48 19,1 C 16,7 C 20,0 C 49 % 49 % 1022,1 hPa 0,0 l/m 0,2 km/h (0 Bft) O-SO 112 5,9 C 16,7 C 0,0 km/h (0 Bft)
03.06.2023 08:47 19,1 C 16,7 C 20,0 C 49 % 49 % 1022,1 hPa 0,0 l/m 0,2 km/h (0 Bft) O-SO 112 5,9 C 16,7 C 0,0 km/h (0 Bft)
03.06.2023 08:46 19,1 C 16,7 C 20,1 C 49 % 49 % 1022,1 hPa 0,0 l/m 0,2 km/h (0 Bft) NW 315 5,9 C 16,7 C 0,0 km/h (0 Bft)
03.06.2023 08:45 19,1 C 16,7 C 20,1 C 49 % 49 % 1022,1 hPa 0,0 l/m 0,2 km/h (0 Bft) NW 315 5,9 C 16,7 C 0,0 km/h (0 Bft)
03.06.2023 08:44 19,1 C 16,6 C 20,0 C 49 % 49 % 1022,1 hPa 0,0 l/m 0,2 km/h (0 Bft) SO 135 5,8 C 16,6 C 2,1 km/h (1 Bft)
03.06.2023 08:43 19,1 C 16,6 C 20,0 C 49 % 49 % 1022,1 hPa 0,0 l/m 0,2 km/h (0 Bft) SO 135 5,8 C 16,6 C 2,1 km/h (1 Bft)
03.06.2023 08:42 19,0 C 16,5 C 19,5 C 49 % 49 % 1022,1 hPa 0,0 l/m 0,2 km/h (0 Bft) O-SO 112 5,8 C 16,5 C 0,0 km/h (0 Bft)
03.06.2023 08:41 19,0 C 16,5 C 19,5 C 49 % 49 % 1022,1 hPa 0,0 l/m 0,2 km/h (0 Bft) O-SO 112 5,8 C 16,5 C 0,0 km/h (0 Bft)
03.06.2023 08:40 19,0 C 16,6 C 19,8 C 49 % 49 % 1022,1 hPa 0,0 l/m 0,2 km/h (0 Bft) O 90 5,8 C 16,6 C 2,5 km/h (1 Bft)
03.06.2023 08:39 19,0 C 16,6 C 19,8 C 49 % 49 % 1022,1 hPa 0,0 l/m 0,2 km/h (0 Bft) O 90 5,8 C 16,6 C 2,5 km/h (1 Bft)
03.06.2023 08:38 19,0 C 16,6 C 19,3 C 49 % 50 % 1022,1 hPa 0,0 l/m 0,2 km/h (0 Bft) S-SO 157 6,1 C 16,6 C 0,0 km/h (0 Bft)
03.06.2023 08:37 19,0 C 16,6 C 19,3 C 49 % 50 % 1022,1 hPa 0,0 l/m 0,2 km/h (0 Bft) S-SO 157 6,1 C 16,6 C 0,0 km/h (0 Bft)
03.06.2023 08:36 19,0 C 16,6 C 19,0 C 49 % 50 % 1022,1 hPa 0,0 l/m 0,2 km/h (0 Bft) O-SO 112 6,1 C 16,6 C 2,3 km/h (1 Bft)
03.06.2023 08:35 19,0 C 16,6 C 19,0 C 49 % 50 % 1022,1 hPa 0,0 l/m 0,2 km/h (0 Bft) O-SO 112 6,1 C 16,6 C 2,3 km/h (1 Bft)
03.06.2023 08:34 19,1 C 16,5 C 18,5 C 49 % 50 % 1022,1 hPa 0,0 l/m 0,2 km/h (0 Bft) O-SO 112 6,0 C 16,5 C 0,0 km/h (0 Bft)
03.06.2023 08:33 19,1 C 16,5 C 18,5 C 49 % 50 % 1022,1 hPa 0,0 l/m 0,2 km/h (0 Bft) O-SO 112 6,0 C 16,5 C 0,0 km/h (0 Bft)
03.06.2023 08:32 19,0 C 16,5 C 17,8 C 48 % 50 % 1022,1 hPa 0,0 l/m 0,2 km/h (0 Bft) O-SO 112 6,0 C 16,5 C 2,1 km/h (1 Bft)
03.06.2023 08:31 19,0 C 16,5 C 17,8 C 48 % 50 % 1022,1 hPa 0,0 l/m 0,2 km/h (0 Bft) O-SO 112 6,0 C 16,5 C 2,1 km/h (1 Bft)
03.06.2023 08:30 19,1 C 16,5 C 17,5 C 48 % 50 % 1022,1 hPa 0,0 l/m 0,2 km/h (0 Bft) O-SO 112 6,0 C 16,5 C 0,0 km/h (0 Bft)
03.06.2023 08:29 19,1 C 16,5 C 17,5 C 48 % 50 % 1022,1 hPa 0,0 l/m 0,2 km/h (0 Bft) O-SO 112 6,0 C 16,5 C 0,0 km/h (0 Bft)
03.06.2023 08:28 19,1 C 16,5 C 17,4 C 49 % 51 % 1022,1 hPa 0,0 l/m 0,2 km/h (0 Bft) O 90 6,3 C 16,5 C 2,3 km/h (1 Bft)
03.06.2023 08:27 19,1 C 16,5 C 17,4 C 49 % 51 % 1022,1 hPa 0,0 l/m 0,2 km/h (0 Bft) O 90 6,3 C 16,5 C 2,3 km/h (1 Bft)
03.06.2023 08:26 19,1 C 16,5 C 17,8 C 49 % 51 % 1022,1 hPa 0,0 l/m 0,2 km/h (0 Bft) O-SO 112 6,3 C 16,5 C 3,3 km/h (1 Bft)
03.06.2023 08:25 19,1 C 16,5 C 17,8 C 49 % 51 % 1022,1 hPa 0,0 l/m 0,2 km/h (0 Bft) O-SO 112 6,3 C 16,5 C 3,3 km/h (1 Bft)
03.06.2023 08:24 19,1 C 16,4 C 17,8 C 49 % 51 % 1022,1 hPa 0,0 l/m 0,2 km/h (0 Bft) W 270 6,2 C 16,4 C 0,0 km/h (0 Bft)
03.06.2023 08:23 19,1 C 16,4 C 17,8 C 49 % 51 % 1022,1 hPa 0,0 l/m 0,2 km/h (0 Bft) W 270 6,2 C 16,4 C 0,0 km/h (0 Bft)
03.06.2023 08:22 19,0 C 16,3 C 17,5 C 49 % 51 % 1022,1 hPa 0,0 l/m 0,0 km/h (0 Bft) O 90 6,1 C 16,3 C 0,0 km/h (0 Bft)
03.06.2023 08:21 19,0 C 16,3 C 17,5 C 49 % 51 % 1022,1 hPa 0,0 l/m 0,0 km/h (0 Bft) O 90 6,1 C 16,3 C 0,0 km/h (0 Bft)
03.06.2023 08:20 19,0 C 16,3 C 17,6 C 49 % 51 % 1022,1 hPa 0,0 l/m 0,2 km/h (0 Bft) N 360 6,1 C 16,3 C 0,0 km/h (0 Bft)
03.06.2023 08:19 19,0 C 16,3 C 17,6 C 49 % 51 % 1022,1 hPa 0,0 l/m 0,2 km/h (0 Bft) N 360 6,1 C 16,3 C 0,0 km/h (0 Bft)
03.06.2023 08:18 19,1 C 16,2 C 17,5 C 49 % 51 % 1022,1 hPa 0,0 l/m 0,2 km/h (0 Bft) N 360 6,1 C 16,2 C 0,0 km/h (0 Bft)
03.06.2023 08:17 19,1 C 16,2 C 17,5 C 49 % 51 % 1022,1 hPa 0,0 l/m 0,2 km/h (0 Bft) N 360 6,1 C 16,2 C 0,0 km/h (0 Bft)
03.06.2023 08:16 19,0 C 16,1 C 17,3 C 49 % 52 % 1022,1 hPa 0,0 l/m 0,2 km/h (0 Bft) O 90 6,2 C 16,1 C 2,1 km/h (1 Bft)
03.06.2023 08:15 19,0 C 16,1 C 17,3 C 49 % 52 % 1022,1 hPa 0,0 l/m 0,2 km/h (0 Bft) O 90 6,2 C 16,1 C 2,1 km/h (1 Bft)
03.06.2023 08:14 19,0 C 15,9 C 17,0 C 49 % 52 % 1022,1 hPa 0,0 l/m 0,2 km/h (0 Bft) SO 135 6,1 C 15,9 C 3,3 km/h (1 Bft)
03.06.2023 08:13 19,0 C 15,9 C 17,0 C 49 % 52 % 1022,1 hPa 0,0 l/m 0,2 km/h (0 Bft) SO 135 6,1 C 15,9 C 3,3 km/h (1 Bft)
03.06.2023 08:12 19,0 C 15,9 C 16,6 C 49 % 52 % 1022,0 hPa 0,0 l/m 0,2 km/h (0 Bft) O-SO 112 6,1 C 15,9 C 0,0 km/h (0 Bft)
03.06.2023 08:11 19,0 C 15,9 C 16,6 C 49 % 52 % 1022,0 hPa 0,0 l/m 0,2 km/h (0 Bft) O-SO 112 6,1 C 15,9 C 0,0 km/h (0 Bft)
03.06.2023 08:10 19,0 C 15,9 C 16,5 C 49 % 52 % 1022,0 hPa 0,0 l/m 0,2 km/h (0 Bft) O-SO 112 6,1 C 15,9 C 0,0 km/h (0 Bft)
03.06.2023 08:09 19,0 C 15,9 C 16,5 C 49 % 52 % 1022,0 hPa 0,0 l/m 0,2 km/h (0 Bft) O-SO 112 6,1 C 15,9 C 0,0 km/h (0 Bft)
03.06.2023 08:08 19,0 C 15,9 C 16,4 C 49 % 53 % 1022,0 hPa 0,0 l/m 0,3 km/h (0 Bft) O 90 6,3 C 15,9 C 0,0 km/h (0 Bft)
03.06.2023 08:07 19,0 C 15,9 C 16,4 C 49 % 53 % 1022,0 hPa 0,0 l/m 0,3 km/h (0 Bft) O 90 6,3 C 15,9 C 0,0 km/h (0 Bft)
03.06.2023 08:06 19,1 C 15,8 C 16,4 C 49 % 53 % 1022,0 hPa 0,0 l/m 0,3 km/h (0 Bft) O-NO 67 6,2 C 15,8 C 0,0 km/h (0 Bft)
03.06.2023 08:05 19,1 C 15,8 C 16,4 C 49 % 53 % 1022,0 hPa 0,0 l/m 0,3 km/h (0 Bft) O-NO 67 6,2 C 15,8 C 0,0 km/h (0 Bft)
03.06.2023 08:04 19,1 C 15,8 C 16,3 C 49 % 53 % 1022,0 hPa 0,0 l/m 0,3 km/h (0 Bft) O-SO 112 6,2 C 15,8 C 0,0 km/h (0 Bft)
03.06.2023 08:03 19,1 C 15,8 C 16,3 C 49 % 53 % 1022,0 hPa 0,0 l/m 0,3 km/h (0 Bft) O-SO 112 6,2 C 15,8 C 0,0 km/h (0 Bft)
03.06.2023 08:02 19,1 C 15,8 C 16,3 C 49 % 53 % 1022,0 hPa 0,0 l/m 0,2 km/h (0 Bft) SO 135 6,2 C 15,8 C 0,0 km/h (0 Bft)
03.06.2023 08:01 19,1 C 15,8 C 16,3 C 49 % 53 % 1022,0 hPa 0,0 l/m 0,2 km/h (0 Bft) SO 135 6,2 C 15,8 C 0,0 km/h (0 Bft)
03.06.2023 08:00 19,1 C 15,7 C 16,1 C 49 % 53 % 1022,0 hPa 0,0 l/m 0,2 km/h (0 Bft) O-SO 112 6,1 C 15,7 C 0,0 km/h (0 Bft)
03.06.2023 07:59 19,1 C 15,7 C 16,1 C 49 % 53 % 1022,0 hPa 0,0 l/m 0,2 km/h (0 Bft) O-SO 112 6,1 C 15,7 C 0,0 km/h (0 Bft)
03.06.2023 07:58 19,0 C 15,6 C 16,0 C 49 % 54 % 1022,0 hPa 0,0 l/m 0,2 km/h (0 Bft) O-SO 112 6,3 C 15,6 C 2,5 km/h (1 Bft)
03.06.2023 07:57 19,0 C 15,6 C 16,0 C 49 % 54 % 1022,0 hPa 0,0 l/m 0,2 km/h (0 Bft) O-SO 112 6,3 C 15,6 C 2,5 km/h (1 Bft)
03.06.2023 07:56 19,1 C 15,5 C 15,8 C 50 % 54 % 1022,0 hPa 0,0 l/m 0,5 km/h (0 Bft) O-SO 112 6,2 C 15,5 C 0,0 km/h (0 Bft)
03.06.2023 07:55 19,1 C 15,5 C 15,8 C 50 % 54 % 1022,0 hPa 0,0 l/m 0,5 km/h (0 Bft) O-SO 112 6,2 C 15,5 C 0,0 km/h (0 Bft)
03.06.2023 07:54 19,1 C 15,5 C 15,5 C 50 % 55 % 1022,0 hPa 0,0 l/m 1,1 km/h (1 Bft) O-SO 112 6,5 C 15,5 C 0,0 km/h (0 Bft)
03.06.2023 07:53 19,1 C 15,5 C 15,5 C 50 % 55 % 1022,0 hPa 0,0 l/m 1,1 km/h (1 Bft) O-SO 112 6,5 C 15,5 C 0,0 km/h (0 Bft)
03.06.2023 07:52 19,0 C 15,4 C 15,3 C 50 % 55 % 1021,8 hPa 0,0 l/m 1,1 km/h (1 Bft) O-SO 112 6,4 C 15,4 C 20,9 km/h (4 Bft)
03.06.2023 07:51 19,0 C 15,4 C 15,3 C 50 % 55 % 1021,8 hPa 0,0 l/m 1,1 km/h (1 Bft) O-SO 112 6,4 C 15,4 C 0,0 km/h (0 Bft)
03.06.2023 07:50 19,0 C 15,3 C 15,2 C 50 % 55 % 1021,8 hPa 0,0 l/m 1,1 km/h (1 Bft) SO 135 6,3 C 15,3 C 0,0 km/h (0 Bft)
03.06.2023 07:49 19,0 C 15,3 C 15,2 C 50 % 55 % 1021,8 hPa 0,0 l/m 1,1 km/h (1 Bft) SO 135 6,3 C 15,3 C 0,0 km/h (0 Bft)
03.06.2023 07:48 19,0 C 15,2 C 15,2 C 50 % 55 % 1021,8 hPa 0,0 l/m 1,1 km/h (1 Bft) O 90 6,2 C 15,2 C 0,0 km/h (0 Bft)
03.06.2023 07:47 19,0 C 15,2 C 15,2 C 50 % 55 % 1021,8 hPa 0,0 l/m 1,1 km/h (1 Bft) O 90 6,2 C 15,2 C 0,0 km/h (0 Bft)
03.06.2023 07:46 19,0 C 15,2 C 15,1 C 50 % 56 % 1021,8 hPa 0,0 l/m 1,1 km/h (1 Bft) O-SO 112 6,5 C 15,2 C 2,7 km/h (1 Bft)
03.06.2023 07:45 19,0 C 15,2 C 15,1 C 50 % 56 % 1021,8 hPa 0,0 l/m 1,1 km/h (1 Bft) O-SO 112 6,5 C 15,2 C 2,7 km/h (1 Bft)
03.06.2023 07:44 19,0 C 15,1 C 15,1 C 50 % 56 % 1021,8 hPa 0,0 l/m 0,2 km/h (0 Bft) O-SO 112 6,4 C 15,1 C 2,5 km/h (1 Bft)
03.06.2023 07:43 19,0 C 15,1 C 15,1 C 50 % 56 % 1021,8 hPa 0,0 l/m 0,2 km/h (0 Bft) O-SO 112 6,4 C 15,1 C 2,5 km/h (1 Bft)
03.06.2023 07:42 19,0 C 15,0 C 15,1 C 50 % 56 % 1021,8 hPa 0,0 l/m 0,0 km/h (0 Bft) O-SO 112 6,3 C 15,0 C 0,0 km/h (0 Bft)
03.06.2023 07:41 19,0 C 15,0 C 15,1 C 50 % 56 % 1021,8 hPa 0,0 l/m 0,0 km/h (0 Bft) O-SO 112 6,3 C 15,0 C 0,0 km/h (0 Bft)
03.06.2023 07:40 19,0 C 15,0 C 15,0 C 50 % 56 % 1021,8 hPa 0,0 l/m 0,0 km/h (0 Bft) O-NO 67 6,3 C 15,0 C 0,0 km/h (0 Bft)
03.06.2023 07:39 19,0 C 15,0 C 15,0 C 50 % 56 % 1021,8 hPa 0,0 l/m 0,0 km/h (0 Bft) O-NO 67 6,3 C 15,0 C 0,0 km/h (0 Bft)
03.06.2023 07:38 19,0 C 14,9 C 15,0 C 50 % 57 % 1021,8 hPa 0,0 l/m 0,0 km/h (0 Bft) NO 45 6,5 C 14,9 C 0,0 km/h (0 Bft)
03.06.2023 07:37 19,0 C 14,9 C 15,0 C 50 % 57 % 1021,8 hPa 0,0 l/m 0,0 km/h (0 Bft) NO 45 6,5 C 14,9 C 0,0 km/h (0 Bft)
03.06.2023 07:36 19,0 C 14,8 C 15,0 C 50 % 57 % 1021,8 hPa 0,0 l/m 0,0 km/h (0 Bft) O-SO 112 6,4 C 14,8 C 0,0 km/h (0 Bft)
03.06.2023 07:35 19,0 C 14,8 C 15,0 C 50 % 57 % 1021,8 hPa 0,0 l/m 0,0 km/h (0 Bft) O-SO 112 6,4 C 14,8 C 0,0 km/h (0 Bft)
03.06.2023 07:34 19,0 C 14,8 C 15,0 C 50 % 58 % 1021,8 hPa 0,0 l/m 0,0 km/h (0 Bft) O 90 6,6 C 14,8 C 0,0 km/h (0 Bft)
03.06.2023 07:33 19,0 C 14,8 C 15,0 C 50 % 58 % 1021,8 hPa 0,0 l/m 0,0 km/h (0 Bft) O 90 6,6 C 14,8 C 0,0 km/h (0 Bft)
03.06.2023 07:32 19,0 C 14,7 C 15,0 C 50 % 58 % 1021,8 hPa 0,0 l/m 0,0 km/h (0 Bft) O-SO 112 6,5 C 14,7 C 0,0 km/h (0 Bft)
03.06.2023 07:31 19,0 C 14,7 C 15,0 C 50 % 58 % 1021,8 hPa 0,0 l/m 0,0 km/h (0 Bft) O-SO 112 6,5 C 14,7 C 0,0 km/h (0 Bft)
03.06.2023 07:30 19,0 C 14,6 C 14,9 C 50 % 58 % 1021,8 hPa 0,0 l/m 0,0 km/h (0 Bft) N-NO 22 6,4 C 14,6 C 0,0 km/h (0 Bft)
03.06.2023 07:29 19,0 C 14,6 C 14,9 C 50 % 58 % 1021,8 hPa 0,0 l/m 0,0 km/h (0 Bft) N-NO 22 6,4 C 14,6 C 0,0 km/h (0 Bft)
03.06.2023 07:28 19,0 C 14,5 C 14,9 C 50 % 58 % 1021,8 hPa 0,0 l/m 0,0 km/h (0 Bft) O 90 6,3 C 14,5 C 0,0 km/h (0 Bft)
03.06.2023 07:27 19,0 C 14,5 C 14,9 C 50 % 58 % 1021,8 hPa 0,0 l/m 0,0 km/h (0 Bft) O 90 6,3 C 14,5 C 0,0 km/h (0 Bft)
03.06.2023 07:26 19,0 C 14,4 C 14,9 C 50 % 59 % 1021,8 hPa 0,0 l/m 0,0 km/h (0 Bft) O 90 6,5 C 14,4 C 0,0 km/h (0 Bft)
03.06.2023 07:25 19,0 C 14,4 C 14,9 C 50 % 59 % 1021,8 hPa 0,0 l/m 0,0 km/h (0 Bft) O 90 6,5 C 14,4 C 0,0 km/h (0 Bft)
03.06.2023 07:24 19,0 C 14,4 C 14,9 C 50 % 59 % 1021,8 hPa 0,0 l/m 0,0 km/h (0 Bft) O-SO 112 6,5 C 14,4 C 0,0 km/h (0 Bft)
03.06.2023 07:23 19,0 C 14,4 C 14,9 C 50 % 59 % 1021,8 hPa 0,0 l/m 0,0 km/h (0 Bft) O-SO 112 6,5 C 14,4 C 0,0 km/h (0 Bft)
03.06.2023 07:22 19,0 C 14,3 C 14,9 C 50 % 59 % 1021,8 hPa 0,0 l/m 0,0 km/h (0 Bft) O-SO 112 6,4 C 14,3 C 2,7 km/h (1 Bft)
03.06.2023 07:21 19,0 C 14,3 C 14,9 C 50 % 59 % 1021,8 hPa 0,0 l/m 0,0 km/h (0 Bft) O-SO 112 6,4 C 14,3 C 2,7 km/h (1 Bft)
03.06.2023 07:20 19,0 C 14,2 C 14,9 C 50 % 59 % 1021,8 hPa 0,0 l/m 0,0 km/h (0 Bft) O 90 6,3 C 14,2 C 0,0 km/h (0 Bft)
03.06.2023 07:19 19,0 C 14,2 C 14,9 C 50 % 59 % 1021,8 hPa 0,0 l/m 0,0 km/h (0 Bft) O 90 6,3 C 14,2 C 0,0 km/h (0 Bft)
03.06.2023 07:18 19,0 C 14,1 C 14,9 C 50 % 60 % 1021,8 hPa 0,0 l/m 0,0 km/h (0 Bft) O-SO 112 6,5 C 14,1 C 0,0 km/h (0 Bft)
03.06.2023 07:17 19,0 C 14,1 C 14,9 C 50 % 60 % 1021,8 hPa 0,0 l/m 0,0 km/h (0 Bft) O-SO 112 6,5 C 14,1 C 0,0 km/h (0 Bft)
03.06.2023 07:16 19,0 C 14,0 C 14,8 C 50 % 60 % 1021,8 hPa 0,0 l/m 0,0 km/h (0 Bft) O-SO 112 6,4 C 14,0 C 0,0 km/h (0 Bft)
03.06.2023 07:15 19,0 C 14,0 C 14,8 C 50 % 60 % 1021,8 hPa 0,0 l/m 0,0 km/h (0 Bft) O-SO 112 6,4 C 14,0 C 0,0 km/h (0 Bft)
03.06.2023 07:14 19,0 C 14,0 C 14,7 C 50 % 60 % 1021,8 hPa 0,0 l/m 0,0 km/h (0 Bft) O-SO 112 6,4 C 14,0 C 0,0 km/h (0 Bft)
03.06.2023 07:13 19,0 C 14,0 C 14,7 C 50 % 60 % 1021,8 hPa 0,0 l/m 0,0 km/h (0 Bft) O-SO 112 6,4 C 14,0 C 0,0 km/h (0 Bft)
03.06.2023 07:12 19,0 C 13,9 C 14,7 C 50 % 60 % 1021,9 hPa 0,0 l/m 0,0 km/h (0 Bft) O-NO 67 6,3 C 13,9 C 0,0 km/h (0 Bft)
03.06.2023 07:11 19,0 C 13,9 C 14,7 C 50 % 60 % 1021,9 hPa 0,0 l/m 0,0 km/h (0 Bft) O-NO 67 6,3 C 13,9 C 0,0 km/h (0 Bft)
03.06.2023 07:10 19,0 C 13,8 C 14,7 C 50 % 60 % 1021,9 hPa 0,0 l/m 0,0 km/h (0 Bft) O 90 6,2 C 13,8 C 0,0 km/h (0 Bft)
03.06.2023 07:09 19,0 C 13,8 C 14,7 C 50 % 60 % 1021,9 hPa 0,0 l/m 0,0 km/h (0 Bft) O 90 6,2 C 13,8 C 0,0 km/h (0 Bft)
03.06.2023 07:08 19,0 C 13,8 C 14,7 C 50 % 60 % 1021,9 hPa 0,0 l/m 0,0 km/h (0 Bft) O 90 6,2 C 13,8 C 0,0 km/h (0 Bft)
03.06.2023 07:07 19,0 C 13,8 C 14,7 C 50 % 60 % 1021,9 hPa 0,0 l/m 0,0 km/h (0 Bft) O 90 6,2 C 13,8 C 0,0 km/h (0 Bft)
03.06.2023 07:06 19,0 C 13,8 C 14,8 C 51 % 61 % 1021,9 hPa 0,0 l/m 0,0 km/h (0 Bft) O-SO 112 6,4 C 13,8 C 0,0 km/h (0 Bft)
03.06.2023 07:05 19,0 C 13,8 C 14,8 C 51 % 61 % 1021,9 hPa 0,0 l/m 0,0 km/h (0 Bft) O-SO 112 6,4 C 13,8 C 0,0 km/h (0 Bft)
03.06.2023 07:04 19,1 C 13,7 C 14,7 C 50 % 61 % 1021,9 hPa 0,0 l/m 0,0 km/h (0 Bft) O-NO 67 6,3 C 13,7 C 0,0 km/h (0 Bft)
03.06.2023 07:03 19,1 C 13,7 C 14,7 C 50 % 61 % 1021,9 hPa 0,0 l/m 0,0 km/h (0 Bft) O-NO 67 6,3 C 13,7 C 0,0 km/h (0 Bft)
03.06.2023 07:02 19,1 C 13,7 C 14,6 C 50 % 61 % 1021,9 hPa 0,0 l/m 0,0 km/h (0 Bft) O-SO 112 6,3 C 13,7 C 0,0 km/h (0 Bft)
03.06.2023 07:01 19,1 C 13,7 C 14,6 C 50 % 61 % 1021,9 hPa 0,0 l/m 0,0 km/h (0 Bft) O-SO 112 6,3 C 13,7 C 0,0 km/h (0 Bft)
03.06.2023 07:00 19,1 C 13,7 C 14,6 C 51 % 61 % 1021,9 hPa 0,0 l/m 0,0 km/h (0 Bft) O-SO 112 6,3 C 13,7 C 0,0 km/h (0 Bft)
03.06.2023 06:59 19,1 C 13,7 C 14,6 C 51 % 61 % 1021,9 hPa 0,0 l/m 0,0 km/h (0 Bft) O-SO 112 6,3 C 13,7 C 0,0 km/h (0 Bft)
03.06.2023 06:58 19,1 C 13,6 C 14,6 C 51 % 61 % 1021,9 hPa 0,0 l/m 0,2 km/h (0 Bft) O-SO 112 6,2 C 13,6 C 2,1 km/h (1 Bft)
03.06.2023 06:57 19,1 C 13,6 C 14,6 C 51 % 61 % 1021,9 hPa 0,0 l/m 0,2 km/h (0 Bft) O-SO 112 6,2 C 13,6 C 2,1 km/h (1 Bft)
03.06.2023 06:56 19,1 C 13,6 C 14,6 C 51 % 61 % 1021,9 hPa 0,0 l/m 0,2 km/h (0 Bft) O-SO 112 6,2 C 13,6 C 0,0 km/h (0 Bft)
03.06.2023 06:55 19,1 C 13,6 C 14,6 C 51 % 61 % 1021,9 hPa 0,0 l/m 0,2 km/h (0 Bft) O-SO 112 6,2 C 13,6 C 0,0 km/h (0 Bft)
03.06.2023 06:54 19,1 C 13,6 C 14,7 C 51 % 62 % 1021,9 hPa 0,0 l/m 0,2 km/h (0 Bft) O-SO 112 6,5 C 13,6 C 0,0 km/h (0 Bft)
03.06.2023 06:53 19,1 C 13,6 C 14,7 C 51 % 62 % 1021,9 hPa 0,0 l/m 0,2 km/h (0 Bft) O-SO 112 6,5 C 13,6 C 0,0 km/h (0 Bft)
03.06.2023 06:52 19,1 C 13,6 C 14,6 C 51 % 62 % 1021,8 hPa 0,0 l/m 0,2 km/h (0 Bft) O-SO 112 6,5 C 13,6 C 0,0 km/h (0 Bft)
03.06.2023 06:51 19,1 C 13,6 C 14,6 C 51 % 62 % 1021,8 hPa 0,0 l/m 0,2 km/h (0 Bft) O-SO 112 6,5 C 13,6 C 0,0 km/h (0 Bft)
03.06.2023 06:50 19,1 C 13,5 C 14,7 C 51 % 62 % 1021,8 hPa 0,0 l/m 0,2 km/h (0 Bft) O-SO 112 6,4 C 13,5 C 0,0 km/h (0 Bft)
03.06.2023 06:49 19,1 C 13,5 C 14,7 C 51 % 62 % 1021,8 hPa 0,0 l/m 0,2 km/h (0 Bft) O-SO 112 6,4 C 13,5 C 0,0 km/h (0 Bft)
03.06.2023 06:48 19,1 C 13,5 C 14,7 C 51 % 62 % 1021,8 hPa 0,0 l/m 0,0 km/h (0 Bft) O 90 6,4 C 13,5 C 0,0 km/h (0 Bft)
03.06.2023 06:47 19,1 C 13,5 C 14,7 C 51 % 62 % 1021,8 hPa 0,0 l/m 0,0 km/h (0 Bft) O 90 6,4 C 13,5 C 0,0 km/h (0 Bft)
03.06.2023 06:46 19,1 C 13,5 C 14,7 C 51 % 62 % 1021,8 hPa 0,0 l/m 0,0 km/h (0 Bft) O 90 6,4 C 13,5 C 0,0 km/h (0 Bft)
03.06.2023 06:45 19,1 C 13,5 C 14,7 C 51 % 62 % 1021,8 hPa 0,0 l/m 0,0 km/h (0 Bft) O 90 6,4 C 13,5 C 0,0 km/h (0 Bft)
03.06.2023 06:44 19,1 C 13,4 C 14,7 C 51 % 62 % 1021,8 hPa 0,0 l/m 0,0 km/h (0 Bft) SO 135 6,3 C 13,4 C 0,0 km/h (0 Bft)
03.06.2023 06:43 19,1 C 13,4 C 14,7 C 51 % 62 % 1021,8 hPa 0,0 l/m 0,0 km/h (0 Bft) SO 135 6,3 C 13,4 C 0,0 km/h (0 Bft)
03.06.2023 06:42 19,1 C 13,4 C 14,6 C 51 % 62 % 1021,8 hPa 0,0 l/m 0,0 km/h (0 Bft) O-SO 112 6,3 C 13,4 C 0,0 km/h (0 Bft)
03.06.2023 06:41 19,1 C 13,4 C 14,6 C 51 % 62 % 1021,8 hPa 0,0 l/m 0,0 km/h (0 Bft) O-SO 112 6,3 C 13,4 C 0,0 km/h (0 Bft)
03.06.2023 06:40 19,1 C 13,4 C 14,6 C 51 % 62 % 1021,8 hPa 0,0 l/m 0,0 km/h (0 Bft) O-SO 112 6,3 C 13,4 C 0,0 km/h (0 Bft)
03.06.2023 06:39 19,1 C 13,4 C 14,6 C 51 % 62 % 1021,8 hPa 0,0 l/m 0,0 km/h (0 Bft) O-SO 112 6,3 C 13,4 C 0,0 km/h (0 Bft)
03.06.2023 06:38 19,1 C 13,4 C 14,5 C 51 % 62 % 1021,8 hPa 0,0 l/m 0,0 km/h (0 Bft) O 90 6,3 C 13,4 C 0,0 km/h (0 Bft)
03.06.2023 06:37 19,1 C 13,4 C 14,5 C 51 % 62 % 1021,8 hPa 0,0 l/m 0,0 km/h (0 Bft) O 90 6,3 C 13,4 C 0,0 km/h (0 Bft)
03.06.2023 06:36 19,1 C 13,3 C 14,6 C 51 % 62 % 1021,8 hPa 0,0 l/m 0,0 km/h (0 Bft) O-SO 112 6,2 C 13,3 C 0,0 km/h (0 Bft)
03.06.2023 06:35 19,1 C 13,3 C 14,6 C 51 % 62 % 1021,8 hPa 0,0 l/m 0,0 km/h (0 Bft) O-SO 112 6,2 C 13,3 C 0,0 km/h (0 Bft)
03.06.2023 06:34 19,1 C 13,3 C 14,5 C 51 % 62 % 1021,8 hPa 0,0 l/m 0,0 km/h (0 Bft) O 90 6,2 C 13,3 C 0,0 km/h (0 Bft)
03.06.2023 06:33 19,1 C 13,3 C 14,5 C 51 % 62 % 1021,8 hPa 0,0 l/m 0,0 km/h (0 Bft) O 90 6,2 C 13,3 C 0,0 km/h (0 Bft)
03.06.2023 06:32 19,1 C 13,3 C 14,5 C 51 % 62 % 1021,7 hPa 0,0 l/m 0,0 km/h (0 Bft) O 90 6,2 C 13,3 C 0,0 km/h (0 Bft)
03.06.2023 06:31 19,1 C 13,3 C 14,5 C 51 % 62 % 1021,7 hPa 0,0 l/m 0,0 km/h (0 Bft) O 90 6,2 C 13,3 C 0,0 km/h (0 Bft)
03.06.2023 06:30 19,1 C 13,2 C 14,6 C 51 % 63 % 1021,7 hPa 0,0 l/m 0,0 km/h (0 Bft) O 90 6,3 C 13,2 C 0,0 km/h (0 Bft)
03.06.2023 06:29 19,1 C 13,2 C 14,6 C 51 % 63 % 1021,7 hPa 0,0 l/m 0,0 km/h (0 Bft) O 90 6,3 C 13,2 C 0,0 km/h (0 Bft)
03.06.2023 06:28 19,1 C 13,2 C 14,6 C 51 % 63 % 1021,7 hPa 0,0 l/m 0,2 km/h (0 Bft) SO 135 6,3 C 13,2 C 0,0 km/h (0 Bft)
03.06.2023 06:27 19,1 C 13,2 C 14,6 C 51 % 63 % 1021,7 hPa 0,0 l/m 0,2 km/h (0 Bft) SO 135 6,3 C 13,2 C 0,0 km/h (0 Bft)
03.06.2023 06:26 19,1 C 13,2 C 14,7 C 51 % 63 % 1021,7 hPa 0,0 l/m 0,2 km/h (0 Bft) O-SO 112 6,3 C 13,2 C 0,0 km/h (0 Bft)
03.06.2023 06:25 19,1 C 13,2 C 14,7 C 51 % 63 % 1021,7 hPa 0,0 l/m 0,2 km/h (0 Bft) O-SO 112 6,3 C 13,2 C 0,0 km/h (0 Bft)
03.06.2023 06:24 19,1 C 13,2 C 14,6 C 51 % 63 % 1021,7 hPa 0,0 l/m 0,2 km/h (0 Bft) O-SO 112 6,3 C 13,2 C 0,0 km/h (0 Bft)
03.06.2023 06:23 19,1 C 13,2 C 14,6 C 51 % 63 % 1021,7 hPa 0,0 l/m 0,2 km/h (0 Bft) O-SO 112 6,3 C 13,2 C 0,0 km/h (0 Bft)
03.06.2023 06:22 19,1 C 13,1 C 14,6 C 51 % 63 % 1021,7 hPa 0,0 l/m 0,2 km/h (0 Bft) O 90 6,2 C 13,1 C 0,0 km/h (0 Bft)
03.06.2023 06:21 19,1 C 13,1 C 14,6 C 51 % 63 % 1021,7 hPa 0,0 l/m 0,2 km/h (0 Bft) O 90 6,2 C 13,1 C 0,0 km/h (0 Bft)
03.06.2023 06:20 19,1 C 13,1 C 14,6 C 51 % 63 % 1021,7 hPa 0,0 l/m 0,2 km/h (0 Bft) O-SO 112 6,2 C 13,1 C 2,1 km/h (1 Bft)
03.06.2023 06:19 19,1 C 13,1 C 14,6 C 51 % 63 % 1021,7 hPa 0,0 l/m 0,2 km/h (0 Bft) O-SO 112 6,2 C 13,1 C 2,1 km/h (1 Bft)
03.06.2023 06:18 19,1 C 13,1 C 14,4 C 51 % 63 % 1021,7 hPa 0,0 l/m 0,2 km/h (0 Bft) SO 135 6,2 C 13,1 C 2,5 km/h (1 Bft)
03.06.2023 06:17 19,1 C 13,1 C 14,4 C 51 % 63 % 1021,7 hPa 0,0 l/m 0,2 km/h (0 Bft) SO 135 6,2 C 13,1 C 2,5 km/h (1 Bft)
03.06.2023 06:16 19,1 C 13,1 C 14,5 C 51 % 63 % 1021,7 hPa 0,0 l/m 0,2 km/h (0 Bft) O 90 6,2 C 13,1 C 0,0 km/h (0 Bft)
03.06.2023 06:15 19,1 C 13,1 C 14,5 C 51 % 63 % 1021,7 hPa 0,0 l/m 0,2 km/h (0 Bft) O 90 6,2 C 13,1 C 0,0 km/h (0 Bft)
03.06.2023 06:14 19,1 C 13,0 C 14,5 C 51 % 63 % 1021,7 hPa 0,0 l/m 0,0 km/h (0 Bft) O 90 6,1 C 13,0 C 0,0 km/h (0 Bft)
03.06.2023 06:13 19,1 C 13,0 C 14,5 C 51 % 63 % 1021,7 hPa 0,0 l/m 0,0 km/h (0 Bft) O 90 6,1 C 13,0 C 0,0 km/h (0 Bft)
03.06.2023 06:12 19,1 C 12,9 C 14,6 C 51 % 63 % 1021,7 hPa 0,0 l/m 0,0 km/h (0 Bft) O 90 6,0 C 12,9 C 0,0 km/h (0 Bft)
03.06.2023 06:11 19,1 C 12,9 C 14,6 C 51 % 63 % 1021,7 hPa 0,0 l/m 0,0 km/h (0 Bft) O 90 6,0 C 12,9 C 0,0 km/h (0 Bft)
03.06.2023 06:10 19,1 C 12,9 C 14,6 C 52 % 63 % 1021,7 hPa 0,0 l/m 0,0 km/h (0 Bft) O 90 6,0 C 12,9 C 0,0 km/h (0 Bft)
03.06.2023 06:09 19,1 C 12,9 C 14,6 C 52 % 63 % 1021,7 hPa 0,0 l/m 0,0 km/h (0 Bft) O 90 6,0 C 12,9 C 0,0 km/h (0 Bft)
03.06.2023 06:08 19,1 C 12,9 C 14,6 C 52 % 63 % 1021,7 hPa 0,0 l/m 0,0 km/h (0 Bft) O 90 6,0 C 12,9 C 0,0 km/h (0 Bft)
03.06.2023 06:07 19,1 C 12,9 C 14,6 C 52 % 63 % 1021,7 hPa 0,0 l/m 0,0 km/h (0 Bft) O 90 6,0 C 12,9 C 0,0 km/h (0 Bft)
03.06.2023 06:06 19,1 C 12,9 C 14,6 C 52 % 63 % 1021,7 hPa 0,0 l/m 0,0 km/h (0 Bft) O 90 6,0 C 12,9 C 0,0 km/h (0 Bft)
03.06.2023 06:05 19,1 C 12,9 C 14,6 C 52 % 63 % 1021,7 hPa 0,0 l/m 0,0 km/h (0 Bft) O 90 6,0 C 12,9 C 0,0 km/h (0 Bft)
03.06.2023 06:04 19,1 C 12,9 C 14,6 C 52 % 63 % 1021,7 hPa 0,0 l/m 0,0 km/h (0 Bft) O 90 6,0 C 12,9 C 0,0 km/h (0 Bft)
03.06.2023 06:03 19,1 C 12,9 C 14,6 C 52 % 63 % 1021,7 hPa 0,0 l/m 0,0 km/h (0 Bft) O 90 6,0 C 12,9 C 0,0 km/h (0 Bft)
03.06.2023 06:02 19,1 C 12,9 C 14,6 C 52 % 63 % 1021,7 hPa 0,0 l/m 0,0 km/h (0 Bft) O-SO 112 6,0 C 12,9 C 0,0 km/h (0 Bft)
03.06.2023 06:01 19,1 C 12,9 C 14,6 C 52 % 63 % 1021,7 hPa 0,0 l/m 0,0 km/h (0 Bft) O-SO 112 6,0 C 12,9 C 0,0 km/h (0 Bft)
03.06.2023 06:00 19,1 C 12,9 C 14,6 C 52 % 63 % 1021,7 hPa 0,0 l/m 0,0 km/h (0 Bft) O-SO 112 6,0 C 12,9 C 0,0 km/h (0 Bft)
03.06.2023 05:59 19,1 C 12,9 C 14,6 C 52 % 63 % 1021,7 hPa 0,0 l/m 0,0 km/h (0 Bft) O-SO 112 6,0 C 12,9 C 0,0 km/h (0 Bft)
03.06.2023 05:58 19,1 C 12,9 C 14,6 C 52 % 63 % 1021,7 hPa 0,0 l/m 0,0 km/h (0 Bft) O 90 6,0 C 12,9 C 0,0 km/h (0 Bft)
03.06.2023 05:57 19,1 C 12,9 C 14,6 C 52 % 63 % 1021,7 hPa 0,0 l/m 0,0 km/h (0 Bft) O 90 6,0 C 12,9 C 0,0 km/h (0 Bft)
03.06.2023 05:56 19,1 C 12,9 C 14,5 C 52 % 63 % 1021,7 hPa 0,0 l/m 0,0 km/h (0 Bft) NO 45 6,0 C 12,9 C 0,0 km/h (0 Bft)
03.06.2023 05:55 19,1 C 12,9 C 14,5 C 52 % 63 % 1021,7 hPa 0,0 l/m 0,0 km/h (0 Bft) NO 45 6,0 C 12,9 C 0,0 km/h (0 Bft)
03.06.2023 05:54 19,1 C 12,9 C 14,5 C 52 % 63 % 1021,7 hPa 0,0 l/m 0,0 km/h (0 Bft) O-SO 112 6,0 C 12,9 C 0,0 km/h (0 Bft)
03.06.2023 05:53 19,1 C 12,9 C 14,5 C 52 % 63 % 1021,7 hPa 0,0 l/m 0,0 km/h (0 Bft) O-SO 112 6,0 C 12,9 C 0,0 km/h (0 Bft)
03.06.2023 05:52 19,1 C 12,9 C 14,5 C 52 % 64 % 1021,5 hPa 0,0 l/m 0,0 km/h (0 Bft) O-SO 112 6,3 C 12,9 C 0,0 km/h (0 Bft)
03.06.2023 05:51 19,1 C 12,9 C 14,5 C 52 % 64 % 1021,5 hPa 0,0 l/m 0,0 km/h (0 Bft) O-SO 112 6,3 C 12,9 C 0,0 km/h (0 Bft)
03.06.2023 05:50 19,1 C 12,8 C 14,5 C 52 % 64 % 1021,5 hPa 0,0 l/m 0,0 km/h (0 Bft) O 90 6,2 C 12,8 C 0,0 km/h (0 Bft)
03.06.2023 05:49 19,1 C 12,8 C 14,5 C 52 % 64 % 1021,5 hPa 0,0 l/m 0,0 km/h (0 Bft) O 90 6,2 C 12,8 C 0,0 km/h (0 Bft)
03.06.2023 05:48 19,1 C 12,8 C 14,5 C 52 % 63 % 1021,5 hPa 0,0 l/m 0,0 km/h (0 Bft) O 90 5,9 C 12,8 C 0,0 km/h (0 Bft)
03.06.2023 05:47 19,1 C 12,8 C 14,5 C 52 % 63 % 1021,5 hPa 0,0 l/m 0,0 km/h (0 Bft) O 90 5,9 C 12,8 C 0,0 km/h (0 Bft)
03.06.2023 05:46 19,1 C 12,8 C 14,5 C 52 % 63 % 1021,5 hPa 0,0 l/m 0,0 km/h (0 Bft) O 90 5,9 C 12,8 C 0,0 km/h (0 Bft)
03.06.2023 05:45 19,1 C 12,8 C 14,5 C 52 % 63 % 1021,5 hPa 0,0 l/m 0,0 km/h (0 Bft) O 90 5,9 C 12,8 C 0,0 km/h (0 Bft)
03.06.2023 05:44 19,0 C 12,9 C 14,5 C 52 % 63 % 1021,5 hPa 0,0 l/m 0,2 km/h (0 Bft) O-SO 112 6,0 C 12,9 C 0,0 km/h (0 Bft)
03.06.2023 05:43 19,0 C 12,9 C 14,5 C 52 % 63 % 1021,5 hPa 0,0 l/m 0,2 km/h (0 Bft) O-SO 112 6,0 C 12,9 C 0,0 km/h (0 Bft)
03.06.2023 05:42 19,1 C 12,9 C 14,6 C 52 % 63 % 1021,5 hPa 0,0 l/m 0,2 km/h (0 Bft) O-SO 112 6,0 C 12,9 C 0,0 km/h (0 Bft)
03.06.2023 05:41 19,1 C 12,9 C 14,6 C 52 % 63 % 1021,5 hPa 0,0 l/m 0,2 km/h (0 Bft) O-SO 112 6,0 C 12,9 C 0,0 km/h (0 Bft)
03.06.2023 05:40 19,1 C 12,9 C 14,5 C 52 % 63 % 1021,5 hPa 0,0 l/m 0,0 km/h (0 Bft) S-SO 157 6,0 C 12,9 C 0,0 km/h (0 Bft)
03.06.2023 05:39 19,1 C 12,9 C 14,5 C 52 % 63 % 1021,5 hPa 0,0 l/m 0,0 km/h (0 Bft) S-SO 157 6,0 C 12,9 C 0,0 km/h (0 Bft)
03.06.2023 05:38 19,1 C 12,9 C 14,6 C 52 % 63 % 1021,5 hPa 0,0 l/m 0,0 km/h (0 Bft) O-SO 112 6,0 C 12,9 C 2,1 km/h (1 Bft)
03.06.2023 05:37 19,1 C 12,9 C 14,6 C 52 % 63 % 1021,5 hPa 0,0 l/m 0,0 km/h (0 Bft) O-SO 112 6,0 C 12,9 C 2,1 km/h (1 Bft)
03.06.2023 05:36 19,1 C 12,9 C 14,6 C 52 % 63 % 1021,5 hPa 0,0 l/m 0,0 km/h (0 Bft) O-SO 112 6,0 C 12,9 C 0,0 km/h (0 Bft)
03.06.2023 05:35 19,1 C 12,9 C 14,6 C 52 % 63 % 1021,5 hPa 0,0 l/m 0,0 km/h (0 Bft) O-SO 112 6,0 C 12,9 C 0,0 km/h (0 Bft)
03.06.2023 05:34 19,1 C 12,9 C 14,7 C 52 % 63 % 1021,5 hPa 0,0 l/m 0,0 km/h (0 Bft) O 90 6,0 C 12,9 C 0,0 km/h (0 Bft)
03.06.2023 05:33 19,1 C 12,9 C 14,7 C 52 % 63 % 1021,5 hPa 0,0 l/m 0,0 km/h (0 Bft) O 90 6,0 C 12,9 C 0,0 km/h (0 Bft)
03.06.2023 05:32 19,1 C 12,9 C 14,7 C 52 % 63 % 1021,2 hPa 0,0 l/m 0,0 km/h (0 Bft) O-SO 112 6,0 C 12,9 C 0,0 km/h (0 Bft)
03.06.2023 05:31 19,1 C 12,9 C 14,7 C 52 % 63 % 1021,2 hPa 0,0 l/m 0,0 km/h (0 Bft) O-SO 112 6,0 C 12,9 C 0,0 km/h (0 Bft)
03.06.2023 05:30 19,1 C 12,9 C 14,8 C 52 % 64 % 1021,2 hPa 0,0 l/m 0,0 km/h (0 Bft) O 90 6,3 C 12,9 C 0,0 km/h (0 Bft)
03.06.2023 05:29 19,1 C 12,9 C 14,8 C 52 % 64 % 1021,2 hPa 0,0 l/m 0,0 km/h (0 Bft) O 90 6,3 C 12,9 C 0,0 km/h (0 Bft)
03.06.2023 05:28 19,2 C 12,9 C 14,8 C 52 % 64 % 1021,2 hPa 0,0 l/m 0,0 km/h (0 Bft) O-SO 112 6,3 C 12,9 C 0,0 km/h (0 Bft)
03.06.2023 05:27 19,2 C 12,9 C 14,8 C 52 % 64 % 1021,2 hPa 0,0 l/m 0,0 km/h (0 Bft) O-SO 112 6,3 C 12,9 C 0,0 km/h (0 Bft)
03.06.2023 05:26 19,2 C 12,9 C 14,7 C 52 % 64 % 1021,2 hPa 0,0 l/m 0,0 km/h (0 Bft) O 90 6,3 C 12,9 C 0,0 km/h (0 Bft)
03.06.2023 05:25 19,2 C 12,9 C 14,7 C 52 % 64 % 1021,2 hPa 0,0 l/m 0,0 km/h (0 Bft) O 90 6,3 C 12,9 C 0,0 km/h (0 Bft)
03.06.2023 05:24 19,2 C 12,9 C 14,7 C 52 % 64 % 1021,2 hPa 0,0 l/m 0,0 km/h (0 Bft) O-SO 112 6,3 C 12,9 C 0,0 km/h (0 Bft)
03.06.2023 05:23 19,2 C 12,9 C 14,7 C 52 % 64 % 1021,2 hPa 0,0 l/m 0,0 km/h (0 Bft) O-SO 112 6,3 C 12,9 C 0,0 km/h (0 Bft)
03.06.2023 05:22 19,2 C 12,9 C 14,7 C 52 % 64 % 1021,2 hPa 0,0 l/m 0,0 km/h (0 Bft) O-SO 112 6,3 C 12,9 C 0,0 km/h (0 Bft)
03.06.2023 05:21 19,2 C 12,9 C 14,7 C 52 % 64 % 1021,2 hPa 0,0 l/m 0,0 km/h (0 Bft) O-SO 112 6,3 C 12,9 C 0,0 km/h (0 Bft)
03.06.2023 05:20 19,2 C 12,9 C 14,7 C 52 % 64 % 1021,2 hPa 0,0 l/m 0,0 km/h (0 Bft) O-SO 112 6,3 C 12,9 C 0,0 km/h (0 Bft)
03.06.2023 05:19 19,2 C 12,9 C 14,7 C 52 % 64 % 1021,2 hPa 0,0 l/m 0,0 km/h (0 Bft) O-SO 112 6,3 C 12,9 C 0,0 km/h (0 Bft)
03.06.2023 05:18 19,2 C 12,9 C 14,8 C 52 % 65 % 1021,2 hPa 0,0 l/m 0,0 km/h (0 Bft) O-SO 112 6,5 C 12,9 C 0,0 km/h (0 Bft)
03.06.2023 05:17 19,2 C 12,9 C 14,8 C 52 % 65 % 1021,2 hPa 0,0 l/m 0,0 km/h (0 Bft) O-SO 112 6,5 C 12,9 C 0,0 km/h (0 Bft)
03.06.2023 05:16 19,2 C 12,9 C 14,7 C 52 % 65 % 1021,2 hPa 0,0 l/m 0,0 km/h (0 Bft) S-SO 157 6,5 C 12,9 C 0,0 km/h (0 Bft)
03.06.2023 05:15 19,2 C 12,9 C 14,7 C 52 % 65 % 1021,2 hPa 0,0 l/m 0,0 km/h (0 Bft) S-SO 157 6,5 C 12,9 C 0,0 km/h (0 Bft)
03.06.2023 05:14 19,2 C 12,9 C 14,7 C 52 % 65 % 1021,2 hPa 0,0 l/m 0,0 km/h (0 Bft) O-SO 112 6,5 C 12,9 C 0,0 km/h (0 Bft)
03.06.2023 05:13 19,2 C 12,9 C 14,7 C 52 % 65 % 1021,2 hPa 0,0 l/m 0,0 km/h (0 Bft) O-SO 112 6,5 C 12,9 C 0,0 km/h (0 Bft)
03.06.2023 05:12 19,2 C 13,0 C 14,7 C 52 % 64 % 1021,2 hPa 0,0 l/m 0,0 km/h (0 Bft) O-SO 112 6,4 C 13,0 C 0,0 km/h (0 Bft)
03.06.2023 05:11 19,2 C 13,0 C 14,7 C 52 % 64 % 1021,2 hPa 0,0 l/m 0,0 km/h (0 Bft) O-SO 112 6,4 C 13,0 C 0,0 km/h (0 Bft)
03.06.2023 05:10 19,1 C 13,0 C 14,7 C 52 % 64 % 1021,2 hPa 0,0 l/m 0,0 km/h (0 Bft) O-SO 112 6,4 C 13,0 C 0,0 km/h (0 Bft)
03.06.2023 05:09 19,1 C 13,0 C 14,7 C 52 % 64 % 1021,2 hPa 0,0 l/m 0,0 km/h (0 Bft) O-SO 112 6,4 C 13,0 C 0,0 km/h (0 Bft)
03.06.2023 05:08 19,1 C 13,0 C 14,7 C 52 % 64 % 1021,2 hPa 0,0 l/m 0,0 km/h (0 Bft) O-SO 112 6,4 C 13,0 C 0,0 km/h (0 Bft)
03.06.2023 05:07 19,1 C 13,0 C 14,7 C 52 % 64 % 1021,2 hPa 0,0 l/m 0,0 km/h (0 Bft) O-SO 112 6,4 C 13,0 C 0,0 km/h (0 Bft)
03.06.2023 05:06 19,1 C 13,0 C 14,8 C 52 % 64 % 1021,2 hPa 0,0 l/m 0,0 km/h (0 Bft) SO 135 6,4 C 13,0 C 0,0 km/h (0 Bft)
03.06.2023 05:05 19,1 C 13,0 C 14,8 C 52 % 64 % 1021,2 hPa 0,0 l/m 0,0 km/h (0 Bft) SO 135 6,4 C 13,0 C 0,0 km/h (0 Bft)
03.06.2023 05:04 19,1 C 13,0 C 14,8 C 53 % 64 % 1021,2 hPa 0,0 l/m 0,0 km/h (0 Bft) O-SO 112 6,4 C 13,0 C 0,0 km/h (0 Bft)
03.06.2023 05:03 19,1 C 13,0 C 14,8 C 53 % 64 % 1021,2 hPa 0,0 l/m 0,0 km/h (0 Bft) O-SO 112 6,4 C 13,0 C 0,0 km/h (0 Bft)
03.06.2023 05:02 19,1 C 13,0 C 14,6 C 53 % 64 % 1021,2 hPa 0,0 l/m 0,0 km/h (0 Bft) O-SO 112 6,4 C 13,0 C 0,0 km/h (0 Bft)
03.06.2023 05:01 19,1 C 13,0 C 14,6 C 53 % 64 % 1021,2 hPa 0,0 l/m 0,0 km/h (0 Bft) O-SO 112 6,4 C 13,0 C 0,0 km/h (0 Bft)
03.06.2023 05:00 19,1 C 13,0 C 14,6 C 53 % 64 % 1021,2 hPa 0,0 l/m 0,0 km/h (0 Bft) SO 135 6,4 C 13,0 C 0,0 km/h (0 Bft)
03.06.2023 04:59 19,1 C 13,0 C 14,6 C 53 % 64 % 1021,2 hPa 0,0 l/m 0,0 km/h (0 Bft) SO 135 6,4 C 13,0 C 0,0 km/h (0 Bft)
03.06.2023 04:58 19,1 C 13,0 C 14,7 C 53 % 64 % 1021,2 hPa 0,0 l/m 0,2 km/h (0 Bft) O 90 6,4 C 13,0 C 0,0 km/h (0 Bft)
03.06.2023 04:57 19,1 C 13,0 C 14,7 C 53 % 64 % 1021,2 hPa 0,0 l/m 0,2 km/h (0 Bft) O 90 6,4 C 13,0 C 0,0 km/h (0 Bft)
03.06.2023 04:56 19,0 C 12,9 C 14,9 C 53 % 66 % 1021,2 hPa 0,0 l/m 0,0 km/h (0 Bft) O-SO 112 6,7 C 12,9 C 0,0 km/h (0 Bft)
03.06.2023 04:55 19,0 C 12,9 C 14,9 C 53 % 66 % 1021,2 hPa 0,0 l/m 0,0 km/h (0 Bft) O-SO 112 6,7 C 12,9 C 0,0 km/h (0 Bft)
03.06.2023 04:54 19,0 C 12,9 C 14,9 C 53 % 66 % 1021,2 hPa 0,0 l/m 0,0 km/h (0 Bft) O-SO 112 6,7 C 12,9 C 0,0 km/h (0 Bft)
03.06.2023 04:53 19,0 C 12,9 C 14,9 C 53 % 66 % 1021,2 hPa 0,0 l/m 0,0 km/h (0 Bft) O-SO 112 6,7 C 12,9 C 0,0 km/h (0 Bft)
03.06.2023 04:52 19,1 C 12,9 C 14,8 C 53 % 66 % 1020,8 hPa 0,0 l/m 0,0 km/h (0 Bft) O-SO 112 6,7 C 12,9 C 0,0 km/h (0 Bft)
03.06.2023 04:51 19,1 C 12,9 C 14,8 C 53 % 66 % 1020,8 hPa 0,0 l/m 0,0 km/h (0 Bft) O-SO 112 6,7 C 12,9 C 0,0 km/h (0 Bft)
03.06.2023 04:50 19,1 C 12,8 C 14,8 C 53 % 66 % 1020,8 hPa 0,0 l/m 0,0 km/h (0 Bft) O-SO 112 6,6 C 12,8 C 0,0 km/h (0 Bft)
03.06.2023 04:49 19,1 C 12,8 C 14,8 C 53 % 66 % 1020,8 hPa 0,0 l/m 0,0 km/h (0 Bft) O-SO 112 6,6 C 12,8 C 0,0 km/h (0 Bft)
03.06.2023 04:48 19,0 C 12,8 C 14,6 C 53 % 66 % 1020,8 hPa 0,0 l/m 0,0 km/h (0 Bft) O-NO 67 6,6 C 12,8 C 0,0 km/h (0 Bft)
03.06.2023 04:47 19,0 C 12,8 C 14,6 C 53 % 66 % 1020,8 hPa 0,0 l/m 0,0 km/h (0 Bft) O-NO 67 6,6 C 12,8 C 0,0 km/h (0 Bft)
03.06.2023 04:46 19,0 C 12,7 C 14,6 C 53 % 66 % 1020,8 hPa 0,0 l/m 0,0 km/h (0 Bft) O-SO 112 6,5 C 12,7 C 0,0 km/h (0 Bft)
03.06.2023 04:45 19,0 C 12,7 C 14,6 C 53 % 66 % 1020,8 hPa 0,0 l/m 0,0 km/h (0 Bft) O-SO 112 6,5 C 12,7 C 0,0 km/h (0 Bft)
03.06.2023 04:44 19,0 C 12,7 C 14,8 C 54 % 66 % 1020,8 hPa 0,0 l/m 0,0 km/h (0 Bft) O-SO 112 6,5 C 12,7 C 0,0 km/h (0 Bft)
03.06.2023 04:43 19,0 C 12,7 C 14,8 C 54 % 66 % 1020,8 hPa 0,0 l/m 0,0 km/h (0 Bft) O-SO 112 6,5 C 12,7 C 0,0 km/h (0 Bft)
03.06.2023 04:42 19,0 C 12,6 C 14,8 C 54 % 66 % 1020,8 hPa 0,0 l/m 0,0 km/h (0 Bft) O-SO 112 6,4 C 12,6 C 3,6 km/h (1 Bft)
03.06.2023 04:41 19,0 C 12,6 C 14,8 C 54 % 66 % 1020,8 hPa 0,0 l/m 0,0 km/h (0 Bft) O-SO 112 6,4 C 12,6 C 0,0 km/h (0 Bft)
03.06.2023 04:40 18,9 C 12,6 C 14,9 C 54 % 66 % 1020,8 hPa 0,0 l/m 0,0 km/h (0 Bft) O-SO 112 6,4 C 12,6 C 0,0 km/h (0 Bft)
03.06.2023 04:39 18,9 C 12,6 C 14,9 C 54 % 66 % 1020,8 hPa 0,0 l/m 0,0 km/h (0 Bft) O-SO 112 6,4 C 12,6 C 0,0 km/h (0 Bft)
03.06.2023 04:38 18,9 C 12,5 C 15,1 C 54 % 66 % 1020,8 hPa 0,0 l/m 0,0 km/h (0 Bft) O 90 6,3 C 12,5 C 0,0 km/h (0 Bft)
03.06.2023 04:37 18,9 C 12,5 C 15,1 C 54 % 66 % 1020,8 hPa 0,0 l/m 0,0 km/h (0 Bft) O 90 6,3 C 12,5 C 0,0 km/h (0 Bft)
03.06.2023 04:36 18,8 C 12,4 C 15,1 C 54 % 67 % 1020,8 hPa 0,0 l/m 0,0 km/h (0 Bft) O 90 6,4 C 12,4 C 0,0 km/h (0 Bft)
03.06.2023 04:35 18,8 C 12,4 C 15,1 C 54 % 67 % 1020,8 hPa 0,0 l/m 0,0 km/h (0 Bft) O 90 6,4 C 12,4 C 0,0 km/h (0 Bft)
03.06.2023 04:34 18,8 C 12,2 C 15,0 C 54 % 66 % 1020,8 hPa 0,0 l/m 0,0 km/h (0 Bft) O 90 6,0 C 12,2 C 0,0 km/h (0 Bft)
03.06.2023 04:33 18,8 C 12,2 C 15,0 C 54 % 66 % 1020,8 hPa 0,0 l/m 0,0 km/h (0 Bft) O 90 6,0 C 12,2 C 0,0 km/h (0 Bft)
03.06.2023 04:32 18,8 C 12,1 C 15,1 C 54 % 66 % 1021,1 hPa 0,0 l/m 0,0 km/h (0 Bft) O 90 5,9 C 12,1 C 0,0 km/h (0 Bft)
03.06.2023 04:31 18,8 C 12,1 C 15,1 C 54 % 66 % 1021,1 hPa 0,0 l/m 0,0 km/h (0 Bft) O 90 5,9 C 12,1 C 0,0 km/h (0 Bft)
03.06.2023 04:30 18,8 C 12,0 C 14,9 C 54 % 66 % 1021,1 hPa 0,0 l/m 0,0 km/h (0 Bft) O 90 5,8 C 12,0 C 0,0 km/h (0 Bft)
03.06.2023 04:29 18,8 C 12,0 C 14,9 C 54 % 66 % 1021,1 hPa 0,0 l/m 0,0 km/h (0 Bft) O 90 5,8 C 12,0 C 0,0 km/h (0 Bft)
03.06.2023 04:28 18,7 C 11,8 C 15,1 C 54 % 66 % 1021,1 hPa 0,0 l/m 0,0 km/h (0 Bft) S-SO 157 5,7 C 11,8 C 0,0 km/h (0 Bft)
03.06.2023 04:27 18,7 C 11,8 C 15,1 C 54 % 66 % 1021,1 hPa 0,0 l/m 0,0 km/h (0 Bft) S-SO 157 5,7 C 11,8 C 0,0 km/h (0 Bft)
03.06.2023 04:26 18,7 C 11,8 C 15,2 C 54 % 65 % 1021,1 hPa 0,0 l/m 0,0 km/h (0 Bft) SO 135 5,4 C 11,8 C 0,0 km/h (0 Bft)
03.06.2023 04:25 18,7 C 11,8 C 15,2 C 54 % 65 % 1021,1 hPa 0,0 l/m 0,0 km/h (0 Bft) SO 135 5,4 C 11,8 C 0,0 km/h (0 Bft)
03.06.2023 04:24 18,7 C 11,7 C 15,4 C 54 % 65 % 1021,1 hPa 0,0 l/m 0,0 km/h (0 Bft) SO 135 5,3 C 11,7 C 0,0 km/h (0 Bft)
03.06.2023 04:23 18,7 C 11,7 C 15,4 C 54 % 65 % 1021,1 hPa 0,0 l/m 0,0 km/h (0 Bft) SO 135 5,3 C 11,7 C 0,0 km/h (0 Bft)
03.06.2023 04:22 18,8 C 11,7 C 15,3 C 54 % 65 % 1021,1 hPa 0,0 l/m 0,0 km/h (0 Bft) W-NW 292 5,3 C 11,7 C 0,0 km/h (0 Bft)
03.06.2023 04:21 18,8 C 11,7 C 15,3 C 54 % 65 % 1021,1 hPa 0,0 l/m 0,0 km/h (0 Bft) W-NW 292 5,3 C 11,7 C 0,0 km/h (0 Bft)
03.06.2023 04:20 18,8 C 11,8 C 15,3 C 54 % 65 % 1021,1 hPa 0,0 l/m 0,0 km/h (0 Bft) O-SO 112 5,4 C 11,8 C 0,0 km/h (0 Bft)
03.06.2023 04:19 18,8 C 11,8 C 15,3 C 54 % 65 % 1021,1 hPa 0,0 l/m 0,0 km/h (0 Bft) O-SO 112 5,4 C 11,8 C 0,0 km/h (0 Bft)
03.06.2023 04:18 18,8 C 11,8 C 15,4 C 54 % 64 % 1021,1 hPa 0,0 l/m 0,0 km/h (0 Bft) SO 135 5,2 C 11,8 C 0,0 km/h (0 Bft)
03.06.2023 04:17 18,8 C 11,8 C 15,4 C 54 % 64 % 1021,1 hPa 0,0 l/m 0,0 km/h (0 Bft) SO 135 5,2 C 11,8 C 0,0 km/h (0 Bft)
03.06.2023 04:16 18,8 C 11,8 C 15,4 C 54 % 64 % 1021,1 hPa 0,0 l/m 0,0 km/h (0 Bft) S-SO 157 5,2 C 11,8 C 0,0 km/h (0 Bft)
03.06.2023 04:15 18,8 C 11,8 C 15,4 C 54 % 64 % 1021,1 hPa 0,0 l/m 0,0 km/h (0 Bft) S-SO 157 5,2 C 11,8 C 0,0 km/h (0 Bft)
03.06.2023 04:14 18,9 C 11,9 C 15,5 C 54 % 64 % 1021,1 hPa 0,0 l/m 0,0 km/h (0 Bft) O-SO 112 5,3 C 11,9 C 0,0 km/h (0 Bft)
03.06.2023 04:13 18,9 C 11,9 C 15,5 C 54 % 64 % 1021,1 hPa 0,0 l/m 0,0 km/h (0 Bft) O-SO 112 5,3 C 11,9 C 0,0 km/h (0 Bft)
03.06.2023 04:12 18,9 C 11,9 C 15,5 C 54 % 64 % 1021,1 hPa 0,0 l/m 0,0 km/h (0 Bft) SO 135 5,3 C 11,9 C 0,0 km/h (0 Bft)
03.06.2023 04:11 18,9 C 11,9 C 15,5 C 54 % 64 % 1021,1 hPa 0,0 l/m 0,0 km/h (0 Bft) SO 135 5,3 C 11,9 C 0,0 km/h (0 Bft)
03.06.2023 04:10 18,9 C 11,9 C 15,5 C 54 % 64 % 1021,1 hPa 0,0 l/m 0,0 km/h (0 Bft) S 180 5,3 C 11,9 C 0,0 km/h (0 Bft)
03.06.2023 04:09 18,9 C 11,9 C 15,5 C 54 % 64 % 1021,1 hPa 0,0 l/m 0,0 km/h (0 Bft) S 180 5,3 C 11,9 C 0,0 km/h (0 Bft)
03.06.2023 04:08 18,9 C 11,9 C 15,5 C 54 % 63 % 1021,1 hPa 0,0 l/m 0,0 km/h (0 Bft) SO 135 5,1 C 11,9 C 0,0 km/h (0 Bft)
03.06.2023 04:07 18,9 C 11,9 C 15,5 C 54 % 63 % 1021,1 hPa 0,0 l/m 0,0 km/h (0 Bft) SO 135 5,1 C 11,9 C 0,0 km/h (0 Bft)
03.06.2023 04:06 19,0 C 12,0 C 15,5 C 54 % 63 % 1021,1 hPa 0,0 l/m 0,0 km/h (0 Bft) O 90 5,2 C 12,0 C 0,0 km/h (0 Bft)
03.06.2023 04:05 19,0 C 12,0 C 15,5 C 54 % 63 % 1021,1 hPa 0,0 l/m 0,0 km/h (0 Bft) O 90 5,2 C 12,0 C 0,0 km/h (0 Bft)
03.06.2023 04:04 19,0 C 12,0 C 15,6 C 53 % 63 % 1021,1 hPa 0,0 l/m 0,0 km/h (0 Bft) S-SO 157 5,2 C 12,0 C 0,0 km/h (0 Bft)
03.06.2023 04:03 19,0 C 12,0 C 15,6 C 53 % 63 % 1021,1 hPa 0,0 l/m 0,0 km/h (0 Bft) S-SO 157 5,2 C 12,0 C 0,0 km/h (0 Bft)
03.06.2023 04:02 19,0 C 12,1 C 15,6 C 53 % 63 % 1021,1 hPa 0,0 l/m 0,0 km/h (0 Bft) S-SO 157 5,3 C 12,1 C 0,0 km/h (0 Bft)
03.06.2023 04:01 19,0 C 12,1 C 15,6 C 53 % 63 % 1021,1 hPa 0,0 l/m 0,0 km/h (0 Bft) S-SO 157 5,3 C 12,1 C 0,0 km/h (0 Bft)
03.06.2023 04:00 19,1 C 12,1 C 15,6 C 53 % 63 % 1021,1 hPa 0,0 l/m 0,0 km/h (0 Bft) S-SO 157 5,3 C 12,1 C 0,0 km/h (0 Bft)
03.06.2023 03:59 19,1 C 12,1 C 15,6 C 53 % 63 % 1021,1 hPa 0,0 l/m 0,0 km/h (0 Bft) S-SO 157 5,3 C 12,1 C 0,0 km/h (0 Bft)
03.06.2023 03:58 19,1 C 12,2 C 15,6 C 53 % 63 % 1021,1 hPa 0,0 l/m 0,0 km/h (0 Bft) SO 135 5,4 C 12,2 C 0,0 km/h (0 Bft)
03.06.2023 03:57 19,1 C 12,2 C 15,6 C 53 % 63 % 1021,1 hPa 0,0 l/m 0,0 km/h (0 Bft) SO 135 5,4 C 12,2 C 0,0 km/h (0 Bft)
03.06.2023 03:56 19,2 C 12,2 C 15,6 C 53 % 63 % 1021,1 hPa 0,0 l/m 0,0 km/h (0 Bft) O-NO 67 5,4 C 12,2 C 0,0 km/h (0 Bft)
03.06.2023 03:55 19,2 C 12,2 C 15,6 C 53 % 63 % 1021,1 hPa 0,0 l/m 0,0 km/h (0 Bft) O-NO 67 5,4 C 12,2 C 0,0 km/h (0 Bft)
03.06.2023 03:54 19,2 C 12,3 C 15,6 C 53 % 63 % 1021,1 hPa 0,0 l/m 0,0 km/h (0 Bft) S-SW 202 5,5 C 12,3 C 0,0 km/h (0 Bft)
03.06.2023 03:53 19,2 C 12,3 C 15,6 C 53 % 63 % 1021,1 hPa 0,0 l/m 0,0 km/h (0 Bft) S-SW 202 5,5 C 12,3 C 0,0 km/h (0 Bft)
03.06.2023 03:52 19,2 C 12,3 C 15,7 C 53 % 63 % 1021,9 hPa 0,0 l/m 0,0 km/h (0 Bft) SO 135 5,5 C 12,3 C 0,0 km/h (0 Bft)
03.06.2023 03:51 19,2 C 12,3 C 15,7 C 53 % 63 % 1021,9 hPa 0,0 l/m 0,0 km/h (0 Bft) SO 135 5,5 C 12,3 C 0,0 km/h (0 Bft)
03.06.2023 03:50 19,2 C 12,4 C 15,8 C 53 % 63 % 1021,9 hPa 0,0 l/m 0,0 km/h (0 Bft) SO 135 5,6 C 12,4 C 0,0 km/h (0 Bft)
03.06.2023 03:49 19,2 C 12,4 C 15,8 C 53 % 63 % 1021,9 hPa 0,0 l/m 0,0 km/h (0 Bft) SO 135 5,6 C 12,4 C 0,0 km/h (0 Bft)
03.06.2023 03:48 19,2 C 12,4 C 15,8 C 53 % 63 % 1021,9 hPa 0,0 l/m 0,0 km/h (0 Bft) S-SO 157 5,6 C 12,4 C 0,0 km/h (0 Bft)
03.06.2023 03:47 19,2 C 12,4 C 15,8 C 53 % 63 % 1021,9 hPa 0,0 l/m 0,0 km/h (0 Bft) S-SO 157 5,6 C 12,4 C 0,0 km/h (0 Bft)
03.06.2023 03:46 19,2 C 12,5 C 15,8 C 52 % 62 % 1021,9 hPa 0,0 l/m 0,0 km/h (0 Bft) S-SO 157 5,4 C 12,5 C 0,0 km/h (0 Bft)
03.06.2023 03:45 19,2 C 12,5 C 15,8 C 52 % 62 % 1021,9 hPa 0,0 l/m 0,0 km/h (0 Bft) S-SO 157 5,4 C 12,5 C 0,0 km/h (0 Bft)
03.06.2023 03:44 19,4 C 12,5 C 15,8 C 52 % 62 % 1021,9 hPa 0,0 l/m 0,0 km/h (0 Bft) SO 135 5,4 C 12,5 C 0,0 km/h (0 Bft)
03.06.2023 03:43 19,4 C 12,5 C 15,8 C 52 % 62 % 1021,9 hPa 0,0 l/m 0,0 km/h (0 Bft) SO 135 5,4 C 12,5 C 0,0 km/h (0 Bft)
03.06.2023 03:42 19,5 C 12,6 C 15,8 C 52 % 62 % 1021,9 hPa 0,0 l/m 0,0 km/h (0 Bft) S-SO 157 5,5 C 12,6 C 0,0 km/h (0 Bft)
03.06.2023 03:41 19,5 C 12,6 C 15,8 C 52 % 62 % 1021,9 hPa 0,0 l/m 0,0 km/h (0 Bft) S-SO 157 5,5 C 12,6 C 0,0 km/h (0 Bft)
03.06.2023 03:40 19,5 C 12,6 C 15,9 C 52 % 62 % 1021,9 hPa 0,0 l/m 0,0 km/h (0 Bft) S-SO 157 5,5 C 12,6 C 0,0 km/h (0 Bft)
03.06.2023 03:39 19,5 C 12,6 C 15,9 C 52 % 62 % 1021,9 hPa 0,0 l/m 0,0 km/h (0 Bft) S-SO 157 5,5 C 12,6 C 0,0 km/h (0 Bft)
03.06.2023 03:38 19,6 C 12,7 C 15,8 C 52 % 62 % 1021,9 hPa 0,0 l/m 0,0 km/h (0 Bft) S-SO 157 5,6 C 12,7 C 0,0 km/h (0 Bft)
03.06.2023 03:37 19,6 C 12,7 C 15,8 C 52 % 62 % 1021,9 hPa 0,0 l/m 0,0 km/h (0 Bft) S-SO 157 5,6 C 12,7 C 0,0 km/h (0 Bft)
03.06.2023 03:36 19,6 C 12,8 C 15,9 C 52 % 62 % 1021,9 hPa 0,0 l/m 0,0 km/h (0 Bft) SO 135 5,7 C 12,8 C 0,0 km/h (0 Bft)
03.06.2023 03:35 19,6 C 12,8 C 15,9 C 52 % 62 % 1021,9 hPa 0,0 l/m 0,0 km/h (0 Bft) SO 135 5,7 C 12,8 C 0,0 km/h (0 Bft)
03.06.2023 03:34 19,6 C 12,8 C 16,0 C 52 % 62 % 1021,9 hPa 0,0 l/m 0,0 km/h (0 Bft) SO 135 5,7 C 12,8 C 0,0 km/h (0 Bft)
03.06.2023 03:33 19,6 C 12,8 C 16,0 C 52 % 62 % 1021,9 hPa 0,0 l/m 0,0 km/h (0 Bft) SO 135 5,7 C 12,8 C 0,0 km/h (0 Bft)
03.06.2023 03:32 19,7 C 12,9 C 16,0 C 52 % 62 % 1021,8 hPa 0,0 l/m 0,0 km/h (0 Bft) S-SO 157 5,8 C 12,9 C 0,0 km/h (0 Bft)
03.06.2023 03:31 19,7 C 12,9 C 16,0 C 52 % 62 % 1021,8 hPa 0,0 l/m 0,0 km/h (0 Bft) S-SO 157 5,8 C 12,9 C 0,0 km/h (0 Bft)
03.06.2023 03:30 19,7 C 12,9 C 16,0 C 52 % 62 % 1021,8 hPa 0,0 l/m 0,0 km/h (0 Bft) N 360 5,8 C 12,9 C 0,0 km/h (0 Bft)
03.06.2023 03:29 19,7 C 12,9 C 16,0 C 52 % 62 % 1021,8 hPa 0,0 l/m 0,0 km/h (0 Bft) N 360 5,8 C 12,9 C 0,0 km/h (0 Bft)
03.06.2023 03:28 19,8 C 13,0 C 16,0 C 51 % 61 % 1021,8 hPa 0,0 l/m 0,0 km/h (0 Bft) SO 135 5,7 C 13,0 C 0,0 km/h (0 Bft)
03.06.2023 03:27 19,8 C 13,0 C 16,0 C 51 % 61 % 1021,8 hPa 0,0 l/m 0,0 km/h (0 Bft) SO 135 5,7 C 13,0 C 0,0 km/h (0 Bft)
03.06.2023 03:26 19,8 C 13,1 C 16,0 C 51 % 61 % 1021,8 hPa 0,0 l/m 0,0 km/h (0 Bft) O-SO 112 5,8 C 13,1 C 0,0 km/h (0 Bft)
03.06.2023 03:25 19,8 C 13,1 C 16,0 C 51 % 61 % 1021,8 hPa 0,0 l/m 0,0 km/h (0 Bft) O-SO 112 5,8 C 13,1 C 0,0 km/h (0 Bft)
03.06.2023 03:24 19,8 C 13,1 C 16,2 C 51 % 60 % 1021,8 hPa 0,0 l/m 0,0 km/h (0 Bft) O-SO 112 5,5 C 13,1 C 0,0 km/h (0 Bft)
03.06.2023 03:23 19,8 C 13,1 C 16,2 C 51 % 60 % 1021,8 hPa 0,0 l/m 0,0 km/h (0 Bft) O-SO 112 5,5 C 13,1 C 0,0 km/h (0 Bft)
03.06.2023 03:22 19,9 C 13,2 C 16,2 C 51 % 60 % 1021,8 hPa 0,0 l/m 0,0 km/h (0 Bft) SO 135 5,6 C 13,2 C 0,0 km/h (0 Bft)
03.06.2023 03:21 19,9 C 13,2 C 16,2 C 51 % 60 % 1021,8 hPa 0,0 l/m 0,0 km/h (0 Bft) SO 135 5,6 C 13,2 C 0,0 km/h (0 Bft)
03.06.2023 03:20 19,9 C 13,3 C 16,2 C 51 % 60 % 1021,8 hPa 0,0 l/m 0,0 km/h (0 Bft) SO 135 5,7 C 13,3 C 0,0 km/h (0 Bft)
03.06.2023 03:19 19,9 C 13,3 C 16,2 C 51 % 60 % 1021,8 hPa 0,0 l/m 0,0 km/h (0 Bft) SO 135 5,7 C 13,3 C 0,0 km/h (0 Bft)
03.06.2023 03:18 20,0 C 13,3 C 16,2 C 51 % 60 % 1021,8 hPa 0,0 l/m 0,0 km/h (0 Bft) S-SO 157 5,7 C 13,3 C 0,0 km/h (0 Bft)
03.06.2023 03:17 20,0 C 13,3 C 16,2 C 51 % 60 % 1021,8 hPa 0,0 l/m 0,0 km/h (0 Bft) S-SO 157 5,7 C 13,3 C 0,0 km/h (0 Bft)
03.06.2023 03:16 20,0 C 13,4 C 16,2 C 51 % 60 % 1021,8 hPa 0,0 l/m 0,0 km/h (0 Bft) SO 135 5,8 C 13,4 C 0,0 km/h (0 Bft)
03.06.2023 03:15 20,0 C 13,4 C 16,2 C 51 % 60 % 1021,8 hPa 0,0 l/m 0,0 km/h (0 Bft) SO 135 5,8 C 13,4 C 0,0 km/h (0 Bft)
03.06.2023 03:14 20,1 C 13,5 C 16,3 C 51 % 60 % 1021,8 hPa 0,0 l/m 0,0 km/h (0 Bft) S-SO 157 5,9 C 13,5 C 0,0 km/h (0 Bft)
03.06.2023 03:13 20,1 C 13,5 C 16,3 C 51 % 60 % 1021,8 hPa 0,0 l/m 0,0 km/h (0 Bft) S-SO 157 5,9 C 13,5 C 0,0 km/h (0 Bft)
03.06.2023 03:12 20,1 C 13,5 C 16,4 C 50 % 60 % 1021,7 hPa 0,0 l/m 0,0 km/h (0 Bft) O-SO 112 5,9 C 13,5 C 0,0 km/h (0 Bft)
03.06.2023 03:11 20,1 C 13,5 C 16,4 C 50 % 60 % 1021,7 hPa 0,0 l/m 0,0 km/h (0 Bft) O-SO 112 5,9 C 13,5 C 0,0 km/h (0 Bft)
03.06.2023 03:10 20,2 C 13,6 C 16,4 C 50 % 60 % 1021,7 hPa 0,0 l/m 0,0 km/h (0 Bft) SO 135 6,0 C 13,6 C 0,0 km/h (0 Bft)
03.06.2023 03:09 20,2 C 13,6 C 16,4 C 50 % 60 % 1021,7 hPa 0,0 l/m 0,0 km/h (0 Bft) SO 135 6,0 C 13,6 C 0,0 km/h (0 Bft)
03.06.2023 03:08 20,2 C 13,7 C 16,3 C 50 % 59 % 1021,7 hPa 0,0 l/m 0,0 km/h (0 Bft) O-SO 112 5,8 C 13,7 C 0,0 km/h (0 Bft)
03.06.2023 03:07 20,2 C 13,7 C 16,3 C 50 % 59 % 1021,7 hPa 0,0 l/m 0,0 km/h (0 Bft) O-SO 112 5,8 C 13,7 C 0,0 km/h (0 Bft)
03.06.2023 03:06 20,3 C 13,8 C 16,3 C 50 % 59 % 1021,7 hPa 0,0 l/m 0,0 km/h (0 Bft) SO 135 5,9 C 13,8 C 0,0 km/h (0 Bft)
03.06.2023 03:05 20,3 C 13,8 C 16,3 C 50 % 59 % 1021,7 hPa 0,0 l/m 0,0 km/h (0 Bft) SO 135 5,9 C 13,8 C 0,0 km/h (0 Bft)
03.06.2023 03:04 20,2 C 13,9 C 16,4 C 50 % 59 % 1021,7 hPa 0,0 l/m 0,0 km/h (0 Bft) S-SO 157 6,0 C 13,9 C 0,0 km/h (0 Bft)
03.06.2023 03:03 20,2 C 13,9 C 16,4 C 50 % 59 % 1021,7 hPa 0,0 l/m 0,0 km/h (0 Bft) S-SO 157 6,0 C 13,9 C 0,0 km/h (0 Bft)
03.06.2023 03:02 20,4 C 13,9 C 16,4 C 50 % 59 % 1021,7 hPa 0,0 l/m 0,0 km/h (0 Bft) O-NO 67 6,0 C 13,9 C 0,0 km/h (0 Bft)
03.06.2023 03:01 20,4 C 13,9 C 16,4 C 50 % 59 % 1021,7 hPa 0,0 l/m 0,0 km/h (0 Bft) O-NO 67 6,0 C 13,9 C 0,0 km/h (0 Bft)
03.06.2023 03:00 20,4 C 14,0 C 16,4 C 49 % 59 % 1021,7 hPa 0,0 l/m 0,0 km/h (0 Bft) N-NW 337 6,1 C 14,0 C 0,0 km/h (0 Bft)
03.06.2023 02:59 20,4 C 14,0 C 16,4 C 49 % 59 % 1021,7 hPa 0,0 l/m 0,0 km/h (0 Bft) N-NW 337 6,1 C 14,0 C 0,0 km/h (0 Bft)
03.06.2023 02:58 20,4 C 14,1 C 16,4 C 49 % 59 % 1021,7 hPa 0,0 l/m 0,0 km/h (0 Bft) N-NO 22 6,2 C 14,1 C 0,0 km/h (0 Bft)
03.06.2023 02:57 20,4 C 14,1 C 16,4 C 49 % 59 % 1021,7 hPa 0,0 l/m 0,0 km/h (0 Bft) N-NO 22 6,2 C 14,1 C 0,0 km/h (0 Bft)
03.06.2023 02:56 20,5 C 14,2 C 16,5 C 49 % 59 % 1021,7 hPa 0,0 l/m 0,0 km/h (0 Bft) O-NO 67 6,3 C 14,2 C 0,0 km/h (0 Bft)
03.06.2023 02:55 20,5 C 14,2 C 16,5 C 49 % 59 % 1021,7 hPa 0,0 l/m 0,0 km/h (0 Bft) O-NO 67 6,3 C 14,2 C 0,0 km/h (0 Bft)
03.06.2023 02:54 20,5 C 14,2 C 16,5 C 50 % 59 % 1021,7 hPa 0,0 l/m 0,0 km/h (0 Bft) SO 135 6,3 C 14,2 C 0,0 km/h (0 Bft)
03.06.2023 02:53 20,5 C 14,2 C 16,5 C 50 % 59 % 1021,7 hPa 0,0 l/m 0,0 km/h (0 Bft) SO 135 6,3 C 14,2 C 0,0 km/h (0 Bft)
03.06.2023 02:52 20,5 C 14,3 C 16,5 C 50 % 59 % 1021,7 hPa 0,0 l/m 0,0 km/h (0 Bft) S-SO 157 6,4 C 14,3 C 0,0 km/h (0 Bft)
03.06.2023 02:51 20,5 C 14,3 C 16,5 C 50 % 59 % 1021,7 hPa 0,0 l/m 0,0 km/h (0 Bft) S-SO 157 6,4 C 14,3 C 0,0 km/h (0 Bft)
03.06.2023 02:50 20,5 C 14,3 C 16,5 C 50 % 58 % 1021,7 hPa 0,0 l/m 0,0 km/h (0 Bft) N-NW 337 6,2 C 14,3 C 0,0 km/h (0 Bft)
03.06.2023 02:49 20,5 C 14,3 C 16,5 C 50 % 58 % 1021,7 hPa 0,0 l/m 0,0 km/h (0 Bft) N-NW 337 6,2 C 14,3 C 0,0 km/h (0 Bft)
03.06.2023 02:48 20,5 C 14,4 C 16,6 C 50 % 58 % 1021,7 hPa 0,0 l/m 0,0 km/h (0 Bft) N-NW 337 6,2 C 14,4 C 0,0 km/h (0 Bft)
03.06.2023 02:47 20,5 C 14,4 C 16,6 C 50 % 58 % 1021,7 hPa 0,0 l/m 0,0 km/h (0 Bft) N-NW 337 6,2 C 14,4 C 0,0 km/h (0 Bft)
03.06.2023 02:46 20,5 C 14,5 C 16,6 C 50 % 58 % 1021,7 hPa 0,0 l/m 0,0 km/h (0 Bft) NO 45 6,3 C 14,5 C 0,0 km/h (0 Bft)
03.06.2023 02:45 20,5 C 14,5 C 16,6 C 50 % 58 % 1021,7 hPa 0,0 l/m 0,0 km/h (0 Bft) NO 45 6,3 C 14,5 C 0,0 km/h (0 Bft)
03.06.2023 02:44 20,5 C 14,5 C 16,5 C 50 % 58 % 1021,7 hPa 0,0 l/m 0,0 km/h (0 Bft) W-NW 292 6,3 C 14,5 C 0,0 km/h (0 Bft)
03.06.2023 02:43 20,5 C 14,5 C 16,5 C 50 % 58 % 1021,7 hPa 0,0 l/m 0,0 km/h (0 Bft) W-NW 292 6,3 C 14,5 C 0,0 km/h (0 Bft)
03.06.2023 02:42 20,5 C 14,6 C 16,3 C 50 % 58 % 1021,7 hPa 0,0 l/m 0,0 km/h (0 Bft) NO 45 6,4 C 14,6 C 0,0 km/h (0 Bft)
03.06.2023 02:41 20,5 C 14,6 C 16,3 C 50 % 58 % 1021,7 hPa 0,0 l/m 0,0 km/h (0 Bft) NO 45 6,4 C 14,6 C 0,0 km/h (0 Bft)
03.06.2023 02:40 20,6 C 14,7 C 16,2 C 50 % 58 % 1021,7 hPa 0,0 l/m 0,0 km/h (0 Bft) N 360 6,5 C 14,7 C 0,0 km/h (0 Bft)
03.06.2023 02:39 20,6 C 14,7 C 16,2 C 50 % 58 % 1021,7 hPa 0,0 l/m 0,0 km/h (0 Bft) N 360 6,5 C 14,7 C 0,0 km/h (0 Bft)
03.06.2023 02:38 20,6 C 14,8 C 16,0 C 50 % 58 % 1021,7 hPa 0,0 l/m 0,0 km/h (0 Bft) O-NO 67 6,6 C 14,8 C 0,0 km/h (0 Bft)
03.06.2023 02:37 20,6 C 14,8 C 16,0 C 50 % 58 % 1021,7 hPa 0,0 l/m 0,0 km/h (0 Bft) O-NO 67 6,6 C 14,8 C 0,0 km/h (0 Bft)
03.06.2023 02:36 20,6 C 14,8 C 16,1 C 50 % 58 % 1021,7 hPa 0,0 l/m 0,0 km/h (0 Bft) N-NW 337 6,6 C 14,8 C 0,0 km/h (0 Bft)
03.06.2023 02:35 20,6 C 14,8 C 16,1 C 50 % 58 % 1021,7 hPa 0,0 l/m 0,0 km/h (0 Bft) N-NW 337 6,6 C 14,8 C 0,0 km/h (0 Bft)
03.06.2023 02:34 20,6 C 14,9 C 16,1 C 49 % 58 % 1021,7 hPa 0,0 l/m 0,0 km/h (0 Bft) N-NW 337 6,7 C 14,9 C 0,0 km/h (0 Bft)
03.06.2023 02:33 20,6 C 14,9 C 16,1 C 49 % 58 % 1021,7 hPa 0,0 l/m 0,0 km/h (0 Bft) N-NW 337 6,7 C 14,9 C 0,0 km/h (0 Bft)
03.06.2023 02:32 20,6 C 14,9 C 16,0 C 49 % 57 % 1021,8 hPa 0,0 l/m 0,0 km/h (0 Bft) O-NO 67 6,5 C 14,9 C 0,0 km/h (0 Bft)
03.06.2023 02:31 20,6 C 14,9 C 16,0 C 49 % 57 % 1021,8 hPa 0,0 l/m 0,0 km/h (0 Bft) O-NO 67 6,5 C 14,9 C 0,0 km/h (0 Bft)
03.06.2023 02:30 20,6 C 15,0 C 16,1 C 49 % 57 % 1021,8 hPa 0,0 l/m 0,0 km/h (0 Bft) S 180 6,6 C 15,0 C 0,0 km/h (0 Bft)
03.06.2023 02:29 20,6 C 15,0 C 16,1 C 49 % 57 % 1021,8 hPa 0,0 l/m 0,0 km/h (0 Bft) S 180 6,6 C 15,0 C 0,0 km/h (0 Bft)
03.06.2023 02:28 20,6 C 15,0 C 16,2 C 49 % 57 % 1021,8 hPa 0,0 l/m 0,0 km/h (0 Bft) NO 45 6,6 C 15,0 C 0,0 km/h (0 Bft)
03.06.2023 02:27 20,6 C 15,0 C 16,2 C 49 % 57 % 1021,8 hPa 0,0 l/m 0,0 km/h (0 Bft) NO 45 6,6 C 15,0 C 0,0 km/h (0 Bft)
03.06.2023 02:26 20,6 C 15,1 C 16,2 C 49 % 57 % 1021,8 hPa 0,0 l/m 0,0 km/h (0 Bft) N-NW 337 6,6 C 15,1 C 0,0 km/h (0 Bft)
03.06.2023 02:25 20,6 C 15,1 C 16,2 C 49 % 57 % 1021,8 hPa 0,0 l/m 0,0 km/h (0 Bft) N-NW 337 6,6 C 15,1 C 0,0 km/h (0 Bft)
03.06.2023 02:24 20,6 C 15,1 C 16,4 C 49 % 57 % 1021,8 hPa 0,0 l/m 0,0 km/h (0 Bft) N-NO 22 6,6 C 15,1 C 0,0 km/h (0 Bft)
03.06.2023 02:23 20,6 C 15,1 C 16,4 C 49 % 57 % 1021,8 hPa 0,0 l/m 0,0 km/h (0 Bft) N-NO 22 6,6 C 15,1 C 0,0 km/h (0 Bft)
03.06.2023 02:22 20,6 C 15,2 C 16,3 C 49 % 57 % 1021,8 hPa 0,0 l/m 0,0 km/h (0 Bft) NO 45 6,7 C 15,2 C 0,0 km/h (0 Bft)
03.06.2023 02:21 20,6 C 15,2 C 16,3 C 49 % 57 % 1021,8 hPa 0,0 l/m 0,0 km/h (0 Bft) NO 45 6,7 C 15,2 C 0,0 km/h (0 Bft)
03.06.2023 02:20 20,7 C 15,2 C 16,5 C 49 % 57 % 1021,8 hPa 0,0 l/m 0,0 km/h (0 Bft) O 90 6,7 C 15,2 C 0,0 km/h (0 Bft)
03.06.2023 02:19 20,7 C 15,2 C 16,5 C 49 % 57 % 1021,8 hPa 0,0 l/m 0,0 km/h (0 Bft) O 90 6,7 C 15,2 C 0,0 km/h (0 Bft)
03.06.2023 02:18 20,7 C 15,2 C 16,4 C 49 % 57 % 1021,8 hPa 0,0 l/m 0,0 km/h (0 Bft) NO 45 6,7 C 15,2 C 0,0 km/h (0 Bft)
03.06.2023 02:17 20,7 C 15,2 C 16,4 C 49 % 57 % 1021,8 hPa 0,0 l/m 0,0 km/h (0 Bft) NO 45 6,7 C 15,2 C 0,0 km/h (0 Bft)
03.06.2023 02:16 20,7 C 15,3 C 16,4 C 49 % 57 % 1021,8 hPa 0,0 l/m 0,0 km/h (0 Bft) N-NO 22 6,8 C 15,3 C 0,0 km/h (0 Bft)
03.06.2023 02:15 20,7 C 15,3 C 16,4 C 49 % 57 % 1021,8 hPa 0,0 l/m 0,0 km/h (0 Bft) N-NO 22 6,8 C 15,3 C 0,0 km/h (0 Bft)
03.06.2023 02:14 20,7 C 15,3 C 16,6 C 49 % 57 % 1021,8 hPa 0,0 l/m 0,0 km/h (0 Bft) O-NO 67 6,8 C 15,3 C 0,0 km/h (0 Bft)
03.06.2023 02:13 20,7 C 15,3 C 16,6 C 49 % 57 % 1021,8 hPa 0,0 l/m 0,0 km/h (0 Bft) O-NO 67 6,8 C 15,3 C 0,0 km/h (0 Bft)
03.06.2023 02:12 20,7 C 15,4 C 16,7 C 50 % 57 % 1021,7 hPa 0,0 l/m 0,0 km/h (0 Bft) N 360 6,9 C 15,4 C 0,0 km/h (0 Bft)
03.06.2023 02:11 20,7 C 15,4 C 16,7 C 50 % 57 % 1021,7 hPa 0,0 l/m 0,0 km/h (0 Bft) N 360 6,9 C 15,4 C 0,0 km/h (0 Bft)
03.06.2023 02:10 20,7 C 15,4 C 16,6 C 49 % 56 % 1021,7 hPa 0,0 l/m 0,0 km/h (0 Bft) O 90 6,7 C 15,4 C 0,0 km/h (0 Bft)
03.06.2023 02:09 20,7 C 15,4 C 16,6 C 49 % 56 % 1021,7 hPa 0,0 l/m 0,0 km/h (0 Bft) O 90 6,7 C 15,4 C 0,0 km/h (0 Bft)
03.06.2023 02:08 20,7 C 15,4 C 16,6 C 49 % 56 % 1021,7 hPa 0,0 l/m 0,0 km/h (0 Bft) NW 315 6,7 C 15,4 C 0,0 km/h (0 Bft)
03.06.2023 02:07 20,7 C 15,4 C 16,6 C 49 % 56 % 1021,7 hPa 0,0 l/m 0,0 km/h (0 Bft) NW 315 6,7 C 15,4 C 0,0 km/h (0 Bft)
03.06.2023 02:06 20,7 C 15,5 C 16,8 C 49 % 56 % 1021,7 hPa 0,0 l/m 0,0 km/h (0 Bft) N 360 6,8 C 15,5 C 0,0 km/h (0 Bft)
03.06.2023 02:05 20,7 C 15,5 C 16,8 C 49 % 56 % 1021,7 hPa 0,0 l/m 0,0 km/h (0 Bft) N 360 6,8 C 15,5 C 0,0 km/h (0 Bft)
03.06.2023 02:04 20,7 C 15,5 C 16,9 C 49 % 56 % 1021,7 hPa 0,0 l/m 0,0 km/h (0 Bft) N 360 6,8 C 15,5 C 0,0 km/h (0 Bft)
03.06.2023 02:03 20,7 C 15,5 C 16,9 C 49 % 56 % 1021,7 hPa 0,0 l/m 0,0 km/h (0 Bft) N 360 6,8 C 15,5 C 0,0 km/h (0 Bft)
03.06.2023 02:02 20,7 C 15,5 C 16,8 C 49 % 56 % 1021,7 hPa 0,0 l/m 0,0 km/h (0 Bft) NO 45 6,8 C 15,5 C 0,0 km/h (0 Bft)
03.06.2023 02:01 20,7 C 15,5 C 16,8 C 49 % 56 % 1021,7 hPa 0,0 l/m 0,0 km/h (0 Bft) NO 45 6,8 C 15,5 C 0,0 km/h (0 Bft)
03.06.2023 02:00 20,7 C 15,6 C 16,9 C 49 % 56 % 1021,7 hPa 0,0 l/m 0,0 km/h (0 Bft) N 360 6,9 C 15,6 C 0,0 km/h (0 Bft)
03.06.2023 01:59 20,7 C 15,6 C 16,9 C 49 % 56 % 1021,7 hPa 0,0 l/m 0,0 km/h (0 Bft) N 360 6,9 C 15,6 C 0,0 km/h (0 Bft)
03.06.2023 01:58 20,7 C 15,6 C 16,8 C 49 % 56 % 1021,7 hPa 0,0 l/m 0,0 km/h (0 Bft) N-NO 22 6,9 C 15,6 C 0,0 km/h (0 Bft)
03.06.2023 01:57 20,7 C 15,6 C 16,8 C 49 % 56 % 1021,7 hPa 0,0 l/m 0,0 km/h (0 Bft) N-NO 22 6,9 C 15,6 C 0,0 km/h (0 Bft)
03.06.2023 01:56 20,7 C 15,6 C 16,7 C 49 % 56 % 1021,7 hPa 0,0 l/m 0,0 km/h (0 Bft) O-SO 112 6,9 C 15,6 C 0,0 km/h (0 Bft)
03.06.2023 01:55 20,7 C 15,6 C 16,7 C 49 % 56 % 1021,7 hPa 0,0 l/m 0,0 km/h (0 Bft) O-SO 112 6,9 C 15,6 C 0,0 km/h (0 Bft)
03.06.2023 01:54 20,7 C 15,6 C 16,9 C 49 % 56 % 1021,7 hPa 0,0 l/m 0,0 km/h (0 Bft) O-SO 112 6,9 C 15,6 C 0,0 km/h (0 Bft)
03.06.2023 01:53 20,7 C 15,6 C 16,9 C 49 % 56 % 1021,7 hPa 0,0 l/m 0,0 km/h (0 Bft) O-SO 112 6,9 C 15,6 C 0,0 km/h (0 Bft)
03.06.2023 01:52 20,7 C 15,6 C 16,9 C 49 % 56 % 1021,6 hPa 0,0 l/m 0,0 km/h (0 Bft) O-NO 67 6,9 C 15,6 C 0,0 km/h (0 Bft)
03.06.2023 01:51 20,7 C 15,6 C 16,9 C 49 % 56 % 1021,6 hPa 0,0 l/m 0,0 km/h (0 Bft) O-NO 67 6,9 C 15,6 C 0,0 km/h (0 Bft)
03.06.2023 01:50 20,7 C 15,6 C 16,8 C 49 % 56 % 1021,6 hPa 0,0 l/m 0,0 km/h (0 Bft) O 90 6,9 C 15,6 C 0,0 km/h (0 Bft)
03.06.2023 01:49 20,7 C 15,6 C 16,8 C 49 % 56 % 1021,6 hPa 0,0 l/m 0,0 km/h (0 Bft) O 90 6,9 C 15,6 C 0,0 km/h (0 Bft)
03.06.2023 01:48 20,7 C 15,7 C 17,0 C 49 % 55 % 1021,6 hPa 0,0 l/m 0,0 km/h (0 Bft) O 90 6,7 C 15,7 C 0,0 km/h (0 Bft)
03.06.2023 01:47 20,7 C 15,7 C 17,0 C 49 % 55 % 1021,6 hPa 0,0 l/m 0,0 km/h (0 Bft) O 90 6,7 C 15,7 C 0,0 km/h (0 Bft)
03.06.2023 01:46 20,8 C 15,7 C 16,9 C 49 % 55 % 1021,6 hPa 0,0 l/m 0,0 km/h (0 Bft) NO 45 6,7 C 15,7 C 0,0 km/h (0 Bft)
03.06.2023 01:45 20,8 C 15,7 C 16,9 C 49 % 55 % 1021,6 hPa 0,0 l/m 0,0 km/h (0 Bft) NO 45 6,7 C 15,7 C 0,0 km/h (0 Bft)
03.06.2023 01:44 20,8 C 15,8 C 17,0 C 49 % 55 % 1021,6 hPa 0,0 l/m 0,0 km/h (0 Bft) O 90 6,8 C 15,8 C 0,0 km/h (0 Bft)
03.06.2023 01:43 20,8 C 15,8 C 17,0 C 49 % 55 % 1021,6 hPa 0,0 l/m 0,0 km/h (0 Bft) O 90 6,8 C 15,8 C 0,0 km/h (0 Bft)
03.06.2023 01:42 20,7 C 15,8 C 17,2 C 49 % 55 % 1021,6 hPa 0,0 l/m 0,0 km/h (0 Bft) S-SO 157 6,8 C 15,8 C 0,0 km/h (0 Bft)
03.06.2023 01:41 20,7 C 15,8 C 17,2 C 49 % 55 % 1021,6 hPa 0,0 l/m 0,0 km/h (0 Bft) S-SO 157 6,8 C 15,8 C 0,0 km/h (0 Bft)
03.06.2023 01:40 20,8 C 15,9 C 17,1 C 49 % 55 % 1021,6 hPa 0,0 l/m 0,0 km/h (0 Bft) O-SO 112 6,9 C 15,9 C 0,0 km/h (0 Bft)
03.06.2023 01:39 20,8 C 15,9 C 17,1 C 49 % 55 % 1021,6 hPa 0,0 l/m 0,0 km/h (0 Bft) O-SO 112 6,9 C 15,9 C 0,0 km/h (0 Bft)
03.06.2023 01:38 20,8 C 15,9 C 17,1 C 49 % 55 % 1021,6 hPa 0,0 l/m 0,0 km/h (0 Bft) S-SO 157 6,9 C 15,9 C 0,0 km/h (0 Bft)
03.06.2023 01:37 20,8 C 15,9 C 17,1 C 49 % 55 % 1021,6 hPa 0,0 l/m 0,0 km/h (0 Bft) S-SO 157 6,9 C 15,9 C 0,0 km/h (0 Bft)
03.06.2023 01:36 20,8 C 15,9 C 17,2 C 49 % 55 % 1021,6 hPa 0,0 l/m 0,0 km/h (0 Bft) N-NO 22 6,9 C 15,9 C 0,0 km/h (0 Bft)
03.06.2023 01:35 20,8 C 15,9 C 17,2 C 49 % 55 % 1021,6 hPa 0,0 l/m 0,0 km/h (0 Bft) N-NO 22 6,9 C 15,9 C 0,0 km/h (0 Bft)
03.06.2023 01:34 20,8 C 15,9 C 17,2 C 49 % 55 % 1021,6 hPa 0,0 l/m 0,0 km/h (0 Bft) S-SO 157 6,9 C 15,9 C 0,0 km/h (0 Bft)
03.06.2023 01:33 20,8 C 15,9 C 17,2 C 49 % 55 % 1021,6 hPa 0,0 l/m 0,0 km/h (0 Bft) S-SO 157 6,9 C 15,9 C 0,0 km/h (0 Bft)
03.06.2023 01:32 20,8 C 15,9 C 17,2 C 49 % 55 % 1021,9 hPa 0,0 l/m 0,0 km/h (0 Bft) N-NO 22 6,9 C 15,9 C 0,0 km/h (0 Bft)
03.06.2023 01:31 20,8 C 15,9 C 17,2 C 49 % 55 % 1021,9 hPa 0,0 l/m 0,0 km/h (0 Bft) N-NO 22 6,9 C 15,9 C 0,0 km/h (0 Bft)
03.06.2023 01:30 20,8 C 15,9 C 17,2 C 49 % 55 % 1021,9 hPa 0,0 l/m 0,0 km/h (0 Bft) O-SO 112 6,9 C 15,9 C 0,0 km/h (0 Bft)
03.06.2023 01:29 20,8 C 15,9 C 17,2 C 49 % 55 % 1021,9 hPa 0,0 l/m 0,0 km/h (0 Bft) O-SO 112 6,9 C 15,9 C 0,0 km/h (0 Bft)
03.06.2023 01:28 20,8 C 15,9 C 17,3 C 49 % 55 % 1021,9 hPa 0,0 l/m 0,0 km/h (0 Bft) O 90 6,9 C 15,9 C 2,1 km/h (1 Bft)
03.06.2023 01:27 20,8 C 15,9 C 17,3 C 49 % 55 % 1021,9 hPa 0,0 l/m 0,0 km/h (0 Bft) O 90 6,9 C 15,9 C 2,1 km/h (1 Bft)
03.06.2023 01:26 20,8 C 15,9 C 17,3 C 49 % 55 % 1021,9 hPa 0,0 l/m 0,0 km/h (0 Bft) O 90 6,9 C 15,9 C 0,0 km/h (0 Bft)
03.06.2023 01:25 20,8 C 15,9 C 17,3 C 49 % 55 % 1021,9 hPa 0,0 l/m 0,0 km/h (0 Bft) O 90 6,9 C 15,9 C 0,0 km/h (0 Bft)
03.06.2023 01:24 20,8 C 15,9 C 17,4 C 49 % 55 % 1021,9 hPa 0,0 l/m 0,0 km/h (0 Bft) W-NW 292 6,9 C 15,9 C 0,0 km/h (0 Bft)
03.06.2023 01:23 20,8 C 15,9 C 17,4 C 49 % 55 % 1021,9 hPa 0,0 l/m 0,0 km/h (0 Bft) W-NW 292 6,9 C 15,9 C 0,0 km/h (0 Bft)
03.06.2023 01:22 20,8 C 16,0 C 17,4 C 49 % 54 % 1021,9 hPa 0,0 l/m 0,0 km/h (0 Bft) O-SO 112 6,7 C 16,0 C 0,0 km/h (0 Bft)
03.06.2023 01:21 20,8 C 16,0 C 17,4 C 49 % 54 % 1021,9 hPa 0,0 l/m 0,0 km/h (0 Bft) O-SO 112 6,7 C 16,0 C 0,0 km/h (0 Bft)
03.06.2023 01:20 20,8 C 16,0 C 17,4 C 49 % 54 % 1021,9 hPa 0,0 l/m 0,0 km/h (0 Bft) O 90 6,7 C 16,0 C 0,0 km/h (0 Bft)
03.06.2023 01:19 20,8 C 16,0 C 17,4 C 49 % 54 % 1021,9 hPa 0,0 l/m 0,0 km/h (0 Bft) O 90 6,7 C 16,0 C 0,0 km/h (0 Bft)
03.06.2023 01:18 20,8 C 16,0 C 17,3 C 49 % 54 % 1021,9 hPa 0,0 l/m 0,0 km/h (0 Bft) N 360 6,7 C 16,0 C 0,0 km/h (0 Bft)
03.06.2023 01:17 20,8 C 16,0 C 17,3 C 49 % 54 % 1021,9 hPa 0,0 l/m 0,0 km/h (0 Bft) N 360 6,7 C 16,0 C 0,0 km/h (0 Bft)
03.06.2023 01:16 20,8 C 16,0 C 17,3 C 49 % 54 % 1021,9 hPa 0,0 l/m 0,0 km/h (0 Bft) O-NO 67 6,7 C 16,0 C 0,0 km/h (0 Bft)
03.06.2023 01:15 20,8 C 16,0 C 17,3 C 49 % 54 % 1021,9 hPa 0,0 l/m 0,0 km/h (0 Bft) O-NO 67 6,7 C 16,0 C 0,0 km/h (0 Bft)
03.06.2023 01:14 20,8 C 15,9 C 17,2 C 49 % 55 % 1021,9 hPa 0,0 l/m 0,0 km/h (0 Bft) O 90 6,9 C 15,9 C 0,0 km/h (0 Bft)
03.06.2023 01:13 20,8 C 15,9 C 17,2 C 49 % 55 % 1021,9 hPa 0,0 l/m 0,0 km/h (0 Bft) O 90 6,9 C 15,9 C 0,0 km/h (0 Bft)
03.06.2023 01:12 20,8 C 15,9 C 17,3 C 49 % 55 % 1022,0 hPa 0,0 l/m 0,0 km/h (0 Bft) O-NO 67 6,9 C 15,9 C 0,0 km/h (0 Bft)
03.06.2023 01:11 20,8 C 15,9 C 17,3 C 49 % 55 % 1022,0 hPa 0,0 l/m 0,0 km/h (0 Bft) O-NO 67 6,9 C 15,9 C 0,0 km/h (0 Bft)
03.06.2023 01:10 20,8 C 15,9 C 17,4 C 49 % 55 % 1022,0 hPa 0,0 l/m 0,0 km/h (0 Bft) O-NO 67 6,9 C 15,9 C 0,0 km/h (0 Bft)
03.06.2023 01:09 20,8 C 15,9 C 17,4 C 49 % 55 % 1022,0 hPa 0,0 l/m 0,0 km/h (0 Bft) O-NO 67 6,9 C 15,9 C 0,0 km/h (0 Bft)
03.06.2023 01:08 20,8 C 16,0 C 17,5 C 49 % 54 % 1022,0 hPa 0,0 l/m 0,0 km/h (0 Bft) SO 135 6,7 C 16,0 C 0,0 km/h (0 Bft)
03.06.2023 01:07 20,8 C 16,0 C 17,5 C 49 % 54 % 1022,0 hPa 0,0 l/m 0,0 km/h (0 Bft) SO 135 6,7 C 16,0 C 0,0 km/h (0 Bft)
03.06.2023 01:06 20,9 C 16,0 C 17,6 C 49 % 54 % 1022,0 hPa 0,0 l/m 0,0 km/h (0 Bft) S 180 6,7 C 16,0 C 0,0 km/h (0 Bft)
03.06.2023 01:05 20,9 C 16,0 C 17,6 C 49 % 54 % 1022,0 hPa 0,0 l/m 0,0 km/h (0 Bft) S 180 6,7 C 16,0 C 0,0 km/h (0 Bft)
03.06.2023 01:04 20,9 C 16,0 C 17,5 C 49 % 54 % 1022,0 hPa 0,0 l/m 0,0 km/h (0 Bft) O-SO 112 6,7 C 16,0 C 0,0 km/h (0 Bft)
03.06.2023 01:03 20,9 C 16,0 C 17,5 C 49 % 54 % 1022,0 hPa 0,0 l/m 0,0 km/h (0 Bft) O-SO 112 6,7 C 16,0 C 0,0 km/h (0 Bft)
03.06.2023 01:02 20,9 C 16,0 C 17,5 C 49 % 54 % 1022,0 hPa 0,0 l/m 0,0 km/h (0 Bft) N-NO 22 6,7 C 16,0 C 0,0 km/h (0 Bft)
03.06.2023 01:01 20,9 C 16,0 C 17,5 C 49 % 54 % 1022,0 hPa 0,0 l/m 0,0 km/h (0 Bft) N-NO 22 6,7 C 16,0 C 0,0 km/h (0 Bft)
03.06.2023 01:00 20,8 C 16,0 C 17,4 C 49 % 54 % 1022,0 hPa 0,0 l/m 0,0 km/h (0 Bft) O 90 6,7 C 16,0 C 0,0 km/h (0 Bft)
03.06.2023 00:59 20,8 C 16,0 C 17,4 C 49 % 54 % 1022,0 hPa 0,0 l/m 0,0 km/h (0 Bft) O 90 6,7 C 16,0 C 0,0 km/h (0 Bft)
03.06.2023 00:58 20,9 C 16,0 C 17,4 C 49 % 54 % 1022,0 hPa 0,0 l/m 0,0 km/h (0 Bft) NO 45 6,7 C 16,0 C 0,0 km/h (0 Bft)
03.06.2023 00:57 20,9 C 16,0 C 17,4 C 49 % 54 % 1022,0 hPa 0,0 l/m 0,0 km/h (0 Bft) NO 45 6,7 C 16,0 C 0,0 km/h (0 Bft)
03.06.2023 00:56 20,8 C 16,0 C 17,4 C 49 % 54 % 1022,0 hPa 0,0 l/m 0,0 km/h (0 Bft) N-NO 22 6,7 C 16,0 C 0,0 km/h (0 Bft)
03.06.2023 00:55 20,8 C 16,0 C 17,4 C 49 % 54 % 1022,0 hPa 0,0 l/m 0,0 km/h (0 Bft) N-NO 22 6,7 C 16,0 C 0,0 km/h (0 Bft)
03.06.2023 00:54 20,9 C 15,9 C 17,5 C 49 % 56 % 1022,0 hPa 0,0 l/m 0,0 km/h (0 Bft) O-NO 67 7,1 C 15,9 C 0,0 km/h (0 Bft)
03.06.2023 00:53 20,9 C 15,9 C 17,5 C 49 % 56 % 1022,0 hPa 0,0 l/m 0,0 km/h (0 Bft) O-NO 67 7,1 C 15,9 C 0,0 km/h (0 Bft)
03.06.2023 00:52 20,9 C 15,9 C 17,6 C 49 % 56 % 1021,9 hPa 0,0 l/m 0,0 km/h (0 Bft) S-SO 157 7,1 C 15,9 C 2,9 km/h (1 Bft)
03.06.2023 00:51 20,9 C 15,9 C 17,6 C 49 % 56 % 1021,9 hPa 0,0 l/m 0,0 km/h (0 Bft) S-SO 157 7,1 C 15,9 C 2,9 km/h (1 Bft)
03.06.2023 00:50 20,9 C 15,9 C 17,6 C 49 % 56 % 1021,9 hPa 0,0 l/m 0,0 km/h (0 Bft) O-SO 112 7,1 C 15,9 C 0,0 km/h (0 Bft)
03.06.2023 00:49 20,9 C 15,9 C 17,6 C 49 % 56 % 1021,9 hPa 0,0 l/m 0,0 km/h (0 Bft) O-SO 112 7,1 C 15,9 C 0,0 km/h (0 Bft)
03.06.2023 00:48 20,9 C 15,9 C 17,4 C 50 % 56 % 1021,9 hPa 0,0 l/m 0,0 km/h (0 Bft) NO 45 7,1 C 15,9 C 0,0 km/h (0 Bft)
03.06.2023 00:47 20,9 C 15,9 C 17,4 C 50 % 56 % 1021,9 hPa 0,0 l/m 0,0 km/h (0 Bft) NO 45 7,1 C 15,9 C 0,0 km/h (0 Bft)
03.06.2023 00:46 20,9 C 15,8 C 17,4 C 50 % 56 % 1021,9 hPa 0,0 l/m 0,0 km/h (0 Bft) NO 45 7,0 C 15,8 C 0,0 km/h (0 Bft)
03.06.2023 00:45 20,9 C 15,8 C 17,4 C 50 % 56 % 1021,9 hPa 0,0 l/m 0,0 km/h (0 Bft) NO 45 7,0 C 15,8 C 0,0 km/h (0 Bft)
03.06.2023 00:44 20,9 C 15,8 C 17,5 C 50 % 56 % 1021,9 hPa 0,0 l/m 0,0 km/h (0 Bft) O-NO 67 7,0 C 15,8 C 0,0 km/h (0 Bft)
03.06.2023 00:43 20,9 C 15,8 C 17,5 C 50 % 56 % 1021,9 hPa 0,0 l/m 0,0 km/h (0 Bft) O-NO 67 7,0 C 15,8 C 0,0 km/h (0 Bft)
03.06.2023 00:42 20,9 C 15,7 C 17,5 C 50 % 57 % 1021,9 hPa 0,0 l/m 0,0 km/h (0 Bft) O-SO 112 7,2 C 15,7 C 0,0 km/h (0 Bft)
03.06.2023 00:41 20,9 C 15,7 C 17,5 C 50 % 57 % 1021,9 hPa 0,0 l/m 0,0 km/h (0 Bft) O-SO 112 7,2 C 15,7 C 0,0 km/h (0 Bft)
03.06.2023 00:40 20,9 C 15,7 C 17,4 C 50 % 57 % 1021,9 hPa 0,0 l/m 0,0 km/h (0 Bft) O-SO 112 7,2 C 15,7 C 0,0 km/h (0 Bft)
03.06.2023 00:39 20,9 C 15,7 C 17,4 C 50 % 57 % 1021,9 hPa 0,0 l/m 0,0 km/h (0 Bft) O-SO 112 7,2 C 15,7 C 0,0 km/h (0 Bft)
03.06.2023 00:38 20,9 C 15,6 C 17,4 C 50 % 57 % 1021,9 hPa 0,0 l/m 0,0 km/h (0 Bft) O-SO 112 7,1 C 15,6 C 0,0 km/h (0 Bft)
03.06.2023 00:37 20,9 C 15,6 C 17,4 C 50 % 57 % 1021,9 hPa 0,0 l/m 0,0 km/h (0 Bft) O-SO 112 7,1 C 15,6 C 0,0 km/h (0 Bft)
03.06.2023 00:36 20,9 C 15,5 C 17,4 C 50 % 57 % 1021,9 hPa 0,0 l/m 0,0 km/h (0 Bft) O 90 7,0 C 15,5 C 0,0 km/h (0 Bft)
03.06.2023 00:35 20,9 C 15,5 C 17,4 C 50 % 57 % 1021,9 hPa 0,0 l/m 0,0 km/h (0 Bft) O 90 7,0 C 15,5 C 0,0 km/h (0 Bft)
03.06.2023 00:34 20,9 C 15,5 C 17,3 C 51 % 57 % 1021,9 hPa 0,0 l/m 0,0 km/h (0 Bft) O 90 7,0 C 15,5 C 0,0 km/h (0 Bft)
03.06.2023 00:33 20,9 C 15,5 C 17,3 C 51 % 57 % 1021,9 hPa 0,0 l/m 0,0 km/h (0 Bft) O 90 7,0 C 15,5 C 0,0 km/h (0 Bft)
03.06.2023 00:32 20,9 C 15,5 C 17,4 C 51 % 57 % 1022,1 hPa 0,0 l/m 0,0 km/h (0 Bft) SO 135 7,0 C 15,5 C 0,0 km/h (0 Bft)
03.06.2023 00:31 20,9 C 15,5 C 17,4 C 51 % 57 % 1022,1 hPa 0,0 l/m 0,0 km/h (0 Bft) SO 135 7,0 C 15,5 C 0,0 km/h (0 Bft)
03.06.2023 00:30 20,9 C 15,4 C 17,4 C 50 % 57 % 1022,1 hPa 0,0 l/m 0,0 km/h (0 Bft) N-NW 337 6,9 C 15,4 C 0,0 km/h (0 Bft)
03.06.2023 00:29 20,9 C 15,4 C 17,4 C 50 % 57 % 1022,1 hPa 0,0 l/m 0,0 km/h (0 Bft) N-NW 337 6,9 C 15,4 C 0,0 km/h (0 Bft)
03.06.2023 00:28 20,9 C 15,4 C 17,8 C 51 % 57 % 1022,1 hPa 0,0 l/m 0,0 km/h (0 Bft) O-SO 112 6,9 C 15,4 C 0,0 km/h (0 Bft)
03.06.2023 00:27 20,9 C 15,4 C 17,8 C 51 % 57 % 1022,1 hPa 0,0 l/m 0,0 km/h (0 Bft) O-SO 112 6,9 C 15,4 C 0,0 km/h (0 Bft)
03.06.2023 00:26 21,0 C 15,4 C 18,0 C 51 % 57 % 1022,1 hPa 0,0 l/m 0,0 km/h (0 Bft) O-SO 112 6,9 C 15,4 C 0,0 km/h (0 Bft)
03.06.2023 00:25 21,0 C 15,4 C 18,0 C 51 % 57 % 1022,1 hPa 0,0 l/m 0,0 km/h (0 Bft) O-SO 112 6,9 C 15,4 C 0,0 km/h (0 Bft)
03.06.2023 00:24 21,0 C 15,5 C 18,0 C 51 % 57 % 1022,1 hPa 0,0 l/m 0,0 km/h (0 Bft) SO 135 7,0 C 15,5 C 0,0 km/h (0 Bft)
03.06.2023 00:23 21,0 C 15,5 C 18,0 C 51 % 57 % 1022,1 hPa 0,0 l/m 0,0 km/h (0 Bft) SO 135 7,0 C 15,5 C 0,0 km/h (0 Bft)
03.06.2023 00:22 21,0 C 15,5 C 18,0 C 51 % 57 % 1022,1 hPa 0,0 l/m 0,0 km/h (0 Bft) O-SO 112 7,0 C 15,5 C 0,0 km/h (0 Bft)
03.06.2023 00:21 21,0 C 15,5 C 18,0 C 51 % 57 % 1022,1 hPa 0,0 l/m 0,0 km/h (0 Bft) O-SO 112 7,0 C 15,5 C 0,0 km/h (0 Bft)
03.06.2023 00:20 21,0 C 15,5 C 18,1 C 51 % 57 % 1022,1 hPa 0,0 l/m 0,0 km/h (0 Bft) W-NW 292 7,0 C 15,5 C 0,0 km/h (0 Bft)
03.06.2023 00:19 21,0 C 15,5 C 18,1 C 51 % 57 % 1022,1 hPa 0,0 l/m 0,0 km/h (0 Bft) W-NW 292 7,0 C 15,5 C 0,0 km/h (0 Bft)
03.06.2023 00:18 21,1 C 15,6 C 18,0 C 51 % 57 % 1022,1 hPa 0,0 l/m 0,0 km/h (0 Bft) O-SO 112 7,1 C 15,6 C 0,0 km/h (0 Bft)
03.06.2023 00:17 21,1 C 15,6 C 18,0 C 51 % 57 % 1022,1 hPa 0,0 l/m 0,0 km/h (0 Bft) O-SO 112 7,1 C 15,6 C 0,0 km/h (0 Bft)
03.06.2023 00:16 21,1 C 15,7 C 18,0 C 51 % 57 % 1022,1 hPa 0,0 l/m 0,0 km/h (0 Bft) O 90 7,2 C 15,7 C 0,0 km/h (0 Bft)
03.06.2023 00:15 21,1 C 15,7 C 18,0 C 51 % 57 % 1022,1 hPa 0,0 l/m 0,0 km/h (0 Bft) O 90 7,2 C 15,7 C 0,0 km/h (0 Bft)
03.06.2023 00:14 21,2 C 15,7 C 18,0 C 51 % 56 % 1022,1 hPa 0,0 l/m 0,0 km/h (0 Bft) O 90 6,9 C 15,7 C 0,0 km/h (0 Bft)
03.06.2023 00:13 21,2 C 15,7 C 18,0 C 51 % 56 % 1022,1 hPa 0,0 l/m 0,0 km/h (0 Bft) O 90 6,9 C 15,7 C 0,0 km/h (0 Bft)
03.06.2023 00:12 21,2 C 16,0 C 18,3 C 51 % 54 % 1022,1 hPa 0,0 l/m 0,0 km/h (0 Bft) NW 315 6,7 C 16,0 C 0,0 km/h (0 Bft)
03.06.2023 00:11 21,2 C 16,0 C 18,3 C 51 % 54 % 1022,1 hPa 0,0 l/m 0,0 km/h (0 Bft) NW 315 6,7 C 16,0 C 0,0 km/h (0 Bft)
03.06.2023 00:10 21,2 C 16,0 C 18,3 C 51 % 54 % 1022,1 hPa 0,0 l/m 0,0 km/h (0 Bft) NW 315 6,7 C 16,0 C 0,0 km/h (0 Bft)
03.06.2023 00:09 21,2 C 16,0 C 18,3 C 51 % 54 % 1022,1 hPa 0,0 l/m 0,0 km/h (0 Bft) NW 315 6,7 C 16,0 C 0,0 km/h (0 Bft)
03.06.2023 00:08 21,2 C 16,0 C 18,3 C 51 % 54 % 1022,1 hPa 0,0 l/m 0,0 km/h (0 Bft) NW 315 6,7 C 16,0 C 0,0 km/h (0 Bft)
03.06.2023 00:07 21,2 C 16,0 C 18,3 C 51 % 54 % 1022,1 hPa 0,0 l/m 0,0 km/h (0 Bft) NW 315 6,7 C 16,0 C 0,0 km/h (0 Bft)
03.06.2023 00:06 21,2 C 16,0 C 18,3 C 50 % 54 % 1022,1 hPa 0,0 l/m 0,0 km/h (0 Bft) NW 315 6,7 C 16,0 C 0,0 km/h (0 Bft)
03.06.2023 00:05 21,2 C 16,0 C 18,3 C 50 % 54 % 1022,1 hPa 0,0 l/m 0,0 km/h (0 Bft) NW 315 6,7 C 16,0 C 0,0 km/h (0 Bft)
03.06.2023 00:04 21,3 C 16,0 C 18,3 C 50 % 54 % 1022,1 hPa 0,0 l/m 0,0 km/h (0 Bft) NW 315 6,7 C 16,0 C 0,0 km/h (0 Bft)
03.06.2023 00:03 21,3 C 16,0 C 18,3 C 50 % 54 % 1022,1 hPa 0,0 l/m 0,0 km/h (0 Bft) NW 315 6,7 C 16,0 C 0,0 km/h (0 Bft)
03.06.2023 00:02 21,2 C 16,1 C 18,3 C 51 % 54 % 1022,1 hPa 0,0 l/m 0,0 km/h (0 Bft) N 360 6,8 C 16,1 C 0,0 km/h (0 Bft)
03.06.2023 00:01 21,2 C 16,1 C 18,3 C 51 % 54 % 1022,1 hPa 0,0 l/m 0,0 km/h (0 Bft) N 360 6,8 C 16,1 C 0,0 km/h (0 Bft)
03.06.2023 00:00 21,4 C 16,2 C 18,5 C 50 % 54 % 1022,1 hPa 0,0 l/m 0,0 km/h (0 Bft) W 270 6,9 C 16,2 C 0,0 km/h (0 Bft)
_ Min-Zeit 04:23 04:21 06:17 16:11 15:07 04:33 - 00:00 - - 04:07 04:21 00:00
Minimum _ 18,7 C 11,7 C 14,4 C 44 % 33 % 1020,8 hPa - 0,0 km/h (0 Bft) - - 5,1 C 11,7 C 0,0 km/h (0 Bft)
_ Max-Zeit 16:17 15:05 15:05 04:05 04:35 09:13 15:41 07:45 - - 12:55 15:05 07:52
Maximum _ 21,5 C 25,2 C 23,1 C 54 % 67 % 1022,4 hPa 0,1 l/m 1,1 km/h
O-SO (1 Bft)
- - 8,3 C 25,2 C 20,9 km/h
O-SO (4 Bft)
Durchschnitt _ 19,9 C 17,7 C 18,3 C 49 % 50 % 1021,8 hPa #0,1 l/m 0,1 km/h (0 Bft) O-SO - 6,6 C 17,7 C 0,3 km/h (0 Bft)